Darstellungsparameter: Aktuell verwendete Einstellungen:
Skalierung der Graphiken ... ?
xyx+y,   Skalierungsfaktor:      Skalierung: Modus: x, Faktor: 1
Darstellungszeitraum ... ?
Vom - - bis: - -   Zeitraum: 18.03.2020 - 24.03.2020
Min/Max/Avg-Anzeige ... ?
Zeige MMA aktuell
Zeige MMA Monat
Zeige MMA alles
Zeige --A aktuell
Zeige --A Monat
Zeige --A alles
Keine MMA-Anzeige
MMA:
Keine MMA-Graphiken
MMA-Basis: 18.03.2020 - 24.03.2020
Quicknavigation für Darstellung... ?
Tage:      1T, 2T, 3T, 5T -1T -2T -3T -5T +1T +2T +3T +5T
Wochen: 1W, 2W, 3W -1W -2W -3W +1W +2W +3W
Monate: 1M, 3M, 6M -1M -3M -6M +1M +3M +6M
Jahre:    1J, 3J, 5J, 10J -1J -3J -5J -10J +1J +3J +5J +10J
Nutze für die Darstellung ... ?
Originaldaten oder Mittelwerte auf ...
Stundenbasis Tagesbasis Wochenbasis
Monatsbasis Jahresbasis      Datenbasis: Original-Daten
Darstellen als:
Statistik (Auto) Statistik J:M      Darstellung:
Zur Graphik,    zurück zur Übersicht aller Sensoren.
 
Tabellarische Datenbersicht: ?
 
Sensor: Nr:Datum:Temp:Abs-Feuchte:Windchill:Wind:
Aussen-T/F 1 18-03-2020 00:00:00 6.8 C 7.04 g/m*3 6.8 C 0 km/h
2 18-03-2020 00:05:00 6.8 C 6.96 g/m*3 6.8 C 0 km/h
3 18-03-2020 00:10:00 6.7 C 6.91 g/m*3 6.7 C 0 km/h
4 18-03-2020 00:15:00 6.7 C 6.99 g/m*3 6.7 C 0 km/h
5 18-03-2020 00:20:00 6.6 C 6.95 g/m*3 6.6 C 0 km/h
6 18-03-2020 00:25:00 6.6 C 6.95 g/m*3 6.6 C 0 km/h
7 18-03-2020 00:30:00 6.6 C 6.95 g/m*3 6.6 C 0 km/h
8 18-03-2020 00:35:00 6.6 C 6.95 g/m*3 6.6 C 0 km/h
9 18-03-2020 00:40:00 6.5 C 6.9 g/m*3 6.5 C 0 km/h
10 18-03-2020 00:45:00 6.5 C 6.9 g/m*3 6.5 C 0 km/h
11 18-03-2020 00:50:00 6.5 C 6.9 g/m*3 6.5 C 0 km/h
12 18-03-2020 00:55:00 6.6 C 7.02 g/m*3 6.6 C 0 km/h
13 18-03-2020 01:00:00 6.6 C 7.02 g/m*3 6.6 C 0 km/h
14 18-03-2020 01:05:00 6.6 C 7.02 g/m*3 6.6 C 0 km/h
15 18-03-2020 01:10:00 6.6 C 6.95 g/m*3 6.6 C 0 km/h
16 18-03-2020 01:15:00 6.6 C 7.02 g/m*3 6.6 C 0 km/h
17 18-03-2020 01:20:00 6.5 C 6.9 g/m*3 6.5 C 0 km/h
18 18-03-2020 01:25:00 6.3 C 6.81 g/m*3 6.3 C 0 km/h
19 18-03-2020 01:30:00 6.2 C 6.77 g/m*3 6.2 C 0 km/h
20 18-03-2020 01:35:00 6.3 C 6.88 g/m*3 6.3 C 0 km/h
21 18-03-2020 01:40:00 6.2 C 6.84 g/m*3 6.2 C 0 km/h
22 18-03-2020 01:45:00 6.2 C 6.84 g/m*3 6.2 C 0 km/h
23 18-03-2020 01:50:00 6.2 C 6.84 g/m*3 6.2 C 0 km/h
24 18-03-2020 01:55:00 6.3 C 6.88 g/m*3 6.3 C 1.6 km/h
25 18-03-2020 02:00:00 6.3 C 6.88 g/m*3 6.3 C 1.6 km/h
Sensor: Nr:Datum:Temp:Abs-Feuchte:Windchill:Wind:
Aussen-T/F 26 18-03-2020 02:05:00 6.3 C 6.88 g/m*3 6.3 C 0 km/h
27 18-03-2020 02:10:00 6.2 C 6.84 g/m*3 6.2 C 0 km/h
28 18-03-2020 02:15:00 6.1 C 6.79 g/m*3 6.1 C 1.6 km/h
29 18-03-2020 02:20:00 6 C 6.75 g/m*3 6 C 0 km/h
30 18-03-2020 02:25:00 5.8 C 6.66 g/m*3 5.8 C 0 km/h
31 18-03-2020 02:30:00 5.7 C 6.62 g/m*3 5.7 C 0 km/h
32 18-03-2020 02:35:00 5.6 C 6.57 g/m*3 5.6 C 0 km/h
33 18-03-2020 02:40:00 5.5 C 6.53 g/m*3 5.5 C 1.6 km/h
34 18-03-2020 02:45:00 5.4 C 6.49 g/m*3 5.4 C 0 km/h
35 18-03-2020 02:50:00 5.3 C 6.45 g/m*3 5.3 C 0 km/h
36 18-03-2020 02:55:00 5.3 C 6.45 g/m*3 5.3 C 0 km/h
37 18-03-2020 03:00:00 5.2 C 6.4 g/m*3 5.2 C 0 km/h
38 18-03-2020 03:05:00 5.2 C 6.4 g/m*3 5.2 C 0 km/h
39 18-03-2020 03:10:00 5.1 C 6.43 g/m*3 5.1 C 0 km/h
40 18-03-2020 03:15:00 5.1 C 6.43 g/m*3 5.1 C 0 km/h
41 18-03-2020 03:20:00 5 C 6.39 g/m*3 5 C 0 km/h
42 18-03-2020 03:25:00 5.1 C 6.43 g/m*3 5.1 C 0 km/h
43 18-03-2020 03:30:00 5 C 6.39 g/m*3 5 C 0 km/h
44 18-03-2020 03:35:00 4.9 C 6.35 g/m*3 4.9 C 0 km/h
45 18-03-2020 03:40:00 4.8 C 6.3 g/m*3 4.8 C 0 km/h
46 18-03-2020 03:45:00 4.8 C 6.3 g/m*3 4.8 C 0 km/h
47 18-03-2020 03:50:00 4.8 C 6.3 g/m*3 4.8 C 0 km/h
48 18-03-2020 03:55:00 4.7 C 6.26 g/m*3 4.7 C 0 km/h
49 18-03-2020 04:00:00 4.7 C 6.26 g/m*3 4.7 C 0 km/h
50 18-03-2020 04:05:00 4.6 C 6.22 g/m*3 4.6 C 0 km/h
Sensor: Nr:Datum:Temp:Abs-Feuchte:Windchill:Wind:
Aussen-T/F 51 18-03-2020 04:10:00 4.6 C 6.22 g/m*3 4.6 C 0 km/h
52 18-03-2020 04:15:00 4.5 C 6.24 g/m*3 4.5 C 0 km/h
53 18-03-2020 04:20:00 4.5 C 6.24 g/m*3 4.5 C 0 km/h
54 18-03-2020 04:25:00 4.4 C 6.2 g/m*3 4.4 C 0 km/h
55 18-03-2020 04:30:00 4.4 C 6.2 g/m*3 4.4 C 0 km/h
56 18-03-2020 04:35:00 4.5 C 6.24 g/m*3 4.5 C 0 km/h
57 18-03-2020 04:40:00 4.6 C 6.29 g/m*3 4.6 C 0 km/h
58 18-03-2020 04:45:00 4.6 C 6.29 g/m*3 4.6 C 0 km/h
59 18-03-2020 04:50:00 4.4 C 6.2 g/m*3 4.4 C 0 km/h
60 18-03-2020 04:55:00 4.3 C 6.16 g/m*3 4.3 C 0 km/h
61 18-03-2020 05:00:00 4.3 C 6.16 g/m*3 4.3 C 0 km/h
62 18-03-2020 05:05:00 4.2 C 6.12 g/m*3 4.2 C 0 km/h
63 18-03-2020 05:10:00 4.2 C 6.12 g/m*3 4.2 C 0 km/h
64 18-03-2020 05:15:00 4.2 C 6.12 g/m*3 4.2 C 0 km/h
65 18-03-2020 05:20:00 4.3 C 6.16 g/m*3 4.3 C 3.2 km/h
66 18-03-2020 05:25:00 4.3 C 6.16 g/m*3 4.3 C 0 km/h
67 18-03-2020 05:30:00 4.2 C 6.12 g/m*3 4.2 C 0 km/h
68 18-03-2020 05:35:00 4.1 C 6.08 g/m*3 4.1 C 0 km/h
69 18-03-2020 05:40:00 4.1 C 6.08 g/m*3 4.1 C 0 km/h
70 18-03-2020 05:45:00 4.1 C 6.08 g/m*3 4.1 C 0 km/h
71 18-03-2020 05:50:00 4.1 C 6.08 g/m*3 4.1 C 0 km/h
72 18-03-2020 05:55:00 4.2 C 6.19 g/m*3 4.2 C 0 km/h
73 18-03-2020 06:00:00 4.2 C 6.19 g/m*3 4.2 C 0 km/h
74 18-03-2020 06:05:00 4.1 C 6.14 g/m*3 4.1 C 0 km/h
75 18-03-2020 06:10:00 3.9 C 6 g/m*3 3.9 C 0 km/h
Sensor: Nr:Datum:Temp:Abs-Feuchte:Windchill:Wind:
Aussen-T/F 76 18-03-2020 06:15:00 3.9 C 6 g/m*3 3.9 C 1.6 km/h
77 18-03-2020 06:20:00 3.9 C 6.06 g/m*3 3.9 C 0 km/h
78 18-03-2020 06:25:00 3.9 C 6.06 g/m*3 3.9 C 0 km/h
79 18-03-2020 06:30:00 3.8 C 6.02 g/m*3 3.8 C 0 km/h
80 18-03-2020 06:35:00 3.8 C 6.02 g/m*3 3.8 C 0 km/h
81 18-03-2020 06:40:00 3.8 C 6.02 g/m*3 3.8 C 0 km/h
82 18-03-2020 06:45:00 3.9 C 6.06 g/m*3 3.9 C 0 km/h
83 18-03-2020 06:50:00 3.9 C 6.06 g/m*3 3.9 C 0 km/h
84 18-03-2020 06:55:00 3.9 C 6.06 g/m*3 3.9 C 0 km/h
85 18-03-2020 07:00:00 4.1 C 6.14 g/m*3 4.1 C 3.2 km/h
86 18-03-2020 07:05:00 4.2 C 6.19 g/m*3 4.2 C 0 km/h
87 18-03-2020 07:10:00 4.3 C 6.23 g/m*3 4.3 C 4.8 km/h
88 18-03-2020 07:15:00 4.3 C 6.23 g/m*3 4.3 C 0 km/h
89 18-03-2020 07:20:00 4.2 C 6.19 g/m*3 4.2 C 0 km/h
90 18-03-2020 07:25:00 4.1 C 6.14 g/m*3 4.1 C 0 km/h
91 18-03-2020 07:30:00 4.1 C 6.14 g/m*3 4.1 C 0 km/h
92 18-03-2020 07:35:00 4.2 C 6.19 g/m*3 4.2 C 1.6 km/h
93 18-03-2020 07:40:00 4.4 C 6.27 g/m*3 4.4 C 3.2 km/h
94 18-03-2020 07:45:00 4.6 C 6.35 g/m*3 4.6 C 1.6 km/h
95 18-03-2020 07:50:00 4.6 C 6.35 g/m*3 4.6 C 0 km/h
96 18-03-2020 07:55:00 4.6 C 6.35 g/m*3 4.6 C 3.2 km/h
97 18-03-2020 08:00:00 4.8 C 6.44 g/m*3 4.8 C 4.8 km/h
98 18-03-2020 08:05:00 4.9 C 6.48 g/m*3 4.9 C 0 km/h
99 18-03-2020 08:10:00 5.1 C 6.63 g/m*3 5.1 C 3.2 km/h
100 18-03-2020 08:15:00 5.1 C 6.63 g/m*3 5.1 C 1.6 km/h
Sensor: Nr:Datum:Temp:Abs-Feuchte:Windchill:Wind:
Aussen-T/F 101 18-03-2020 08:20:00 5.2 C 6.68 g/m*3 5.2 C 0 km/h
102 18-03-2020 08:25:00 5.2 C 6.61 g/m*3 5.2 C 3.2 km/h
103 18-03-2020 08:30:00 5.3 C 6.65 g/m*3 5.3 C 1.6 km/h
104 18-03-2020 08:35:00 5.3 C 6.65 g/m*3 5.3 C 0 km/h
105 18-03-2020 08:40:00 5.4 C 6.77 g/m*3 5.4 C 0 km/h
106 18-03-2020 08:45:00 5.6 C 6.86 g/m*3 5.6 C 0 km/h
107 18-03-2020 08:50:00 5.7 C 6.9 g/m*3 5.7 C 0 km/h
108 18-03-2020 08:55:00 5.7 C 6.9 g/m*3 5.7 C 0 km/h
109 18-03-2020 09:00:00 5.9 C 6.99 g/m*3 5.9 C 0 km/h
110 18-03-2020 09:05:00 6.2 C 7.13 g/m*3 6.2 C 1.6 km/h
111 18-03-2020 09:10:00 6.5 C 7.27 g/m*3 5.33 C 6.4 km/h
112 18-03-2020 09:15:00 6.8 C 7.42 g/m*3 6.8 C 1.6 km/h
113 18-03-2020 09:20:00 7.1 C 7.57 g/m*3 7.1 C 0 km/h
114 18-03-2020 09:25:00 7.4 C 7.71 g/m*3 7.4 C 3.2 km/h
115 18-03-2020 09:30:00 7.9 C 7.97 g/m*3 6.94 C 6.4 km/h
116 18-03-2020 09:35:00 8.5 C 8.28 g/m*3 7.64 C 6.4 km/h
117 18-03-2020 09:40:00 8.8 C 8.44 g/m*3 8.8 C 4.8 km/h
118 18-03-2020 09:45:00 9 C 8.64 g/m*3 8.21 C 6.4 km/h
119 18-03-2020 09:50:00 9.3 C 8.72 g/m*3 9.3 C 4.8 km/h
120 18-03-2020 09:55:00 9.5 C 8.74 g/m*3 9.5 C 4.8 km/h
121 18-03-2020 10:00:00 9.7 C 8.76 g/m*3 9.02 C 6.4 km/h
122 18-03-2020 10:05:00 9.9 C 8.68 g/m*3 9.9 C 4.8 km/h
123 18-03-2020 10:10:00 10.2 C 8.76 g/m*3 10.2 C 4.8 km/h
124 18-03-2020 10:15:00 10.4 C 8.77 g/m*3 10.4 C 4.8 km/h
125 18-03-2020 10:20:00 10.6 C 8.88 g/m*3 10.6 C 3.2 km/h
Sensor: Nr:Datum:Temp:Abs-Feuchte:Windchill:Wind:
Aussen-T/F 126 18-03-2020 10:25:00 10.8 C 8.8 g/m*3 10.8 C 3.2 km/h
127 18-03-2020 10:30:00 11 C 8.81 g/m*3 11 C 4.8 km/h
128 18-03-2020 10:35:00 11.2 C 8.82 g/m*3 11.2 C 4.8 km/h
129 18-03-2020 10:40:00 11.3 C 8.87 g/m*3 11.3 C 3.2 km/h
130 18-03-2020 10:45:00 11.4 C 8.93 g/m*3 11.4 C 6.4 km/h
131 18-03-2020 10:50:00 11.6 C 8.94 g/m*3 11.6 C 6.4 km/h
132 18-03-2020 10:55:00 11.8 C 8.95 g/m*3 11.8 C 8.1 km/h
133 18-03-2020 11:00:00 11.9 C 9 g/m*3 11.9 C 8.1 km/h
134 18-03-2020 11:05:00 12 C 8.95 g/m*3 12 C 6.4 km/h
135 18-03-2020 11:10:00 12.1 C 8.9 g/m*3 12.1 C 6.4 km/h
136 18-03-2020 11:15:00 12.2 C 8.96 g/m*3 12.2 C 4.8 km/h
137 18-03-2020 11:20:00 12.3 C 9.01 g/m*3 12.3 C 6.4 km/h
138 18-03-2020 11:25:00 12.4 C 8.96 g/m*3 12.4 C 6.4 km/h
139 18-03-2020 11:30:00 12.6 C 9.07 g/m*3 12.6 C 4.8 km/h
140 18-03-2020 11:35:00 12.7 C 9.02 g/m*3 12.7 C 8.1 km/h
141 18-03-2020 11:40:00 12.8 C 9.07 g/m*3 12.8 C 6.4 km/h
142 18-03-2020 11:45:00 13 C 9.19 g/m*3 13 C 6.4 km/h
143 18-03-2020 11:50:00 13.2 C 9.3 g/m*3 13.2 C 3.2 km/h
144 18-03-2020 11:55:00 13.3 C 9.13 g/m*3 13.3 C 3.2 km/h
145 18-03-2020 12:00:00 13.4 C 9.18 g/m*3 13.4 C 6.4 km/h
146 18-03-2020 12:05:00 13.6 C 9.3 g/m*3 13.6 C 6.4 km/h
147 18-03-2020 12:10:00 13.8 C 9.41 g/m*3 13.8 C 4.8 km/h
148 18-03-2020 12:15:00 13.9 C 9.35 g/m*3 13.9 C 8.1 km/h
149 18-03-2020 12:20:00 14.2 C 9.52 g/m*3 14.2 C 1.6 km/h
150 18-03-2020 12:25:00 14.3 C 9.34 g/m*3 14.3 C 1.6 km/h
Sensor: Nr:Datum:Temp:Abs-Feuchte:Windchill:Wind:
Aussen-T/F 151 18-03-2020 12:30:00 14.6 C 9.51 g/m*3 14.6 C 0 km/h
152 18-03-2020 12:35:00 14.7 C 9.57 g/m*3 14.7 C 0 km/h
153 18-03-2020 12:40:00 14.8 C 9.5 g/m*3 14.8 C 0 km/h
154 18-03-2020 12:45:00 15.1 C 9.55 g/m*3 15.1 C 3.2 km/h
155 18-03-2020 12:50:00 15.2 C 9.48 g/m*3 15.2 C 4.8 km/h
156 18-03-2020 12:55:00 15.3 C 9.4 g/m*3 15.3 C 1.6 km/h
157 18-03-2020 13:00:00 15.7 C 9.23 g/m*3 15.7 C 4.8 km/h
158 18-03-2020 13:05:00 16.2 C 9.38 g/m*3 16.2 C 8.1 km/h
159 18-03-2020 13:10:00 16.5 C 9.27 g/m*3 16.5 C 12.9 km/h
160 18-03-2020 13:15:00 16.8 C 9.29 g/m*3 16.8 C 9.7 km/h
161 18-03-2020 13:20:00 17.1 C 9.03 g/m*3 17.1 C 9.7 km/h
162 18-03-2020 13:25:00 17.1 C 9.17 g/m*3 17.1 C 9.7 km/h
163 18-03-2020 13:30:00 17.2 C 9.08 g/m*3 17.2 C 9.7 km/h
164 18-03-2020 13:35:00 17 C 8.83 g/m*3 17 C 9.7 km/h
165 18-03-2020 13:40:00 16.9 C 8.77 g/m*3 16.9 C 4.8 km/h
166 18-03-2020 13:45:00 16.7 C 8.81 g/m*3 16.7 C 8.1 km/h
167 18-03-2020 13:50:00 16.6 C 8.9 g/m*3 16.6 C 4.8 km/h
168 18-03-2020 13:55:00 16.4 C 8.79 g/m*3 16.4 C 6.4 km/h
169 18-03-2020 14:00:00 16.3 C 8.6 g/m*3 16.3 C 6.4 km/h
170 18-03-2020 14:05:00 16.2 C 8.69 g/m*3 16.2 C 6.4 km/h
171 18-03-2020 14:10:00 16.4 C 8.93 g/m*3 16.4 C 8.1 km/h
172 18-03-2020 14:15:00 16.6 C 8.48 g/m*3 16.6 C 6.4 km/h
173 18-03-2020 14:20:00 16.6 C 8.48 g/m*3 16.6 C 8.1 km/h
174 18-03-2020 14:25:00 16.6 C 8.62 g/m*3 16.6 C 8.1 km/h
175 18-03-2020 14:30:00 16.7 C 8.38 g/m*3 16.7 C 12.9 km/h
Sensor: Nr:Datum:Temp:Abs-Feuchte:Windchill:Wind:
Aussen-T/F 176 18-03-2020 14:35:00 16.7 C 8.38 g/m*3 16.7 C 8.1 km/h
177 18-03-2020 14:40:00 16.8 C 8.44 g/m*3 16.8 C 6.4 km/h
178 18-03-2020 14:45:00 16.8 C 8.44 g/m*3 16.8 C 9.7 km/h
179 18-03-2020 14:50:00 16.6 C 8.48 g/m*3 16.6 C 8.1 km/h
180 18-03-2020 14:55:00 16.5 C 8.57 g/m*3 16.5 C 4.8 km/h
181 18-03-2020 15:00:00 16.6 C 8.62 g/m*3 16.6 C 4.8 km/h
182 18-03-2020 15:05:00 16.7 C 8.67 g/m*3 16.7 C 9.7 km/h
183 18-03-2020 15:10:00 16.9 C 8.63 g/m*3 16.9 C 4.8 km/h
184 18-03-2020 15:15:00 17 C 8.68 g/m*3 17 C 8.1 km/h
185 18-03-2020 15:20:00 17.1 C 8.88 g/m*3 17.1 C 4.8 km/h
186 18-03-2020 15:25:00 17 C 8.83 g/m*3 17 C 4.8 km/h
187 18-03-2020 15:30:00 17 C 8.68 g/m*3 17 C 3.2 km/h
188 18-03-2020 15:35:00 17 C 8.83 g/m*3 17 C 4.8 km/h
189 18-03-2020 15:40:00 16.9 C 8.63 g/m*3 16.9 C 8.1 km/h
190 18-03-2020 15:45:00 16.9 C 8.92 g/m*3 16.9 C 4.8 km/h
191 18-03-2020 15:50:00 16.8 C 8.58 g/m*3 16.8 C 8.1 km/h
192 18-03-2020 15:55:00 16.7 C 8.53 g/m*3 16.7 C 9.7 km/h
193 18-03-2020 16:00:00 16.6 C 8.62 g/m*3 16.6 C 6.4 km/h
194 18-03-2020 16:05:00 16.6 C 8.62 g/m*3 16.6 C 9.7 km/h
195 18-03-2020 16:10:00 16.5 C 8.71 g/m*3 16.5 C 4.8 km/h
196 18-03-2020 16:15:00 16.4 C 8.65 g/m*3 16.4 C 9.7 km/h
197 18-03-2020 16:20:00 16.3 C 8.6 g/m*3 16.3 C 8.1 km/h
198 18-03-2020 16:25:00 16.3 C 8.46 g/m*3 16.3 C 14.5 km/h
199 18-03-2020 16:30:00 16.3 C 8.46 g/m*3 16.3 C 9.7 km/h
200 18-03-2020 16:35:00 16.3 C 8.32 g/m*3 16.3 C 11.3 km/h
Sensor: Nr:Datum:Temp:Abs-Feuchte:Windchill:Wind:
Aussen-T/F 201 18-03-2020 16:40:00 16.2 C 8.27 g/m*3 16.2 C 9.7 km/h
202 18-03-2020 16:45:00 16.2 C 8.27 g/m*3 16.2 C 12.9 km/h
203 18-03-2020 16:50:00 16.2 C 8.41 g/m*3 16.2 C 8.1 km/h
204 18-03-2020 16:55:00 16.1 C 8.36 g/m*3 16.1 C 9.7 km/h
205 18-03-2020 17:00:00 16 C 8.31 g/m*3 16 C 9.7 km/h
206 18-03-2020 17:05:00 15.9 C 8.26 g/m*3 15.9 C 9.7 km/h
207 18-03-2020 17:10:00 15.9 C 8.26 g/m*3 15.9 C 11.3 km/h
208 18-03-2020 17:15:00 15.8 C 8.35 g/m*3 15.8 C 4.8 km/h
209 18-03-2020 17:20:00 15.8 C 8.35 g/m*3 15.8 C 4.8 km/h
210 18-03-2020 17:25:00 15.8 C 8.48 g/m*3 15.8 C 8.1 km/h
211 18-03-2020 17:30:00 15.7 C 8.16 g/m*3 15.7 C 8.1 km/h
212 18-03-2020 17:35:00 15.7 C 8.16 g/m*3 15.7 C 9.7 km/h
213 18-03-2020 17:40:00 15.8 C 8.21 g/m*3 15.8 C 6.4 km/h
214 18-03-2020 17:45:00 16.2 C 8.27 g/m*3 16.2 C 8.1 km/h
215 18-03-2020 17:50:00 16.6 C 8.33 g/m*3 16.6 C 6.4 km/h
216 18-03-2020 17:55:00 16.7 C 8.24 g/m*3 16.7 C 6.4 km/h
217 18-03-2020 18:00:00 16.7 C 8.38 g/m*3 16.7 C 6.4 km/h
218 18-03-2020 18:05:00 16.6 C 8.62 g/m*3 16.6 C 6.4 km/h
219 18-03-2020 18:10:00 16.4 C 8.23 g/m*3 16.4 C 6.4 km/h
220 18-03-2020 18:15:00 16.3 C 8.6 g/m*3 16.3 C 3.2 km/h
221 18-03-2020 18:20:00 16.2 C 8.69 g/m*3 16.2 C 4.8 km/h
222 18-03-2020 18:25:00 15.8 C 8.35 g/m*3 15.8 C 3.2 km/h
223 18-03-2020 18:30:00 15.6 C 8.51 g/m*3 15.6 C 4.8 km/h
224 18-03-2020 18:35:00 15.2 C 8.44 g/m*3 15.2 C 4.8 km/h
225 18-03-2020 18:40:00 14.7 C 8.31 g/m*3 14.7 C 3.2 km/h
Sensor: Nr:Datum:Temp:Abs-Feuchte:Windchill:Wind:
Aussen-T/F 226 18-03-2020 18:45:00 14.3 C 8.35 g/m*3 14.3 C 0 km/h
227 18-03-2020 18:50:00 13.9 C 8.27 g/m*3 13.9 C 0 km/h
228 18-03-2020 18:55:00 13.6 C 8.36 g/m*3 13.6 C 0 km/h
229 18-03-2020 19:00:00 13.2 C 8.15 g/m*3 13.2 C 4.8 km/h
230 18-03-2020 19:05:00 12.8 C 8.18 g/m*3 12.8 C 6.4 km/h
231 18-03-2020 19:10:00 12.4 C 7.98 g/m*3 12.4 C 6.4 km/h
232 18-03-2020 19:15:00 12.2 C 8.09 g/m*3 12.2 C 6.4 km/h
233 18-03-2020 19:20:00 11.9 C 7.94 g/m*3 11.9 C 6.4 km/h
234 18-03-2020 19:25:00 11.7 C 7.95 g/m*3 11.7 C 4.8 km/h
235 18-03-2020 19:30:00 11.4 C 7.9 g/m*3 11.4 C 4.8 km/h
236 18-03-2020 19:35:00 11.2 C 7.91 g/m*3 11.2 C 4.8 km/h
237 18-03-2020 19:40:00 11.1 C 7.96 g/m*3 11.1 C 4.8 km/h
238 18-03-2020 19:45:00 10.9 C 7.96 g/m*3 10.9 C 0 km/h
239 18-03-2020 19:50:00 10.9 C 7.96 g/m*3 10.9 C 0 km/h
240 18-03-2020 19:55:00 10.9 C 7.96 g/m*3 10.9 C 0 km/h
241 18-03-2020 20:00:00 10.9 C 7.96 g/m*3 10.9 C 0 km/h
242 18-03-2020 20:05:00 10.9 C 7.96 g/m*3 10.9 C 0 km/h
243 18-03-2020 20:10:00 10.9 C 7.96 g/m*3 10.9 C 0 km/h
244 18-03-2020 20:15:00 10.9 C 7.96 g/m*3 10.9 C 0 km/h
245 18-03-2020 20:20:00 10.9 C 8.06 g/m*3 10.9 C 0 km/h
246 18-03-2020 20:25:00 10.8 C 8.01 g/m*3 10.8 C 0 km/h
247 18-03-2020 20:30:00 10.8 C 8.01 g/m*3 10.8 C 0 km/h
248 18-03-2020 20:35:00 10.7 C 8.05 g/m*3 10.7 C 0 km/h
249 18-03-2020 20:40:00 10.7 C 8.05 g/m*3 10.7 C 0 km/h
250 18-03-2020 20:45:00 10.6 C 8 g/m*3 10.6 C 0 km/h
Sensor: Nr:Datum:Temp:Abs-Feuchte:Windchill:Wind:
Aussen-T/F 251 18-03-2020 20:50:00 10.6 C 8 g/m*3 10.6 C 0 km/h
252 18-03-2020 20:55:00 10.6 C 8 g/m*3 10.6 C 0 km/h
253 18-03-2020 21:00:00 10.5 C 8.05 g/m*3 10.5 C 0 km/h
254 18-03-2020 21:05:00 10.4 C 8 g/m*3 10.4 C 0 km/h
255 18-03-2020 21:10:00 10.3 C 7.95 g/m*3 10.3 C 0 km/h
256 18-03-2020 21:15:00 10.3 C 7.85 g/m*3 10.3 C 0 km/h
257 18-03-2020 21:20:00 10.2 C 7.8 g/m*3 10.2 C 0 km/h
258 18-03-2020 21:25:00 10.2 C 7.9 g/m*3 10.2 C 0 km/h
259 18-03-2020 21:30:00 10.1 C 7.75 g/m*3 10.1 C 0 km/h
260 18-03-2020 21:35:00 10 C 7.8 g/m*3 10 C 0 km/h
261 18-03-2020 21:40:00 9.8 C 7.7 g/m*3 9.8 C 0 km/h
262 18-03-2020 21:45:00 9.7 C 7.65 g/m*3 9.7 C 0 km/h
263 18-03-2020 21:50:00 9.6 C 7.69 g/m*3 9.6 C 0 km/h
264 18-03-2020 21:55:00 9.4 C 7.6 g/m*3 9.4 C 0 km/h
265 18-03-2020 22:00:00 9.3 C 7.55 g/m*3 9.3 C 0 km/h
266 18-03-2020 22:05:00 9.2 C 7.59 g/m*3 9.2 C 0 km/h
267 18-03-2020 22:10:00 9.1 C 7.54 g/m*3 9.1 C 0 km/h
268 18-03-2020 22:15:00 8.9 C 7.53 g/m*3 8.9 C 0 km/h
269 18-03-2020 22:20:00 8.8 C 7.49 g/m*3 8.8 C 0 km/h
270 18-03-2020 22:25:00 8.7 C 7.52 g/m*3 8.7 C 0 km/h
271 18-03-2020 22:30:00 8.7 C 7.52 g/m*3 8.7 C 0 km/h
272 18-03-2020 22:35:00 8.6 C 7.48 g/m*3 8.6 C 0 km/h
273 18-03-2020 22:40:00 8.6 C 7.56 g/m*3 8.6 C 0 km/h
274 18-03-2020 22:45:00 8.5 C 7.51 g/m*3 8.5 C 0 km/h
275 18-03-2020 22:50:00 8.5 C 7.6 g/m*3 8.5 C 0 km/h
Sensor: Nr:Datum:Temp:Abs-Feuchte:Windchill:Wind:
Aussen-T/F 276 18-03-2020 22:55:00 8.5 C 7.6 g/m*3 8.5 C 0 km/h
277 18-03-2020 23:00:00 8.5 C 7.6 g/m*3 8.5 C 0 km/h
278 18-03-2020 23:05:00 8.5 C 7.6 g/m*3 8.5 C 0 km/h
279 18-03-2020 23:10:00 8.5 C 7.6 g/m*3 8.5 C 0 km/h
280 18-03-2020 23:15:00 8.5 C 7.6 g/m*3 8.5 C 0 km/h
281 18-03-2020 23:20:00 8.5 C 7.6 g/m*3 8.5 C 0 km/h
282 18-03-2020 23:25:00 8.5 C 7.6 g/m*3 8.5 C 0 km/h
283 18-03-2020 23:30:00 8.4 C 7.55 g/m*3 8.4 C 0 km/h
284 18-03-2020 23:35:00 8.4 C 7.55 g/m*3 8.4 C 0 km/h
285 18-03-2020 23:40:00 8.4 C 7.55 g/m*3 8.4 C 0 km/h
286 18-03-2020 23:45:00 8.4 C 7.55 g/m*3 8.4 C 0 km/h
287 18-03-2020 23:50:00 8.4 C 7.55 g/m*3 8.4 C 0 km/h
288 18-03-2020 23:55:00 8.4 C 7.72 g/m*3 8.4 C 0 km/h
289 19-03-2020 00:00:00 8.6 C 7.73 g/m*3 7.75 C 6.4 km/h
290 19-03-2020 00:05:00 8.8 C 7.66 g/m*3 8.8 C 4.8 km/h
291 19-03-2020 00:10:00 8.9 C 7.71 g/m*3 8.1 C 6.4 km/h
292 19-03-2020 00:15:00 9 C 7.67 g/m*3 9 C 4.8 km/h
293 19-03-2020 00:20:00 9.1 C 7.72 g/m*3 9.1 C 1.6 km/h
294 19-03-2020 00:25:00 9.1 C 7.72 g/m*3 9.1 C 3.2 km/h
295 19-03-2020 00:30:00 9.1 C 7.63 g/m*3 9.1 C 0 km/h
296 19-03-2020 00:35:00 9.2 C 7.68 g/m*3 9.2 C 4.8 km/h
297 19-03-2020 00:40:00 9.2 C 7.68 g/m*3 9.2 C 3.2 km/h
298 19-03-2020 00:45:00 9.2 C 7.68 g/m*3 9.2 C 1.6 km/h
299 19-03-2020 00:50:00 9.3 C 7.73 g/m*3 9.3 C 4.8 km/h
300 19-03-2020 00:55:00 9.3 C 7.73 g/m*3 9.3 C 3.2 km/h
Sensor: Nr:Datum:Temp:Abs-Feuchte:Windchill:Wind:
Aussen-T/F 301 19-03-2020 01:00:00 9.3 C 7.64 g/m*3 9.3 C 1.6 km/h
302 19-03-2020 01:05:00 9.3 C 7.64 g/m*3 9.3 C 3.2 km/h
303 19-03-2020 01:10:00 9.3 C 7.64 g/m*3 9.3 C 1.6 km/h
304 19-03-2020 01:15:00 9.3 C 7.64 g/m*3 9.3 C 0 km/h
305 19-03-2020 01:20:00 9.4 C 7.69 g/m*3 9.4 C 1.6 km/h
306 19-03-2020 01:25:00 9.4 C 7.69 g/m*3 9.4 C 0 km/h
307 19-03-2020 01:30:00 9.4 C 7.69 g/m*3 9.4 C 1.6 km/h
308 19-03-2020 01:35:00 9.4 C 7.69 g/m*3 9.4 C 3.2 km/h
309 19-03-2020 01:40:00 9.4 C 7.69 g/m*3 9.4 C 4.8 km/h
310 19-03-2020 01:45:00 9.3 C 7.64 g/m*3 9.3 C 0 km/h
311 19-03-2020 01:50:00 9.3 C 7.64 g/m*3 9.3 C 0 km/h
312 19-03-2020 01:55:00 9.3 C 7.64 g/m*3 9.3 C 0 km/h
313 19-03-2020 02:00:00 9.3 C 7.64 g/m*3 9.3 C 0 km/h
314 19-03-2020 02:05:00 9.3 C 7.64 g/m*3 9.3 C 0 km/h
315 19-03-2020 02:10:00 9.2 C 7.68 g/m*3 9.2 C 0 km/h
316 19-03-2020 02:15:00 9.2 C 7.68 g/m*3 9.2 C 0 km/h
317 19-03-2020 02:20:00 9.2 C 7.68 g/m*3 9.2 C 0 km/h
318 19-03-2020 02:25:00 9.1 C 7.63 g/m*3 9.1 C 0 km/h
319 19-03-2020 02:30:00 9.1 C 7.63 g/m*3 9.1 C 0 km/h
320 19-03-2020 02:35:00 9.1 C 7.72 g/m*3 9.1 C 0 km/h
321 19-03-2020 02:40:00 9 C 7.67 g/m*3 9 C 0 km/h
322 19-03-2020 02:45:00 8.9 C 7.62 g/m*3 8.9 C 0 km/h
323 19-03-2020 02:50:00 8.9 C 7.62 g/m*3 8.9 C 0 km/h
324 19-03-2020 02:55:00 8.9 C 7.62 g/m*3 8.9 C 0 km/h
325 19-03-2020 03:00:00 8.8 C 7.57 g/m*3 8.8 C 0 km/h
Sensor: Nr:Datum:Temp:Abs-Feuchte:Windchill:Wind:
Aussen-T/F 326 19-03-2020 03:05:00 8.8 C 7.57 g/m*3 8.8 C 0 km/h
327 19-03-2020 03:10:00 8.8 C 7.57 g/m*3 8.8 C 0 km/h
328 19-03-2020 03:15:00 8.8 C 7.57 g/m*3 8.8 C 0 km/h
329 19-03-2020 03:20:00 8.8 C 7.57 g/m*3 8.8 C 3.2 km/h
330 19-03-2020 03:25:00 8.8 C 7.57 g/m*3 8.8 C 0 km/h
331 19-03-2020 03:30:00 8.8 C 7.57 g/m*3 8.8 C 0 km/h
332 19-03-2020 03:35:00 8.8 C 7.57 g/m*3 8.8 C 0 km/h
333 19-03-2020 03:40:00 8.8 C 7.66 g/m*3 8.8 C 0 km/h
334 19-03-2020 03:45:00 8.8 C 7.66 g/m*3 8.8 C 0 km/h
335 19-03-2020 03:50:00 8.8 C 7.66 g/m*3 8.8 C 0 km/h
336 19-03-2020 03:55:00 8.8 C 7.66 g/m*3 8.8 C 0 km/h
337 19-03-2020 04:00:00 8.8 C 7.66 g/m*3 8.8 C 0 km/h
338 19-03-2020 04:05:00 8.8 C 7.66 g/m*3 8.8 C 0 km/h
339 19-03-2020 04:10:00 8.7 C 7.61 g/m*3 8.7 C 0 km/h
340 19-03-2020 04:15:00 8.8 C 7.75 g/m*3 8.8 C 0 km/h
341 19-03-2020 04:20:00 8.8 C 7.75 g/m*3 8.8 C 0 km/h
342 19-03-2020 04:25:00 8.8 C 7.75 g/m*3 8.8 C 0 km/h
343 19-03-2020 04:30:00 8.7 C 7.61 g/m*3 8.7 C 0 km/h
344 19-03-2020 04:35:00 8.8 C 7.66 g/m*3 8.8 C 0 km/h
345 19-03-2020 04:40:00 8.7 C 7.7 g/m*3 8.7 C 0 km/h
346 19-03-2020 04:45:00 8.7 C 7.61 g/m*3 8.7 C 0 km/h
347 19-03-2020 04:50:00 8.7 C 7.61 g/m*3 8.7 C 0 km/h
348 19-03-2020 04:55:00 8.8 C 7.66 g/m*3 8.8 C 0 km/h
349 19-03-2020 05:00:00 8.8 C 7.66 g/m*3 8.8 C 0 km/h
350 19-03-2020 05:05:00 8.8 C 7.66 g/m*3 8.8 C 0 km/h
Sensor: Nr:Datum:Temp:Abs-Feuchte:Windchill:Wind:
Aussen-T/F 351 19-03-2020 05:10:00 8.8 C 7.66 g/m*3 8.8 C 1.6 km/h
352 19-03-2020 05:15:00 8.8 C 7.57 g/m*3 7.98 C 6.4 km/h
353 19-03-2020 05:20:00 9 C 7.58 g/m*3 9 C 1.6 km/h
354 19-03-2020 05:25:00 9.1 C 7.72 g/m*3 9.1 C 0 km/h
355 19-03-2020 05:30:00 9.1 C 7.72 g/m*3 9.1 C 0 km/h
356 19-03-2020 05:35:00 9.1 C 7.72 g/m*3 9.1 C 0 km/h
357 19-03-2020 05:40:00 9 C 7.58 g/m*3 9 C 0 km/h
358 19-03-2020 05:45:00 9 C 7.58 g/m*3 9 C 0 km/h
359 19-03-2020 05:50:00 8.9 C 7.53 g/m*3 8.9 C 0 km/h
360 19-03-2020 05:55:00 8.9 C 7.62 g/m*3 8.9 C 0 km/h
361 19-03-2020 06:00:00 8.9 C 7.62 g/m*3 8.9 C 0 km/h
362 19-03-2020 06:05:00 8.9 C 7.62 g/m*3 8.9 C 1.6 km/h
363 19-03-2020 06:10:00 8.8 C 7.57 g/m*3 8.8 C 0 km/h
364 19-03-2020 06:15:00 8.8 C 7.57 g/m*3 8.8 C 0 km/h
365 19-03-2020 06:20:00 8.8 C 7.57 g/m*3 8.8 C 0 km/h
366 19-03-2020 06:25:00 8.8 C 7.57 g/m*3 8.8 C 3.2 km/h
367 19-03-2020 06:30:00 8.7 C 7.52 g/m*3 8.7 C 0 km/h
368 19-03-2020 06:35:00 8.7 C 7.61 g/m*3 8.7 C 0 km/h
369 19-03-2020 06:40:00 8.7 C 7.61 g/m*3 8.7 C 0 km/h
370 19-03-2020 06:45:00 8.6 C 7.56 g/m*3 8.6 C 0 km/h
371 19-03-2020 06:50:00 8.6 C 7.56 g/m*3 8.6 C 0 km/h
372 19-03-2020 06:55:00 8.6 C 7.56 g/m*3 8.6 C 0 km/h
373 19-03-2020 07:00:00 8.6 C 7.56 g/m*3 8.6 C 1.6 km/h
374 19-03-2020 07:05:00 8.6 C 7.56 g/m*3 8.6 C 0 km/h
375 19-03-2020 07:10:00 8.6 C 7.65 g/m*3 8.6 C 0 km/h
Sensor: Nr:Datum:Temp:Abs-Feuchte:Windchill:Wind:
Aussen-T/F 376 19-03-2020 07:15:00 8.6 C 7.65 g/m*3 8.6 C 0 km/h
377 19-03-2020 07:20:00 8.6 C 7.65 g/m*3 8.6 C 0 km/h
378 19-03-2020 07:25:00 8.6 C 7.65 g/m*3 8.6 C 0 km/h
379 19-03-2020 07:30:00 8.7 C 7.61 g/m*3 8.7 C 0 km/h
380 19-03-2020 07:35:00 8.7 C 7.7 g/m*3 8.7 C 0 km/h
381 19-03-2020 07:40:00 8.7 C 7.7 g/m*3 8.7 C 0 km/h
382 19-03-2020 07:45:00 8.8 C 7.75 g/m*3 8.8 C 0 km/h
383 19-03-2020 07:50:00 8.9 C 7.8 g/m*3 8.9 C 0 km/h
384 19-03-2020 07:55:00 8.9 C 7.8 g/m*3 8.9 C 0 km/h
385 19-03-2020 08:00:00 9.1 C 7.81 g/m*3 9.1 C 0 km/h
386 19-03-2020 08:05:00 9.1 C 7.81 g/m*3 9.1 C 0 km/h
387 19-03-2020 08:10:00 9.2 C 7.77 g/m*3 9.2 C 3.2 km/h
388 19-03-2020 08:15:00 9.3 C 7.82 g/m*3 9.3 C 4.8 km/h
389 19-03-2020 08:20:00 9.4 C 7.78 g/m*3 9.4 C 4.8 km/h
390 19-03-2020 08:25:00 9.6 C 7.88 g/m*3 9.6 C 3.2 km/h
391 19-03-2020 08:30:00 9.7 C 7.93 g/m*3 9.7 C 0 km/h
392 19-03-2020 08:35:00 9.8 C 7.89 g/m*3 9.8 C 3.2 km/h
393 19-03-2020 08:40:00 9.9 C 7.94 g/m*3 9.9 C 0 km/h
394 19-03-2020 08:45:00 10 C 7.99 g/m*3 9.37 C 6.4 km/h
395 19-03-2020 08:50:00 10.1 C 7.94 g/m*3 9.48 C 6.4 km/h
396 19-03-2020 08:55:00 10.2 C 7.99 g/m*3 9.6 C 6.4 km/h
397 19-03-2020 09:00:00 10.2 C 7.99 g/m*3 10.2 C 3.2 km/h
398 19-03-2020 09:05:00 10.3 C 7.95 g/m*3 10.3 C 3.2 km/h
399 19-03-2020 09:10:00 10.4 C 7.9 g/m*3 10.4 C 0 km/h
400 19-03-2020 09:15:00 10.6 C 8 g/m*3 10.6 C 3.2 km/h
Sensor: Nr:Datum:Temp:Abs-Feuchte:Windchill:Wind:
Aussen-T/F 401 19-03-2020 09:20:00 10.7 C 8.05 g/m*3 10.7 C 4.8 km/h
402 19-03-2020 09:25:00 10.7 C 8.05 g/m*3 10.7 C 4.8 km/h
403 19-03-2020 09:30:00 10.8 C 8.11 g/m*3 10.8 C 3.2 km/h
404 19-03-2020 09:35:00 10.9 C 8.16 g/m*3 10.9 C 0 km/h
405 19-03-2020 09:40:00 11 C 8.11 g/m*3 11 C 4.8 km/h
406 19-03-2020 09:45:00 11 C 8.21 g/m*3 11 C 4.8 km/h
407 19-03-2020 09:50:00 11.1 C 8.16 g/m*3 11.1 C 6.4 km/h
408 19-03-2020 09:55:00 11.2 C 8.21 g/m*3 11.2 C 3.2 km/h
409 19-03-2020 10:00:00 11.3 C 8.16 g/m*3 11.3 C 0 km/h
410 19-03-2020 10:05:00 11.4 C 8.21 g/m*3 11.4 C 0 km/h
411 19-03-2020 10:10:00 11.6 C 8.21 g/m*3 11.6 C 0 km/h
412 19-03-2020 10:15:00 11.8 C 8.21 g/m*3 11.8 C 0 km/h
413 19-03-2020 10:20:00 12 C 8.31 g/m*3 12 C 0 km/h
414 19-03-2020 10:25:00 12.2 C 8.31 g/m*3 12.2 C 0 km/h
415 19-03-2020 10:30:00 12.3 C 8.25 g/m*3 12.3 C 0 km/h
416 19-03-2020 10:35:00 12.6 C 8.52 g/m*3 12.6 C 0 km/h
417 19-03-2020 10:40:00 12.7 C 8.46 g/m*3 12.7 C 0 km/h
418 19-03-2020 10:45:00 12.8 C 8.51 g/m*3 12.8 C 0 km/h
419 19-03-2020 10:50:00 12.8 C 8.4 g/m*3 12.8 C 0 km/h
420 19-03-2020 10:55:00 12.9 C 8.45 g/m*3 12.9 C 0 km/h
421 19-03-2020 11:00:00 13.2 C 8.73 g/m*3 13.2 C 0 km/h
422 19-03-2020 11:05:00 13.3 C 8.55 g/m*3 13.3 C 0 km/h
423 19-03-2020 11:10:00 13.5 C 8.66 g/m*3 13.5 C 0 km/h
424 19-03-2020 11:15:00 13.7 C 8.64 g/m*3 13.7 C 0 km/h
425 19-03-2020 11:20:00 13.9 C 8.51 g/m*3 13.9 C 0 km/h
Sensor: Nr:Datum:Temp:Abs-Feuchte:Windchill:Wind:
Aussen-T/F 426 19-03-2020 11:25:00 14.2 C 8.67 g/m*3 14.2 C 0 km/h
427 19-03-2020 11:30:00 14.4 C 8.65 g/m*3 14.4 C 0 km/h
428 19-03-2020 11:35:00 14.7 C 8.81 g/m*3 14.7 C 0 km/h
429 19-03-2020 11:40:00 14.9 C 8.67 g/m*3 14.9 C 0 km/h
430 19-03-2020 11:45:00 15.1 C 8.9 g/m*3 15.1 C 0 km/h
431 19-03-2020 11:50:00 15.1 C 8.9 g/m*3 15.1 C 0 km/h
432 19-03-2020 11:55:00 15.1 C 9.16 g/m*3 15.1 C 0 km/h
433 19-03-2020 12:00:00 15.1 C 9.29 g/m*3 15.1 C 0 km/h
434 19-03-2020 12:05:00 15.1 C 9.29 g/m*3 15.1 C 0 km/h
435 19-03-2020 12:10:00 15.1 C 9.29 g/m*3 15.1 C 0 km/h
436 19-03-2020 12:15:00 15.1 C 9.42 g/m*3 15.1 C 0 km/h
437 19-03-2020 12:20:00 15.2 C 9.35 g/m*3 15.2 C 0 km/h
438 19-03-2020 12:25:00 15.3 C 9.4 g/m*3 15.3 C 0 km/h
439 19-03-2020 12:30:00 15.6 C 9.04 g/m*3 15.6 C 0 km/h
440 19-03-2020 12:35:00 15.9 C 8.8 g/m*3 15.9 C 0 km/h
441 19-03-2020 12:40:00 16.2 C 8.41 g/m*3 16.2 C 6.4 km/h
442 19-03-2020 12:45:00 16.4 C 8.37 g/m*3 16.4 C 3.2 km/h
443 19-03-2020 12:50:00 16.6 C 8.05 g/m*3 16.6 C 4.8 km/h
444 19-03-2020 12:55:00 16.8 C 8.15 g/m*3 16.8 C 3.2 km/h
445 19-03-2020 13:00:00 16.8 C 8.29 g/m*3 16.8 C 3.2 km/h
446 19-03-2020 13:05:00 17.1 C 8.15 g/m*3 17.1 C 6.4 km/h
447 19-03-2020 13:10:00 17.3 C 8.25 g/m*3 17.3 C 6.4 km/h
448 19-03-2020 13:15:00 17.6 C 8.4 g/m*3 17.6 C 3.2 km/h
449 19-03-2020 13:20:00 17.8 C 8.2 g/m*3 17.8 C 6.4 km/h
450 19-03-2020 13:25:00 17.9 C 8.4 g/m*3 17.9 C 4.8 km/h
Sensor: Nr:Datum:Temp:Abs-Feuchte:Windchill:Wind:
Aussen-T/F 451 19-03-2020 13:30:00 18.1 C 8.34 g/m*3 18.1 C 8.1 km/h
452 19-03-2020 13:35:00 17.9 C 8.09 g/m*3 17.9 C 3.2 km/h
453 19-03-2020 13:40:00 17.7 C 8.15 g/m*3 17.7 C 3.2 km/h
454 19-03-2020 13:45:00 17.5 C 8.35 g/m*3 17.5 C 4.8 km/h
455 19-03-2020 13:50:00 17.3 C 8.25 g/m*3 17.3 C 6.4 km/h
456 19-03-2020 13:55:00 17.2 C 8.2 g/m*3 17.2 C 9.7 km/h
457 19-03-2020 14:00:00 17.1 C 8.15 g/m*3 17.1 C 6.4 km/h
458 19-03-2020 14:05:00 17.1 C 8.44 g/m*3 17.1 C 1.6 km/h
459 19-03-2020 14:10:00 17.1 C 8.3 g/m*3 17.1 C 1.6 km/h
460 19-03-2020 14:15:00 17.1 C 8.3 g/m*3 17.1 C 4.8 km/h
461 19-03-2020 14:20:00 17.1 C 8.44 g/m*3 17.1 C 4.8 km/h
462 19-03-2020 14:25:00 17.1 C 8.15 g/m*3 17.1 C 4.8 km/h
463 19-03-2020 14:30:00 17.1 C 8.15 g/m*3 17.1 C 3.2 km/h
464 19-03-2020 14:35:00 17.1 C 8.01 g/m*3 17.1 C 4.8 km/h
465 19-03-2020 14:40:00 17.2 C 8.05 g/m*3 17.2 C 6.4 km/h
466 19-03-2020 14:45:00 17.2 C 8.05 g/m*3 17.2 C 4.8 km/h
467 19-03-2020 14:50:00 17.3 C 7.96 g/m*3 17.3 C 4.8 km/h
468 19-03-2020 14:55:00 17.3 C 7.96 g/m*3 17.3 C 4.8 km/h
469 19-03-2020 15:00:00 17.3 C 8.4 g/m*3 17.3 C 4.8 km/h
470 19-03-2020 15:05:00 17.4 C 8.15 g/m*3 17.4 C 1.6 km/h
471 19-03-2020 15:10:00 17.4 C 7.85 g/m*3 17.4 C 4.8 km/h
472 19-03-2020 15:15:00 17.3 C 7.96 g/m*3 17.3 C 0 km/h
473 19-03-2020 15:20:00 17.4 C 8.15 g/m*3 17.4 C 6.4 km/h
474 19-03-2020 15:25:00 17.4 C 8.15 g/m*3 17.4 C 6.4 km/h
475 19-03-2020 15:30:00 17.4 C 8 g/m*3 17.4 C 1.6 km/h
Sensor: Nr:Datum:Temp:Abs-Feuchte:Windchill:Wind:
Aussen-T/F 476 19-03-2020 15:35:00 17.4 C 8 g/m*3 17.4 C 3.2 km/h
477 19-03-2020 15:40:00 17.4 C 8.15 g/m*3 17.4 C 6.4 km/h
478 19-03-2020 15:45:00 17.5 C 8.2 g/m*3 17.5 C 4.8 km/h
479 19-03-2020 15:50:00 17.6 C 8.1 g/m*3 17.6 C 6.4 km/h
480 19-03-2020 15:55:00 17.7 C 8.3 g/m*3 17.7 C 6.4 km/h
481 19-03-2020 16:00:00 17.6 C 8.1 g/m*3 17.6 C 6.4 km/h
482 19-03-2020 16:05:00 17.5 C 7.9 g/m*3 17.5 C 4.8 km/h
483 19-03-2020 16:10:00 17.5 C 7.9 g/m*3 17.5 C 4.8 km/h
484 19-03-2020 16:15:00 17.4 C 7.85 g/m*3 17.4 C 4.8 km/h
485 19-03-2020 16:20:00 17.4 C 7.85 g/m*3 17.4 C 6.4 km/h
486 19-03-2020 16:25:00 17.4 C 8 g/m*3 17.4 C 0 km/h
487 19-03-2020 16:30:00 17.4 C 8 g/m*3 17.4 C 3.2 km/h
488 19-03-2020 16:35:00 17.4 C 7.85 g/m*3 17.4 C 3.2 km/h
489 19-03-2020 16:40:00 17.4 C 7.71 g/m*3 17.4 C 1.6 km/h
490 19-03-2020 16:45:00 17.5 C 7.9 g/m*3 17.5 C 0 km/h
491 19-03-2020 16:50:00 17.5 C 7.9 g/m*3 17.5 C 4.8 km/h
492 19-03-2020 16:55:00 17.6 C 7.95 g/m*3 17.6 C 3.2 km/h
493 19-03-2020 17:00:00 17.6 C 7.95 g/m*3 17.6 C 6.4 km/h
494 19-03-2020 17:05:00 17.4 C 7.71 g/m*3 17.4 C 8.1 km/h
495 19-03-2020 17:10:00 17.3 C 7.66 g/m*3 17.3 C 8.1 km/h
496 19-03-2020 17:15:00 17.2 C 7.61 g/m*3 17.2 C 8.1 km/h
497 19-03-2020 17:20:00 17.2 C 7.76 g/m*3 17.2 C 3.2 km/h
498 19-03-2020 17:25:00 17.1 C 7.71 g/m*3 17.1 C 3.2 km/h
499 19-03-2020 17:30:00 17 C 7.81 g/m*3 17 C 6.4 km/h
500 19-03-2020 17:35:00 16.9 C 7.91 g/m*3 16.9 C 4.8 km/h
Sensor: Nr:Datum:Temp:Abs-Feuchte:Windchill:Wind:
Aussen-T/F 501 19-03-2020 17:40:00 16.8 C 8.01 g/m*3 16.8 C 6.4 km/h
502 19-03-2020 17:45:00 16.8 C 8.29 g/m*3 16.8 C 4.8 km/h
503 19-03-2020 17:50:00 17 C 8.25 g/m*3 17 C 9.7 km/h
504 19-03-2020 17:55:00 17.1 C 8.3 g/m*3 17.1 C 8.1 km/h
505 19-03-2020 18:00:00 17.1 C 8.44 g/m*3 17.1 C 6.4 km/h
506 19-03-2020 18:05:00 17.1 C 8.44 g/m*3 17.1 C 3.2 km/h
507 19-03-2020 18:10:00 17.1 C 8.44 g/m*3 17.1 C 8.1 km/h
508 19-03-2020 18:15:00 16.9 C 8.34 g/m*3 16.9 C 6.4 km/h
509 19-03-2020 18:20:00 16.7 C 8.53 g/m*3 16.7 C 4.8 km/h
510 19-03-2020 18:25:00 16.3 C 8.88 g/m*3 16.3 C 0 km/h
511 19-03-2020 18:30:00 15.8 C 8.75 g/m*3 15.8 C 0 km/h
512 19-03-2020 18:35:00 15.3 C 8.62 g/m*3 15.3 C 0 km/h
513 19-03-2020 18:40:00 14.8 C 8.49 g/m*3 14.8 C 0 km/h
514 19-03-2020 18:45:00 14.4 C 8.53 g/m*3 14.4 C 0 km/h
515 19-03-2020 18:50:00 13.9 C 8.39 g/m*3 13.9 C 3.2 km/h
516 19-03-2020 18:55:00 13.6 C 8.36 g/m*3 13.6 C 3.2 km/h
517 19-03-2020 19:00:00 13.3 C 8.32 g/m*3 13.3 C 1.6 km/h
518 19-03-2020 19:05:00 13 C 8.28 g/m*3 13 C 1.6 km/h
519 19-03-2020 19:10:00 12.8 C 8.18 g/m*3 12.8 C 0 km/h
520 19-03-2020 19:15:00 12.6 C 8.19 g/m*3 12.6 C 0 km/h
521 19-03-2020 19:20:00 12.4 C 8.19 g/m*3 12.4 C 0 km/h
522 19-03-2020 19:25:00 12.2 C 8.09 g/m*3 12.2 C 0 km/h
523 19-03-2020 19:30:00 12.1 C 8.15 g/m*3 12.1 C 0 km/h
524 19-03-2020 19:35:00 11.9 C 8.05 g/m*3 11.9 C 0 km/h
525 19-03-2020 19:40:00 11.8 C 8.1 g/m*3 11.8 C 0 km/h
Sensor: Nr:Datum:Temp:Abs-Feuchte:Windchill:Wind:
Aussen-T/F 526 19-03-2020 19:45:00 11.7 C 8.05 g/m*3 11.7 C 0 km/h
527 19-03-2020 19:50:00 11.6 C 8.11 g/m*3 11.6 C 0 km/h
528 19-03-2020 19:55:00 11.6 C 8.11 g/m*3 11.6 C 0 km/h
529 19-03-2020 20:00:00 11.4 C 8.11 g/m*3 11.4 C 0 km/h
530 19-03-2020 20:05:00 11.3 C 8.06 g/m*3 11.3 C 0 km/h
531 19-03-2020 20:10:00 11.3 C 8.06 g/m*3 11.3 C 0 km/h
532 19-03-2020 20:15:00 11.2 C 8.11 g/m*3 11.2 C 0 km/h
533 19-03-2020 20:20:00 11.2 C 8.21 g/m*3 11.2 C 0 km/h
534 19-03-2020 20:25:00 11.1 C 8.16 g/m*3 11.1 C 0 km/h
535 19-03-2020 20:30:00 11.1 C 8.26 g/m*3 11.1 C 0 km/h
536 19-03-2020 20:35:00 11.1 C 8.26 g/m*3 11.1 C 0 km/h
537 19-03-2020 20:40:00 11.1 C 8.36 g/m*3 11.1 C 0 km/h
538 19-03-2020 20:45:00 11.1 C 8.36 g/m*3 11.1 C 0 km/h
539 19-03-2020 20:50:00 11.2 C 8.41 g/m*3 11.2 C 0 km/h
540 19-03-2020 20:55:00 11.2 C 8.31 g/m*3 11.2 C 0 km/h
541 19-03-2020 21:00:00 11.3 C 8.47 g/m*3 11.3 C 0 km/h
542 19-03-2020 21:05:00 11.3 C 8.36 g/m*3 11.3 C 0 km/h
543 19-03-2020 21:10:00 11.4 C 8.42 g/m*3 11.4 C 0 km/h
544 19-03-2020 21:15:00 11.4 C 8.42 g/m*3 11.4 C 0 km/h
545 19-03-2020 21:20:00 11.4 C 8.42 g/m*3 11.4 C 0 km/h
546 19-03-2020 21:25:00 11.4 C 8.42 g/m*3 11.4 C 0 km/h
547 19-03-2020 21:30:00 11.4 C 8.31 g/m*3 11.4 C 0 km/h
548 19-03-2020 21:35:00 11.3 C 8.36 g/m*3 11.3 C 0 km/h
549 19-03-2020 21:40:00 11.2 C 8.31 g/m*3 11.2 C 0 km/h
550 19-03-2020 21:45:00 11.1 C 8.26 g/m*3 11.1 C 0 km/h
Sensor: Nr:Datum:Temp:Abs-Feuchte:Windchill:Wind:
Aussen-T/F 551 19-03-2020 21:50:00 10.9 C 8.16 g/m*3 10.9 C 0 km/h
552 19-03-2020 21:55:00 10.8 C 8.11 g/m*3 10.8 C 0 km/h
553 19-03-2020 22:00:00 10.8 C 8.2 g/m*3 10.8 C 0 km/h
554 19-03-2020 22:05:00 10.7 C 8.15 g/m*3 10.7 C 0 km/h
555 19-03-2020 22:10:00 10.6 C 8.1 g/m*3 10.6 C 0 km/h
556 19-03-2020 22:15:00 10.6 C 8.2 g/m*3 10.6 C 0 km/h
557 19-03-2020 22:20:00 10.4 C 8.19 g/m*3 10.4 C 0 km/h
558 19-03-2020 22:25:00 10.4 C 8.19 g/m*3 10.4 C 0 km/h
559 19-03-2020 22:30:00 10.3 C 8.14 g/m*3 10.3 C 0 km/h
560 19-03-2020 22:35:00 10.2 C 8.09 g/m*3 10.2 C 0 km/h
561 19-03-2020 22:40:00 10.2 C 8.18 g/m*3 10.2 C 0 km/h
562 19-03-2020 22:45:00 10.1 C 8.13 g/m*3 10.1 C 0 km/h
563 19-03-2020 22:50:00 10.1 C 8.13 g/m*3 10.1 C 0 km/h
564 19-03-2020 22:55:00 10 C 8.08 g/m*3 10 C 0 km/h
565 19-03-2020 23:00:00 10 C 8.08 g/m*3 10 C 0 km/h
566 19-03-2020 23:05:00 9.9 C 8.03 g/m*3 9.9 C 0 km/h
567 19-03-2020 23:10:00 9.9 C 8.03 g/m*3 9.9 C 0 km/h
568 19-03-2020 23:15:00 9.9 C 8.03 g/m*3 9.9 C 0 km/h
569 19-03-2020 23:20:00 9.9 C 8.03 g/m*3 9.9 C 0 km/h
570 19-03-2020 23:25:00 9.9 C 8.03 g/m*3 9.9 C 0 km/h
571 19-03-2020 23:30:00 9.8 C 7.98 g/m*3 9.8 C 0 km/h
572 19-03-2020 23:35:00 9.8 C 7.98 g/m*3 9.8 C 0 km/h
573 19-03-2020 23:40:00 9.8 C 7.98 g/m*3 9.8 C 0 km/h
574 19-03-2020 23:45:00 9.7 C 7.93 g/m*3 9.7 C 0 km/h
575 19-03-2020 23:50:00 9.7 C 7.93 g/m*3 9.7 C 0 km/h
Sensor: Nr:Datum:Temp:Abs-Feuchte:Windchill:Wind:
Aussen-T/F 576 19-03-2020 23:55:00 9.7 C 7.93 g/m*3 9.7 C 0 km/h
577 20-03-2020 00:00:00 9.6 C 7.97 g/m*3 9.6 C 0 km/h
578 20-03-2020 00:05:00 9.5 C 7.92 g/m*3 9.5 C 0 km/h
579 20-03-2020 00:10:00 9.3 C 7.82 g/m*3 9.3 C 0 km/h
580 20-03-2020 00:15:00 9.3 C 7.82 g/m*3 9.3 C 0 km/h
581 20-03-2020 00:20:00 9.2 C 7.86 g/m*3 9.2 C 0 km/h
582 20-03-2020 00:25:00 9.2 C 7.86 g/m*3 9.2 C 0 km/h
583 20-03-2020 00:30:00 9.3 C 7.91 g/m*3 9.3 C 0 km/h
584 20-03-2020 00:35:00 9.3 C 7.91 g/m*3 9.3 C 0 km/h
585 20-03-2020 00:40:00 9.3 C 7.91 g/m*3 9.3 C 0 km/h
586 20-03-2020 00:45:00 9.3 C 7.91 g/m*3 9.3 C 0 km/h
587 20-03-2020 00:50:00 9.2 C 7.86 g/m*3 9.2 C 0 km/h
588 20-03-2020 00:55:00 9.2 C 7.95 g/m*3 9.2 C 0 km/h
589 20-03-2020 01:00:00 9.2 C 7.95 g/m*3 9.2 C 0 km/h
590 20-03-2020 01:05:00 9.2 C 7.95 g/m*3 9.2 C 0 km/h
591 20-03-2020 01:10:00 9.2 C 7.95 g/m*3 9.2 C 0 km/h
592 20-03-2020 01:15:00 9.1 C 7.9 g/m*3 9.1 C 0 km/h
593 20-03-2020 01:20:00 9.1 C 7.9 g/m*3 9.1 C 0 km/h
594 20-03-2020 01:25:00 9.1 C 7.9 g/m*3 9.1 C 0 km/h
595 20-03-2020 01:30:00 9 C 7.85 g/m*3 9 C 0 km/h
596 20-03-2020 01:35:00 9 C 7.85 g/m*3 9 C 0 km/h
597 20-03-2020 01:40:00 8.9 C 7.8 g/m*3 8.9 C 0 km/h
598 20-03-2020 01:45:00 8.9 C 7.8 g/m*3 8.9 C 0 km/h
599 20-03-2020 01:50:00 8.9 C 7.8 g/m*3 8.9 C 0 km/h
600 20-03-2020 01:55:00 8.9 C 7.8 g/m*3 8.9 C 0 km/h
Sensor: Nr:Datum:Temp:Abs-Feuchte:Windchill:Wind:
Aussen-T/F 601 20-03-2020 02:00:00 8.9 C 7.8 g/m*3 8.9 C 0 km/h
602 20-03-2020 02:05:00 8.8 C 7.75 g/m*3 8.8 C 0 km/h
603 20-03-2020 02:10:00 8.7 C 7.7 g/m*3 8.7 C 0 km/h
604 20-03-2020 02:15:00 8.6 C 7.65 g/m*3 8.6 C 0 km/h
605 20-03-2020 02:20:00 8.5 C 7.6 g/m*3 8.5 C 0 km/h
606 20-03-2020 02:25:00 8.3 C 7.5 g/m*3 8.3 C 0 km/h
607 20-03-2020 02:30:00 8.3 C 7.5 g/m*3 8.3 C 0 km/h
608 20-03-2020 02:35:00 8.2 C 7.54 g/m*3 8.2 C 0 km/h
609 20-03-2020 02:40:00 8.2 C 7.54 g/m*3 8.2 C 0 km/h
610 20-03-2020 02:45:00 8.2 C 7.54 g/m*3 8.2 C 0 km/h
611 20-03-2020 02:50:00 8.1 C 7.49 g/m*3 8.1 C 0 km/h
612 20-03-2020 02:55:00 8 C 7.44 g/m*3 8 C 0 km/h
613 20-03-2020 03:00:00 7.9 C 7.39 g/m*3 7.9 C 0 km/h
614 20-03-2020 03:05:00 7.8 C 7.35 g/m*3 7.8 C 0 km/h
615 20-03-2020 03:10:00 7.8 C 7.43 g/m*3 7.8 C 0 km/h
616 20-03-2020 03:15:00 7.8 C 7.43 g/m*3 7.8 C 0 km/h
617 20-03-2020 03:20:00 7.8 C 7.43 g/m*3 7.8 C 0 km/h
618 20-03-2020 03:25:00 7.7 C 7.38 g/m*3 7.7 C 0 km/h
619 20-03-2020 03:30:00 7.7 C 7.38 g/m*3 7.7 C 0 km/h
620 20-03-2020 03:35:00 7.7 C 7.38 g/m*3 7.7 C 0 km/h
621 20-03-2020 03:40:00 7.8 C 7.51 g/m*3 7.8 C 0 km/h
622 20-03-2020 03:45:00 7.8 C 7.51 g/m*3 7.8 C 0 km/h
623 20-03-2020 03:50:00 7.8 C 7.51 g/m*3 7.8 C 0 km/h
624 20-03-2020 03:55:00 7.8 C 7.51 g/m*3 7.8 C 0 km/h
625 20-03-2020 04:00:00 7.9 C 7.56 g/m*3 7.9 C 0 km/h
Sensor: Nr:Datum:Temp:Abs-Feuchte:Windchill:Wind:
Aussen-T/F 626 20-03-2020 04:05:00 7.9 C 7.56 g/m*3 7.9 C 0 km/h
627 20-03-2020 04:10:00 7.9 C 7.56 g/m*3 7.9 C 0 km/h
628 20-03-2020 04:15:00 7.9 C 7.56 g/m*3 7.9 C 0 km/h
629 20-03-2020 04:20:00 7.9 C 7.56 g/m*3 7.9 C 0 km/h
630 20-03-2020 04:25:00 7.9 C 7.56 g/m*3 7.9 C 0 km/h
631 20-03-2020 04:30:00 7.9 C 7.56 g/m*3 7.9 C 0 km/h
632 20-03-2020 04:35:00 7.8 C 7.51 g/m*3 7.8 C 0 km/h
633 20-03-2020 04:40:00 7.8 C 7.43 g/m*3 7.8 C 0 km/h
634 20-03-2020 04:45:00 7.8 C 7.51 g/m*3 7.8 C 0 km/h
635 20-03-2020 04:50:00 7.7 C 7.46 g/m*3 7.7 C 0 km/h
636 20-03-2020 04:55:00 7.7 C 7.46 g/m*3 7.7 C 0 km/h
637 20-03-2020 05:00:00 7.6 C 7.41 g/m*3 7.6 C 0 km/h
638 20-03-2020 05:05:00 7.6 C 7.41 g/m*3 7.6 C 0 km/h
639 20-03-2020 05:10:00 7.5 C 7.36 g/m*3 7.5 C 0 km/h
640 20-03-2020 05:15:00 7.4 C 7.32 g/m*3 7.4 C 0 km/h
641 20-03-2020 05:20:00 7.3 C 7.27 g/m*3 7.3 C 0 km/h
642 20-03-2020 05:25:00 7.3 C 7.27 g/m*3 7.3 C 0 km/h
643 20-03-2020 05:30:00 7.2 C 7.22 g/m*3 7.2 C 0 km/h
644 20-03-2020 05:35:00 7.1 C 7.18 g/m*3 7.1 C 0 km/h
645 20-03-2020 05:40:00 6.9 C 7.08 g/m*3 6.9 C 0 km/h
646 20-03-2020 05:45:00 6.8 C 7.04 g/m*3 6.8 C 0 km/h
647 20-03-2020 05:50:00 6.7 C 6.99 g/m*3 6.7 C 0 km/h
648 20-03-2020 05:55:00 6.6 C 6.95 g/m*3 6.6 C 0 km/h
649 20-03-2020 06:00:00 6.4 C 6.85 g/m*3 6.4 C 0 km/h
650 20-03-2020 06:05:00 6.4 C 6.85 g/m*3 6.4 C 0 km/h
Sensor: Nr:Datum:Temp:Abs-Feuchte:Windchill:Wind:
Aussen-T/F 651 20-03-2020 06:10:00 6.2 C 6.77 g/m*3 6.2 C 0 km/h
652 20-03-2020 06:15:00 6.1 C 6.79 g/m*3 6.1 C 0 km/h
653 20-03-2020 06:20:00 6.1 C 6.79 g/m*3 6.1 C 0 km/h
654 20-03-2020 06:25:00 6.1 C 6.79 g/m*3 6.1 C 0 km/h
655 20-03-2020 06:30:00 5.9 C 6.71 g/m*3 5.9 C 0 km/h
656 20-03-2020 06:35:00 5.9 C 6.71 g/m*3 5.9 C 0 km/h
657 20-03-2020 06:40:00 5.9 C 6.71 g/m*3 5.9 C 0 km/h
658 20-03-2020 06:45:00 5.9 C 6.78 g/m*3 5.9 C 0 km/h
659 20-03-2020 06:50:00 5.8 C 6.73 g/m*3 5.8 C 0 km/h
660 20-03-2020 06:55:00 5.8 C 6.73 g/m*3 5.8 C 0 km/h
661 20-03-2020 07:00:00 5.8 C 6.73 g/m*3 5.8 C 0 km/h
662 20-03-2020 07:05:00 5.8 C 6.73 g/m*3 5.8 C 0 km/h
663 20-03-2020 07:10:00 5.9 C 6.78 g/m*3 5.9 C 0 km/h
664 20-03-2020 07:15:00 5.9 C 6.78 g/m*3 5.9 C 0 km/h
665 20-03-2020 07:20:00 5.9 C 6.78 g/m*3 5.9 C 0 km/h
666 20-03-2020 07:25:00 5.9 C 6.85 g/m*3 5.9 C 0 km/h
667 20-03-2020 07:30:00 6 C 6.9 g/m*3 6 C 0 km/h
668 20-03-2020 07:35:00 6.1 C 6.94 g/m*3 6.1 C 0 km/h
669 20-03-2020 07:40:00 6.1 C 6.94 g/m*3 6.1 C 0 km/h
670 20-03-2020 07:45:00 6.2 C 6.99 g/m*3 6.2 C 0 km/h
671 20-03-2020 07:50:00 6.2 C 6.99 g/m*3 6.2 C 0 km/h
672 20-03-2020 07:55:00 6.3 C 7.03 g/m*3 6.3 C 0 km/h
673 20-03-2020 08:00:00 6.3 C 7.03 g/m*3 6.3 C 0 km/h
674 20-03-2020 08:05:00 6.5 C 7.12 g/m*3 6.5 C 0 km/h
675 20-03-2020 08:10:00 6.7 C 7.22 g/m*3 6.7 C 0 km/h
Sensor: Nr:Datum:Temp:Abs-Feuchte:Windchill:Wind:
Aussen-T/F 676 20-03-2020 08:15:00 6.9 C 7.39 g/m*3 6.9 C 0 km/h
677 20-03-2020 08:20:00 7.1 C 7.49 g/m*3 7.1 C 0 km/h
678 20-03-2020 08:25:00 7.3 C 7.58 g/m*3 7.3 C 0 km/h
679 20-03-2020 08:30:00 7.3 C 7.51 g/m*3 7.3 C 0 km/h
680 20-03-2020 08:35:00 7.4 C 7.55 g/m*3 7.4 C 0 km/h
681 20-03-2020 08:40:00 7.4 C 7.55 g/m*3 7.4 C 0 km/h
682 20-03-2020 08:45:00 7.4 C 7.55 g/m*3 7.4 C 0 km/h
683 20-03-2020 08:50:00 7.6 C 7.65 g/m*3 7.6 C 0 km/h
684 20-03-2020 08:55:00 7.6 C 7.65 g/m*3 7.6 C 0 km/h
685 20-03-2020 09:00:00 7.7 C 7.7 g/m*3 7.7 C 0 km/h
686 20-03-2020 09:05:00 7.9 C 7.8 g/m*3 7.9 C 0 km/h
687 20-03-2020 09:10:00 8 C 7.85 g/m*3 8 C 0 km/h
688 20-03-2020 09:15:00 8.2 C 7.96 g/m*3 8.2 C 0 km/h
689 20-03-2020 09:20:00 8.4 C 8.06 g/m*3 8.4 C 0 km/h
690 20-03-2020 09:25:00 8.9 C 8.41 g/m*3 7.37 C 9.7 km/h
691 20-03-2020 09:30:00 9.3 C 8.63 g/m*3 9.3 C 4.8 km/h
692 20-03-2020 09:35:00 9.5 C 8.65 g/m*3 9.5 C 3.2 km/h
693 20-03-2020 09:40:00 9.7 C 8.67 g/m*3 9.7 C 1.6 km/h
694 20-03-2020 09:45:00 9.9 C 8.68 g/m*3 9.9 C 4.8 km/h
695 20-03-2020 09:50:00 10.2 C 8.76 g/m*3 8.43 C 12.9 km/h
696 20-03-2020 09:55:00 10.4 C 8.77 g/m*3 8.67 C 12.9 km/h
697 20-03-2020 10:00:00 10.6 C 8.78 g/m*3 10.06 C 6.4 km/h
698 20-03-2020 10:05:00 10.8 C 8.8 g/m*3 9.93 C 8.1 km/h
699 20-03-2020 10:10:00 10.9 C 8.85 g/m*3 10.9 C 4.8 km/h
700 20-03-2020 10:15:00 11.1 C 8.86 g/m*3 11.1 C 4.8 km/h
Sensor: Nr:Datum:Temp:Abs-Feuchte:Windchill:Wind:
Aussen-T/F 701 20-03-2020 10:20:00 11.2 C 8.92 g/m*3 11.2 C 4.8 km/h
702 20-03-2020 10:25:00 11.2 C 8.82 g/m*3 11.2 C 3.2 km/h
703 20-03-2020 10:30:00 11.2 C 8.82 g/m*3 11.2 C 6.4 km/h
704 20-03-2020 10:35:00 11.3 C 8.87 g/m*3 11.3 C 9.7 km/h
705 20-03-2020 10:40:00 11.3 C 8.87 g/m*3 11.3 C 4.8 km/h
706 20-03-2020 10:45:00 11.4 C 8.83 g/m*3 11.4 C 6.4 km/h
707 20-03-2020 10:50:00 11.7 C 8.99 g/m*3 11.7 C 6.4 km/h
708 20-03-2020 10:55:00 11.9 C 9 g/m*3 11.9 C 6.4 km/h
709 20-03-2020 11:00:00 12.1 C 9.12 g/m*3 12.1 C 4.8 km/h
710 20-03-2020 11:05:00 12.3 C 9.12 g/m*3 12.3 C 9.7 km/h
711 20-03-2020 11:10:00 12.4 C 9.07 g/m*3 12.4 C 4.8 km/h
712 20-03-2020 11:15:00 12.6 C 9.07 g/m*3 12.6 C 9.7 km/h
713 20-03-2020 11:20:00 12.7 C 9.13 g/m*3 12.7 C 4.8 km/h
714 20-03-2020 11:25:00 12.8 C 9.07 g/m*3 12.8 C 4.8 km/h
715 20-03-2020 11:30:00 13 C 9.07 g/m*3 13 C 11.3 km/h
716 20-03-2020 11:35:00 13.1 C 9.24 g/m*3 13.1 C 9.7 km/h
717 20-03-2020 11:40:00 13.3 C 9.24 g/m*3 13.3 C 4.8 km/h
718 20-03-2020 11:45:00 13.4 C 9.3 g/m*3 13.4 C 6.4 km/h
719 20-03-2020 11:50:00 13.4 C 9.18 g/m*3 13.4 C 9.7 km/h
720 20-03-2020 11:55:00 13.5 C 9.36 g/m*3 13.5 C 6.4 km/h
721 20-03-2020 12:00:00 13.6 C 9.3 g/m*3 13.6 C 6.4 km/h
722 20-03-2020 12:05:00 13.7 C 9.24 g/m*3 13.7 C 9.7 km/h
723 20-03-2020 12:10:00 13.8 C 9.29 g/m*3 13.8 C 11.3 km/h
724 20-03-2020 12:15:00 13.8 C 9.17 g/m*3 13.8 C 9.7 km/h
725 20-03-2020 12:20:00 13.9 C 9.23 g/m*3 13.9 C 9.7 km/h
Sensor: Nr:Datum:Temp:Abs-Feuchte:Windchill:Wind:
Aussen-T/F 726 20-03-2020 12:25:00 14.1 C 9.34 g/m*3 14.1 C 11.3 km/h
727 20-03-2020 12:30:00 14.1 C 9.34 g/m*3 14.1 C 8.1 km/h
728 20-03-2020 12:35:00 14.1 C 9.34 g/m*3 14.1 C 8.1 km/h
729 20-03-2020 12:40:00 14.3 C 9.46 g/m*3 14.3 C 9.7 km/h
730 20-03-2020 12:45:00 14.3 C 9.34 g/m*3 14.3 C 6.4 km/h
731 20-03-2020 12:50:00 14.4 C 9.39 g/m*3 14.4 C 4.8 km/h
732 20-03-2020 12:55:00 14.4 C 9.39 g/m*3 14.4 C 8.1 km/h
733 20-03-2020 13:00:00 14.6 C 9.51 g/m*3 14.6 C 9.7 km/h
734 20-03-2020 13:05:00 14.7 C 9.44 g/m*3 14.7 C 11.3 km/h
735 20-03-2020 13:10:00 14.7 C 9.32 g/m*3 14.7 C 17.7 km/h
736 20-03-2020 13:15:00 14.6 C 9.26 g/m*3 14.6 C 14.5 km/h
737 20-03-2020 13:20:00 14.4 C 9.27 g/m*3 14.4 C 12.9 km/h
738 20-03-2020 13:25:00 14.5 C 9.33 g/m*3 14.5 C 16.1 km/h
739 20-03-2020 13:30:00 14.4 C 9.15 g/m*3 14.4 C 19.3 km/h
740 20-03-2020 13:35:00 14.5 C 9.2 g/m*3 14.5 C 12.9 km/h
741 20-03-2020 13:40:00 14.5 C 9.2 g/m*3 14.5 C 16.1 km/h
742 20-03-2020 13:45:00 14.6 C 9.39 g/m*3 14.6 C 12.9 km/h
743 20-03-2020 13:50:00 14.7 C 9.44 g/m*3 14.7 C 11.3 km/h
744 20-03-2020 13:55:00 14.8 C 9.37 g/m*3 14.8 C 14.5 km/h
745 20-03-2020 14:00:00 14.8 C 9.25 g/m*3 14.8 C 11.3 km/h
746 20-03-2020 14:05:00 14.9 C 9.3 g/m*3 14.9 C 19.3 km/h
747 20-03-2020 14:10:00 14.9 C 9.3 g/m*3 14.9 C 11.3 km/h
748 20-03-2020 14:15:00 14.9 C 9.3 g/m*3 14.9 C 14.5 km/h
749 20-03-2020 14:20:00 14.8 C 9.25 g/m*3 14.8 C 14.5 km/h
750 20-03-2020 14:25:00 14.8 C 9.25 g/m*3 14.8 C 14.5 km/h
Sensor: Nr:Datum:Temp:Abs-Feuchte:Windchill:Wind:
Aussen-T/F 751 20-03-2020 14:30:00 14.8 C 9.12 g/m*3 14.8 C 16.1 km/h
752 20-03-2020 14:35:00 14.9 C 9.3 g/m*3 14.9 C 11.3 km/h
753 20-03-2020 14:40:00 14.9 C 9.3 g/m*3 14.9 C 12.9 km/h
754 20-03-2020 14:45:00 14.8 C 9.25 g/m*3 14.8 C 9.7 km/h
755 20-03-2020 14:50:00 14.8 C 9.25 g/m*3 14.8 C 11.3 km/h
756 20-03-2020 14:55:00 14.8 C 9.25 g/m*3 14.8 C 16.1 km/h
757 20-03-2020 15:00:00 14.9 C 9.3 g/m*3 14.9 C 12.9 km/h
758 20-03-2020 15:05:00 14.8 C 9.25 g/m*3 14.8 C 12.9 km/h
759 20-03-2020 15:10:00 14.7 C 9.32 g/m*3 14.7 C 20.9 km/h
760 20-03-2020 15:15:00 14.6 C 9.26 g/m*3 14.6 C 20.9 km/h
761 20-03-2020 15:20:00 14.5 C 9.33 g/m*3 14.5 C 14.5 km/h
762 20-03-2020 15:25:00 14.5 C 9.33 g/m*3 14.5 C 16.1 km/h
763 20-03-2020 15:30:00 14.6 C 9.39 g/m*3 14.6 C 12.9 km/h
764 20-03-2020 15:35:00 14.6 C 9.39 g/m*3 14.6 C 11.3 km/h
765 20-03-2020 15:40:00 14.6 C 9.39 g/m*3 14.6 C 12.9 km/h
766 20-03-2020 15:45:00 14.6 C 9.26 g/m*3 14.6 C 17.7 km/h
767 20-03-2020 15:50:00 14.6 C 9.26 g/m*3 14.6 C 19.3 km/h
768 20-03-2020 15:55:00 14.4 C 9.15 g/m*3 14.4 C 14.5 km/h
769 20-03-2020 16:00:00 14.4 C 9.15 g/m*3 14.4 C 19.3 km/h
770 20-03-2020 16:05:00 14.4 C 9.15 g/m*3 14.4 C 14.5 km/h
771 20-03-2020 16:10:00 14.4 C 9.15 g/m*3 14.4 C 17.7 km/h
772 20-03-2020 16:15:00 14.4 C 9.27 g/m*3 14.4 C 14.5 km/h
773 20-03-2020 16:20:00 14.4 C 9.15 g/m*3 14.4 C 24.1 km/h
774 20-03-2020 16:25:00 14.3 C 9.09 g/m*3 14.3 C 17.7 km/h
775 20-03-2020 16:30:00 14.3 C 9.21 g/m*3 14.3 C 9.7 km/h
Sensor: Nr:Datum:Temp:Abs-Feuchte:Windchill:Wind:
Aussen-T/F 776 20-03-2020 16:35:00 14.3 C 9.09 g/m*3 14.3 C 14.5 km/h
777 20-03-2020 16:40:00 14.3 C 9.21 g/m*3 14.3 C 9.7 km/h
778 20-03-2020 16:45:00 14.5 C 9.2 g/m*3 14.5 C 12.9 km/h
779 20-03-2020 16:50:00 14.6 C 9.26 g/m*3 14.6 C 9.7 km/h
780 20-03-2020 16:55:00 14.7 C 9.19 g/m*3 14.7 C 11.3 km/h
781 20-03-2020 17:00:00 14.7 C 9.07 g/m*3 14.7 C 16.1 km/h
782 20-03-2020 17:05:00 14.5 C 9.08 g/m*3 14.5 C 14.5 km/h
783 20-03-2020 17:10:00 14.6 C 9.13 g/m*3 14.6 C 11.3 km/h
784 20-03-2020 17:15:00 14.4 C 9.02 g/m*3 14.4 C 14.5 km/h
785 20-03-2020 17:20:00 14.3 C 9.09 g/m*3 14.3 C 16.1 km/h
786 20-03-2020 17:25:00 14.2 C 8.91 g/m*3 14.2 C 11.3 km/h
787 20-03-2020 17:30:00 14.1 C 8.98 g/m*3 14.1 C 6.4 km/h
788 20-03-2020 17:35:00 13.8 C 8.7 g/m*3 13.8 C 11.3 km/h
789 20-03-2020 17:40:00 13.3 C 8.55 g/m*3 13.3 C 16.1 km/h
790 20-03-2020 17:45:00 12.8 C 8.51 g/m*3 12.8 C 14.5 km/h
791 20-03-2020 17:50:00 12.6 C 8.52 g/m*3 12.6 C 12.9 km/h
792 20-03-2020 17:55:00 12.4 C 8.52 g/m*3 12.4 C 12.9 km/h
793 20-03-2020 18:00:00 12.3 C 8.47 g/m*3 12.3 C 11.3 km/h
794 20-03-2020 18:05:00 12.2 C 8.42 g/m*3 12.2 C 11.3 km/h
795 20-03-2020 18:10:00 12.1 C 8.47 g/m*3 12.1 C 12.9 km/h
796 20-03-2020 18:15:00 11.9 C 8.37 g/m*3 11.9 C 9.7 km/h
797 20-03-2020 18:20:00 11.8 C 8.31 g/m*3 11.8 C 11.3 km/h
798 20-03-2020 18:25:00 11.8 C 8.42 g/m*3 11.8 C 9.7 km/h
799 20-03-2020 18:30:00 11.7 C 8.37 g/m*3 11.7 C 11.3 km/h
800 20-03-2020 18:35:00 11.7 C 8.37 g/m*3 11.7 C 9.7 km/h
Sensor: Nr:Datum:Temp:Abs-Feuchte:Windchill:Wind:
Aussen-T/F 801 20-03-2020 18:40:00 11.6 C 8.32 g/m*3 11.6 C 4.8 km/h
802 20-03-2020 18:45:00 11.6 C 8.32 g/m*3 11.6 C 9.7 km/h
803 20-03-2020 18:50:00 11.6 C 8.32 g/m*3 11.6 C 12.9 km/h
804 20-03-2020 18:55:00 11.7 C 8.37 g/m*3 11.7 C 9.7 km/h
805 20-03-2020 19:00:00 11.6 C 8.32 g/m*3 11.6 C 12.9 km/h
806 20-03-2020 19:05:00 11.6 C 8.32 g/m*3 11.6 C 11.3 km/h
807 20-03-2020 19:10:00 11.6 C 8.32 g/m*3 11.6 C 12.9 km/h
808 20-03-2020 19:15:00 11.4 C 8.21 g/m*3 11.4 C 19.3 km/h
809 20-03-2020 19:20:00 11.4 C 8.21 g/m*3 11.4 C 11.3 km/h
810 20-03-2020 19:25:00 11.3 C 8.26 g/m*3 11.3 C 8.1 km/h
811 20-03-2020 19:30:00 11.2 C 8.21 g/m*3 11.2 C 8.1 km/h
812 20-03-2020 19:35:00 11.1 C 8.16 g/m*3 11.1 C 9.7 km/h
813 20-03-2020 19:40:00 11 C 8.11 g/m*3 9.63 C 11.3 km/h
814 20-03-2020 19:45:00 10.9 C 8.06 g/m*3 9.76 C 9.7 km/h
815 20-03-2020 19:50:00 10.8 C 8.11 g/m*3 9.93 C 8.1 km/h
816 20-03-2020 19:55:00 10.7 C 8.05 g/m*3 9.52 C 9.7 km/h
817 20-03-2020 20:00:00 10.7 C 8.05 g/m*3 9.26 C 11.3 km/h
818 20-03-2020 20:05:00 10.6 C 8 g/m*3 9.14 C 11.3 km/h
819 20-03-2020 20:10:00 10.5 C 7.95 g/m*3 9.02 C 11.3 km/h
820 20-03-2020 20:15:00 10.4 C 7.9 g/m*3 9.83 C 6.4 km/h
821 20-03-2020 20:20:00 10.4 C 7.9 g/m*3 10.4 C 3.2 km/h
822 20-03-2020 20:25:00 10.4 C 7.9 g/m*3 10.4 C 4.8 km/h
823 20-03-2020 20:30:00 10.3 C 7.85 g/m*3 10.3 C 4.8 km/h
824 20-03-2020 20:35:00 10.3 C 7.85 g/m*3 10.3 C 0 km/h
825 20-03-2020 20:40:00 10.3 C 7.95 g/m*3 10.3 C 0 km/h
Sensor: Nr:Datum:Temp:Abs-Feuchte:Windchill:Wind:
Aussen-T/F 826 20-03-2020 20:45:00 10.3 C 7.95 g/m*3 10.3 C 0 km/h
827 20-03-2020 20:50:00 10.3 C 7.85 g/m*3 9.72 C 6.4 km/h
828 20-03-2020 20:55:00 10.3 C 7.85 g/m*3 9.04 C 9.7 km/h
829 20-03-2020 21:00:00 10.3 C 7.76 g/m*3 10.3 C 4.8 km/h
830 20-03-2020 21:05:00 10.2 C 7.61 g/m*3 8.92 C 9.7 km/h
831 20-03-2020 21:10:00 10.2 C 7.61 g/m*3 9.6 C 6.4 km/h
832 20-03-2020 21:15:00 10.1 C 7.56 g/m*3 9.48 C 6.4 km/h
833 20-03-2020 21:20:00 9.9 C 7.47 g/m*3 8.56 C 9.7 km/h
834 20-03-2020 21:25:00 9.7 C 7.38 g/m*3 7.61 C 14.5 km/h
835 20-03-2020 21:30:00 9.6 C 7.33 g/m*3 7.94 C 11.3 km/h
836 20-03-2020 21:35:00 9.5 C 7.28 g/m*3 7.82 C 11.3 km/h
837 20-03-2020 21:40:00 9.4 C 7.33 g/m*3 7.24 C 14.5 km/h
838 20-03-2020 21:45:00 9.3 C 7.19 g/m*3 6.92 C 16.1 km/h
839 20-03-2020 21:50:00 9.1 C 7.19 g/m*3 7.09 C 12.9 km/h
840 20-03-2020 21:55:00 8.9 C 7.1 g/m*3 5.9 C 20.9 km/h
841 20-03-2020 22:00:00 8.9 C 7.1 g/m*3 6.62 C 14.5 km/h
842 20-03-2020 22:05:00 8.8 C 7.14 g/m*3 6.5 C 14.5 km/h
843 20-03-2020 22:10:00 8.7 C 7.09 g/m*3 6.17 C 16.1 km/h
844 20-03-2020 22:15:00 8.7 C 7.09 g/m*3 6.38 C 14.5 km/h
845 20-03-2020 22:20:00 8.6 C 7.05 g/m*3 6.05 C 16.1 km/h
846 20-03-2020 22:25:00 8.6 C 7.05 g/m*3 5.86 C 17.7 km/h
847 20-03-2020 22:30:00 8.5 C 6.92 g/m*3 6.13 C 14.5 km/h
848 20-03-2020 22:35:00 8.5 C 6.92 g/m*3 6.13 C 14.5 km/h
849 20-03-2020 22:40:00 8.4 C 6.87 g/m*3 8.4 C 4.8 km/h
850 20-03-2020 22:45:00 8.4 C 6.87 g/m*3 6.49 C 11.3 km/h
Sensor: Nr:Datum:Temp:Abs-Feuchte:Windchill:Wind:
Aussen-T/F 851 20-03-2020 22:50:00 8.4 C 6.87 g/m*3 6.49 C 11.3 km/h
852 20-03-2020 22:55:00 8.3 C 6.83 g/m*3 6.66 C 9.7 km/h
853 20-03-2020 23:00:00 8.3 C 6.83 g/m*3 6.37 C 11.3 km/h
854 20-03-2020 23:05:00 8.3 C 6.83 g/m*3 6.37 C 11.3 km/h
855 20-03-2020 23:10:00 8.2 C 6.7 g/m*3 6.25 C 11.3 km/h
856 20-03-2020 23:15:00 8.2 C 6.7 g/m*3 6.54 C 9.7 km/h
857 20-03-2020 23:20:00 8.2 C 6.7 g/m*3 6.25 C 11.3 km/h
858 20-03-2020 23:25:00 8.2 C 6.7 g/m*3 6.54 C 9.7 km/h
859 20-03-2020 23:30:00 8.1 C 6.57 g/m*3 6.75 C 8.1 km/h
860 20-03-2020 23:35:00 8.1 C 6.57 g/m*3 5.23 C 17.7 km/h
861 20-03-2020 23:40:00 8.1 C 6.49 g/m*3 6.13 C 11.3 km/h
862 20-03-2020 23:45:00 8.1 C 6.49 g/m*3 6.42 C 9.7 km/h
863 20-03-2020 23:50:00 8.1 C 6.41 g/m*3 6.75 C 8.1 km/h
864 20-03-2020 23:55:00 8 C 6.28 g/m*3 6.01 C 11.3 km/h
865 21-03-2020 00:00:00 8 C 6.2 g/m*3 6.01 C 11.3 km/h
866 21-03-2020 00:05:00 7.9 C 6.16 g/m*3 4.8 C 19.3 km/h
867 21-03-2020 00:10:00 7.9 C 6.16 g/m*3 5.89 C 11.3 km/h
868 21-03-2020 00:15:00 7.9 C 6.16 g/m*3 7.9 C 3.2 km/h
869 21-03-2020 00:20:00 7.8 C 6.04 g/m*3 6.83 C 6.4 km/h
870 21-03-2020 00:25:00 7.8 C 6.04 g/m*3 4.68 C 19.3 km/h
871 21-03-2020 00:30:00 7.8 C 6.12 g/m*3 6.06 C 9.7 km/h
872 21-03-2020 00:35:00 7.8 C 6.04 g/m*3 5.77 C 11.3 km/h
873 21-03-2020 00:40:00 7.7 C 6 g/m*3 5.94 C 9.7 km/h
874 21-03-2020 00:45:00 7.7 C 6 g/m*3 5.38 C 12.9 km/h
875 21-03-2020 00:50:00 7.7 C 6 g/m*3 5.38 C 12.9 km/h
Sensor: Nr:Datum:Temp:Abs-Feuchte:Windchill:Wind:
Aussen-T/F 876 21-03-2020 00:55:00 7.6 C 5.88 g/m*3 7.6 C 4.8 km/h
877 21-03-2020 01:00:00 7.6 C 5.96 g/m*3 5.02 C 14.5 km/h
878 21-03-2020 01:05:00 7.6 C 5.88 g/m*3 6.6 C 6.4 km/h
879 21-03-2020 01:10:00 7.6 C 5.96 g/m*3 6.6 C 6.4 km/h
880 21-03-2020 01:15:00 7.6 C 5.96 g/m*3 4.81 C 16.1 km/h
881 21-03-2020 01:20:00 7.5 C 6 g/m*3 4.3 C 19.3 km/h
882 21-03-2020 01:25:00 7.4 C 5.96 g/m*3 5.02 C 12.9 km/h
883 21-03-2020 01:30:00 7.4 C 6.04 g/m*3 4.78 C 14.5 km/h
884 21-03-2020 01:35:00 7.3 C 6.16 g/m*3 5.47 C 9.7 km/h
885 21-03-2020 01:40:00 7.3 C 6.24 g/m*3 5.81 C 8.1 km/h
886 21-03-2020 01:45:00 7.2 C 6.2 g/m*3 7.2 C 4.8 km/h
887 21-03-2020 01:50:00 7.1 C 6.24 g/m*3 6.02 C 6.4 km/h
888 21-03-2020 01:55:00 7 C 6.28 g/m*3 5.46 C 8.1 km/h
889 21-03-2020 02:00:00 6.8 C 6.27 g/m*3 4.29 C 12.9 km/h
890 21-03-2020 02:05:00 6.7 C 6.31 g/m*3 3.29 C 19.3 km/h
891 21-03-2020 02:10:00 6.6 C 6.34 g/m*3 4.32 C 11.3 km/h
892 21-03-2020 02:15:00 6.4 C 6.33 g/m*3 4.39 C 9.7 km/h
893 21-03-2020 02:20:00 6.3 C 6.37 g/m*3 4.27 C 9.7 km/h
894 21-03-2020 02:25:00 6.1 C 6.28 g/m*3 3.72 C 11.3 km/h
895 21-03-2020 02:30:00 6 C 6.31 g/m*3 4.75 C 6.4 km/h
896 21-03-2020 02:35:00 5.9 C 6.35 g/m*3 5.9 C 4.8 km/h
897 21-03-2020 02:40:00 5.8 C 6.38 g/m*3 2.81 C 14.5 km/h
898 21-03-2020 02:45:00 5.7 C 6.33 g/m*3 2.95 C 12.9 km/h
899 21-03-2020 02:50:00 5.6 C 6.29 g/m*3 2.57 C 14.5 km/h
900 21-03-2020 02:55:00 5.5 C 6.25 g/m*3 3.32 C 9.7 km/h
Sensor: Nr:Datum:Temp:Abs-Feuchte:Windchill:Wind:
Aussen-T/F 901 21-03-2020 03:00:00 5.4 C 6.21 g/m*3 3.2 C 9.7 km/h
902 21-03-2020 03:05:00 5.4 C 6.21 g/m*3 3.2 C 9.7 km/h
903 21-03-2020 03:10:00 5.4 C 6.28 g/m*3 3.2 C 9.7 km/h
904 21-03-2020 03:15:00 5.3 C 6.31 g/m*3 5.3 C 3.2 km/h
905 21-03-2020 03:20:00 5.3 C 6.31 g/m*3 5.3 C 1.6 km/h
906 21-03-2020 03:25:00 5.3 C 6.31 g/m*3 5.3 C 0 km/h
907 21-03-2020 03:30:00 5.3 C 6.38 g/m*3 5.3 C 0 km/h
908 21-03-2020 03:35:00 5.3 C 6.38 g/m*3 5.3 C 0 km/h
909 21-03-2020 03:40:00 5.2 C 6.33 g/m*3 5.2 C 3.2 km/h
910 21-03-2020 03:45:00 5.2 C 6.33 g/m*3 5.2 C 3.2 km/h
911 21-03-2020 03:50:00 5.2 C 6.33 g/m*3 5.2 C 4.8 km/h
912 21-03-2020 03:55:00 5.1 C 6.29 g/m*3 5.1 C 3.2 km/h
913 21-03-2020 04:00:00 5.1 C 6.29 g/m*3 3.23 C 8.1 km/h
914 21-03-2020 04:05:00 5 C 6.25 g/m*3 2.09 C 12.9 km/h
915 21-03-2020 04:10:00 5 C 6.25 g/m*3 5 C 3.2 km/h
916 21-03-2020 04:15:00 4.9 C 6.21 g/m*3 4.9 C 4.8 km/h
917 21-03-2020 04:20:00 4.8 C 6.17 g/m*3 2.49 C 9.7 km/h
918 21-03-2020 04:25:00 4.8 C 6.17 g/m*3 4.8 C 1.6 km/h
919 21-03-2020 04:30:00 4.8 C 6.17 g/m*3 4.8 C 1.6 km/h
920 21-03-2020 04:35:00 4.8 C 6.24 g/m*3 4.8 C 3.2 km/h
921 21-03-2020 04:40:00 4.8 C 6.24 g/m*3 4.8 C 4.8 km/h
922 21-03-2020 04:45:00 4.8 C 6.24 g/m*3 4.8 C 3.2 km/h
923 21-03-2020 04:50:00 4.7 C 6.19 g/m*3 4.7 C 4.8 km/h
924 21-03-2020 04:55:00 4.7 C 6.19 g/m*3 4.7 C 1.6 km/h
925 21-03-2020 05:00:00 4.7 C 6.19 g/m*3 4.7 C 0 km/h
Sensor: Nr:Datum:Temp:Abs-Feuchte:Windchill:Wind:
Aussen-T/F 926 21-03-2020 05:05:00 4.7 C 6.19 g/m*3 4.7 C 0 km/h
927 21-03-2020 05:10:00 4.7 C 6.19 g/m*3 4.7 C 4.8 km/h
928 21-03-2020 05:15:00 4.6 C 6.15 g/m*3 4.6 C 0 km/h
929 21-03-2020 05:20:00 4.6 C 6.15 g/m*3 4.6 C 0 km/h
930 21-03-2020 05:25:00 4.6 C 6.15 g/m*3 4.6 C 1.6 km/h
931 21-03-2020 05:30:00 4.6 C 6.22 g/m*3 4.6 C 0 km/h
932 21-03-2020 05:35:00 4.6 C 6.22 g/m*3 4.6 C 1.6 km/h
933 21-03-2020 05:40:00 4.6 C 6.22 g/m*3 4.6 C 1.6 km/h
934 21-03-2020 05:45:00 4.6 C 6.22 g/m*3 4.6 C 0 km/h
935 21-03-2020 05:50:00 4.6 C 6.22 g/m*3 4.6 C 0 km/h
936 21-03-2020 05:55:00 4.6 C 6.22 g/m*3 4.6 C 0 km/h
937 21-03-2020 06:00:00 4.6 C 6.22 g/m*3 4.6 C 0 km/h
938 21-03-2020 06:05:00 4.6 C 6.22 g/m*3 4.6 C 0 km/h
939 21-03-2020 06:10:00 4.6 C 6.22 g/m*3 4.6 C 3.2 km/h
940 21-03-2020 06:15:00 4.6 C 6.22 g/m*3 4.6 C 0 km/h
941 21-03-2020 06:20:00 4.6 C 6.22 g/m*3 4.6 C 0 km/h
942 21-03-2020 06:25:00 4.6 C 6.22 g/m*3 4.6 C 0 km/h
943 21-03-2020 06:30:00 4.6 C 6.22 g/m*3 4.6 C 0 km/h
944 21-03-2020 06:35:00 4.6 C 6.22 g/m*3 4.6 C 0 km/h
945 21-03-2020 06:40:00 4.6 C 6.22 g/m*3 4.6 C 3.2 km/h
946 21-03-2020 06:45:00 4.6 C 6.22 g/m*3 4.6 C 0 km/h
947 21-03-2020 06:50:00 4.6 C 6.29 g/m*3 4.6 C 0 km/h
948 21-03-2020 06:55:00 4.6 C 6.29 g/m*3 4.6 C 0 km/h
949 21-03-2020 07:00:00 4.6 C 6.29 g/m*3 4.6 C 0 km/h
950 21-03-2020 07:05:00 4.7 C 6.33 g/m*3 4.7 C 0 km/h
Sensor: Nr:Datum:Temp:Abs-Feuchte:Windchill:Wind:
Aussen-T/F 951 21-03-2020 07:10:00 4.7 C 6.33 g/m*3 4.7 C 1.6 km/h
952 21-03-2020 07:15:00 4.7 C 6.33 g/m*3 4.7 C 0 km/h
953 21-03-2020 07:20:00 4.7 C 6.33 g/m*3 4.7 C 1.6 km/h
954 21-03-2020 07:25:00 4.7 C 6.33 g/m*3 4.7 C 0 km/h
955 21-03-2020 07:30:00 4.7 C 6.33 g/m*3 4.7 C 0 km/h
956 21-03-2020 07:35:00 4.8 C 6.37 g/m*3 4.8 C 0 km/h
957 21-03-2020 07:40:00 4.8 C 6.37 g/m*3 4.8 C 0 km/h
958 21-03-2020 07:45:00 4.8 C 6.37 g/m*3 4.8 C 0 km/h
959 21-03-2020 07:50:00 4.8 C 6.37 g/m*3 4.8 C 0 km/h
960 21-03-2020 07:55:00 4.8 C 6.37 g/m*3 4.8 C 1.6 km/h
961 21-03-2020 08:00:00 4.9 C 6.41 g/m*3 4.9 C 3.2 km/h
962 21-03-2020 08:05:00 4.9 C 6.41 g/m*3 4.9 C 3.2 km/h
963 21-03-2020 08:10:00 5 C 6.46 g/m*3 5 C 1.6 km/h
964 21-03-2020 08:15:00 5 C 6.46 g/m*3 3.59 C 6.4 km/h
965 21-03-2020 08:20:00 5 C 6.46 g/m*3 5 C 0 km/h
966 21-03-2020 08:25:00 5.1 C 6.5 g/m*3 5.1 C 0 km/h
967 21-03-2020 08:30:00 5.1 C 6.5 g/m*3 5.1 C 0 km/h
968 21-03-2020 08:35:00 5.2 C 6.54 g/m*3 5.2 C 1.6 km/h
969 21-03-2020 08:40:00 5.2 C 6.54 g/m*3 5.2 C 1.6 km/h
970 21-03-2020 08:45:00 5.2 C 6.54 g/m*3 5.2 C 0 km/h
971 21-03-2020 08:50:00 5.3 C 6.58 g/m*3 5.3 C 0 km/h
972 21-03-2020 08:55:00 5.3 C 6.58 g/m*3 5.3 C 1.6 km/h
973 21-03-2020 09:00:00 5.3 C 6.58 g/m*3 5.3 C 0 km/h
974 21-03-2020 09:05:00 5.3 C 6.58 g/m*3 5.3 C 0 km/h
975 21-03-2020 09:10:00 5.3 C 6.58 g/m*3 5.3 C 1.6 km/h
Sensor: Nr:Datum:Temp:Abs-Feuchte:Windchill:Wind:
Aussen-T/F 976 21-03-2020 09:15:00 5.2 C 6.54 g/m*3 5.2 C 4.8 km/h
977 21-03-2020 09:20:00 5.3 C 6.58 g/m*3 5.3 C 1.6 km/h
978 21-03-2020 09:25:00 5.4 C 6.63 g/m*3 5.4 C 0 km/h
979 21-03-2020 09:30:00 5.5 C 6.67 g/m*3 5.5 C 1.6 km/h
980 21-03-2020 09:35:00 5.6 C 6.72 g/m*3 5.6 C 4.8 km/h
981 21-03-2020 09:40:00 5.7 C 6.76 g/m*3 5.7 C 4.8 km/h
982 21-03-2020 09:45:00 5.8 C 6.73 g/m*3 5.8 C 1.6 km/h
983 21-03-2020 09:50:00 5.9 C 6.85 g/m*3 5.9 C 4.8 km/h
984 21-03-2020 09:55:00 6 C 6.82 g/m*3 3.92 C 9.7 km/h
985 21-03-2020 10:00:00 6.1 C 6.87 g/m*3 6.1 C 1.6 km/h
986 21-03-2020 10:05:00 6.1 C 6.79 g/m*3 3.72 C 11.3 km/h
987 21-03-2020 10:10:00 6.1 C 6.65 g/m*3 2.95 C 16.1 km/h
988 21-03-2020 10:15:00 6.2 C 6.62 g/m*3 3.84 C 11.3 km/h
989 21-03-2020 10:20:00 6.3 C 6.66 g/m*3 3.96 C 11.3 km/h
990 21-03-2020 10:25:00 6.4 C 6.63 g/m*3 4.39 C 9.7 km/h
991 21-03-2020 10:30:00 6.5 C 6.67 g/m*3 4.2 C 11.3 km/h
992 21-03-2020 10:35:00 6.6 C 6.64 g/m*3 4.99 C 8.1 km/h
993 21-03-2020 10:40:00 6.6 C 6.57 g/m*3 4.99 C 8.1 km/h
994 21-03-2020 10:45:00 6.6 C 6.49 g/m*3 4.63 C 9.7 km/h
995 21-03-2020 10:50:00 6.6 C 6.49 g/m*3 4.04 C 12.9 km/h
996 21-03-2020 10:55:00 6.5 C 6.37 g/m*3 3.44 C 16.1 km/h
997 21-03-2020 11:00:00 6.5 C 6.3 g/m*3 3.44 C 16.1 km/h
998 21-03-2020 11:05:00 6.6 C 6.42 g/m*3 4.63 C 9.7 km/h
999 21-03-2020 11:10:00 6.7 C 6.38 g/m*3 4.75 C 9.7 km/h
1000 21-03-2020 11:15:00 6.7 C 6.15 g/m*3 3.69 C 16.1 km/h
Sensor: Nr:Datum:Temp:Abs-Feuchte:Windchill:Wind:
Aussen-T/F 1001 21-03-2020 11:20:00 6.8 C 6.19 g/m*3 4.29 C 12.9 km/h
1002 21-03-2020 11:25:00 7.1 C 6.32 g/m*3 5.58 C 8.1 km/h
1003 21-03-2020 11:30:00 7.3 C 6.24 g/m*3 5.16 C 11.3 km/h
1004 21-03-2020 11:35:00 7.4 C 6.2 g/m*3 5.28 C 11.3 km/h
1005 21-03-2020 11:40:00 7.6 C 6.44 g/m*3 6.16 C 8.1 km/h
1006 21-03-2020 11:45:00 7.6 C 5.96 g/m*3 5.26 C 12.9 km/h
1007 21-03-2020 11:50:00 7.6 C 6.04 g/m*3 5.53 C 11.3 km/h
1008 21-03-2020 11:55:00 7.6 C 5.96 g/m*3 5.53 C 11.3 km/h
1009 21-03-2020 12:00:00 7.6 C 5.96 g/m*3 5.26 C 12.9 km/h
1010 21-03-2020 12:05:00 7.5 C 5.92 g/m*3 5.14 C 12.9 km/h
1011 21-03-2020 12:10:00 7.4 C 6.04 g/m*3 4.78 C 14.5 km/h
1012 21-03-2020 12:15:00 7.4 C 6.12 g/m*3 4.56 C 16.1 km/h
1013 21-03-2020 12:20:00 7.5 C 5.84 g/m*3 4.3 C 19.3 km/h
1014 21-03-2020 12:25:00 7.6 C 5.96 g/m*3 4.61 C 17.7 km/h
1015 21-03-2020 12:30:00 7.7 C 6 g/m*3 4.93 C 16.1 km/h
1016 21-03-2020 12:35:00 7.8 C 5.71 g/m*3 4.68 C 19.3 km/h
1017 21-03-2020 12:40:00 7.8 C 5.79 g/m*3 6.06 C 9.7 km/h
1018 21-03-2020 12:45:00 7.8 C 5.71 g/m*3 4.68 C 19.3 km/h
1019 21-03-2020 12:50:00 7.8 C 5.71 g/m*3 5.27 C 14.5 km/h
1020 21-03-2020 12:55:00 7.7 C 5.59 g/m*3 4.93 C 16.1 km/h
1021 21-03-2020 13:00:00 7.7 C 5.51 g/m*3 4.55 C 19.3 km/h
1022 21-03-2020 13:05:00 7.8 C 5.55 g/m*3 4.05 C 25.7 km/h
1023 21-03-2020 13:10:00 7.9 C 5.59 g/m*3 6.52 C 8.1 km/h
1024 21-03-2020 13:15:00 8.1 C 5.66 g/m*3 5.05 C 19.3 km/h
1025 21-03-2020 13:20:00 8.2 C 5.61 g/m*3 5.36 C 17.7 km/h
Sensor: Nr:Datum:Temp:Abs-Feuchte:Windchill:Wind:
Aussen-T/F 1026 21-03-2020 13:25:00 8.2 C 5.53 g/m*3 5.01 C 20.9 km/h
1027 21-03-2020 13:30:00 8.2 C 5.44 g/m*3 5.36 C 17.7 km/h
1028 21-03-2020 13:35:00 8.3 C 5.48 g/m*3 5.31 C 19.3 km/h
1029 21-03-2020 13:40:00 8.1 C 5.24 g/m*3 4.05 C 30.6 km/h
1030 21-03-2020 13:45:00 8.1 C 5.49 g/m*3 4.89 C 20.9 km/h
1031 21-03-2020 13:50:00 8.2 C 5.36 g/m*3 5.18 C 19.3 km/h
1032 21-03-2020 13:55:00 8.2 C 5.28 g/m*3 4.86 C 22.5 km/h
1033 21-03-2020 14:00:00 8.3 C 5.31 g/m*3 5.68 C 16.1 km/h
1034 21-03-2020 14:05:00 8.3 C 5.39 g/m*3 5.89 C 14.5 km/h
1035 21-03-2020 14:10:00 8.4 C 5.26 g/m*3 6.24 C 12.9 km/h
1036 21-03-2020 14:15:00 8.4 C 5.26 g/m*3 5.11 C 22.5 km/h
1037 21-03-2020 14:20:00 8.4 C 5.34 g/m*3 5.61 C 17.7 km/h
1038 21-03-2020 14:25:00 8.4 C 5.43 g/m*3 6.78 C 9.7 km/h
1039 21-03-2020 14:30:00 8.6 C 5.33 g/m*3 5.68 C 19.3 km/h
1040 21-03-2020 14:35:00 8.5 C 5.21 g/m*3 5.39 C 20.9 km/h
1041 21-03-2020 14:40:00 8.5 C 5.38 g/m*3 5.73 C 17.7 km/h
1042 21-03-2020 14:45:00 8.7 C 5.19 g/m*3 5.98 C 17.7 km/h
1043 21-03-2020 14:50:00 8.7 C 5.28 g/m*3 5.35 C 24.1 km/h
1044 21-03-2020 14:55:00 8.7 C 5.28 g/m*3 5.98 C 17.7 km/h
1045 21-03-2020 15:00:00 8.8 C 5.31 g/m*3 5.93 C 19.3 km/h
1046 21-03-2020 15:05:00 9 C 5.47 g/m*3 6.36 C 17.7 km/h
1047 21-03-2020 15:10:00 8.9 C 5.08 g/m*3 6.62 C 14.5 km/h
1048 21-03-2020 15:15:00 8.9 C 4.99 g/m*3 6.85 C 12.9 km/h
1049 21-03-2020 15:20:00 9.1 C 5.23 g/m*3 7.61 C 9.7 km/h
1050 21-03-2020 15:25:00 9.3 C 5.21 g/m*3 7.12 C 14.5 km/h
Sensor: Nr:Datum:Temp:Abs-Feuchte:Windchill:Wind:
Aussen-T/F 1051 21-03-2020 15:30:00 9.4 C 5.25 g/m*3 6.69 C 19.3 km/h
1052 21-03-2020 15:35:00 9.4 C 5.16 g/m*3 6.69 C 19.3 km/h
1053 21-03-2020 15:40:00 9.1 C 4.97 g/m*3 5.73 C 25.7 km/h
1054 21-03-2020 15:45:00 8.8 C 5.14 g/m*3 5.62 C 22.5 km/h
1055 21-03-2020 15:50:00 8.6 C 5.07 g/m*3 6.05 C 16.1 km/h
1056 21-03-2020 15:55:00 8.6 C 5.07 g/m*3 5.86 C 17.7 km/h
1057 21-03-2020 16:00:00 8.6 C 5.24 g/m*3 6.73 C 11.3 km/h
1058 21-03-2020 16:05:00 8.8 C 5.22 g/m*3 6.3 C 16.1 km/h
1059 21-03-2020 16:10:00 8.8 C 5.22 g/m*3 6.5 C 14.5 km/h
1060 21-03-2020 16:15:00 8.9 C 5.17 g/m*3 7.37 C 9.7 km/h
1061 21-03-2020 16:20:00 9.3 C 4.94 g/m*3 7.58 C 11.3 km/h
1062 21-03-2020 16:25:00 9.5 C 5.1 g/m*3 7.16 C 16.1 km/h
1063 21-03-2020 16:30:00 9.7 C 5.16 g/m*3 8.63 C 8.1 km/h
1064 21-03-2020 16:35:00 9.9 C 4.95 g/m*3 7.85 C 14.5 km/h
1065 21-03-2020 16:40:00 10.1 C 5.11 g/m*3 8.54 C 11.3 km/h
1066 21-03-2020 16:45:00 10.1 C 4.92 g/m*3 8.8 C 9.7 km/h
1067 21-03-2020 16:50:00 9.9 C 5.04 g/m*3 7.48 C 17.7 km/h
1068 21-03-2020 16:55:00 9.9 C 5.04 g/m*3 8.06 C 12.9 km/h
1069 21-03-2020 17:00:00 9.8 C 5.01 g/m*3 8.18 C 11.3 km/h
1070 21-03-2020 17:05:00 9.6 C 5.04 g/m*3 7.94 C 11.3 km/h
1071 21-03-2020 17:10:00 9.3 C 4.94 g/m*3 7.58 C 11.3 km/h
1072 21-03-2020 17:15:00 8.9 C 4.64 g/m*3 6.23 C 17.7 km/h
1073 21-03-2020 17:20:00 8.6 C 4.64 g/m*3 6.05 C 16.1 km/h
1074 21-03-2020 17:25:00 8.4 C 4.84 g/m*3 5.8 C 16.1 km/h
1075 21-03-2020 17:30:00 8.3 C 4.64 g/m*3 5.89 C 14.5 km/h
Sensor: Nr:Datum:Temp:Abs-Feuchte:Windchill:Wind:
Aussen-T/F 1076 21-03-2020 17:35:00 8.1 C 4.49 g/m*3 5.05 C 19.3 km/h
1077 21-03-2020 17:40:00 8.1 C 4.74 g/m*3 5.87 C 12.9 km/h
1078 21-03-2020 17:45:00 8 C 4.63 g/m*3 5.75 C 12.9 km/h
1079 21-03-2020 17:50:00 7.9 C 4.6 g/m*3 4.8 C 19.3 km/h
1080 21-03-2020 17:55:00 7.8 C 4.65 g/m*3 5.27 C 14.5 km/h
1081 21-03-2020 18:00:00 7.7 C 4.7 g/m*3 6.71 C 6.4 km/h
1082 21-03-2020 18:05:00 7.5 C 4.48 g/m*3 4.9 C 14.5 km/h
1083 21-03-2020 18:10:00 7.4 C 4.53 g/m*3 5.02 C 12.9 km/h
1084 21-03-2020 18:15:00 7.3 C 4.42 g/m*3 7.3 C 4.8 km/h
1085 21-03-2020 18:20:00 7.3 C 4.42 g/m*3 5.47 C 9.7 km/h
1086 21-03-2020 18:25:00 7.2 C 4.47 g/m*3 6.13 C 6.4 km/h
1087 21-03-2020 18:30:00 7.1 C 4.52 g/m*3 6.02 C 6.4 km/h
1088 21-03-2020 18:35:00 6.9 C 4.7 g/m*3 6.9 C 3.2 km/h
1089 21-03-2020 18:40:00 6.8 C 4.67 g/m*3 6.8 C 4.8 km/h
1090 21-03-2020 18:45:00 6.6 C 4.76 g/m*3 6.6 C 4.8 km/h
1091 21-03-2020 18:50:00 6.4 C 4.62 g/m*3 4.75 C 8.1 km/h
1092 21-03-2020 18:55:00 6.3 C 4.59 g/m*3 4.27 C 9.7 km/h
1093 21-03-2020 19:00:00 6.3 C 4.52 g/m*3 4.64 C 8.1 km/h
1094 21-03-2020 19:05:00 6.2 C 4.63 g/m*3 4.98 C 6.4 km/h
1095 21-03-2020 19:10:00 6.1 C 4.6 g/m*3 4.86 C 6.4 km/h
1096 21-03-2020 19:15:00 5.9 C 4.54 g/m*3 5.9 C 1.6 km/h
1097 21-03-2020 19:20:00 5.8 C 4.73 g/m*3 5.8 C 3.2 km/h
1098 21-03-2020 19:25:00 5.6 C 4.81 g/m*3 5.6 C 3.2 km/h
1099 21-03-2020 19:30:00 5.4 C 4.67 g/m*3 5.4 C 3.2 km/h
1100 21-03-2020 19:35:00 5.2 C 4.61 g/m*3 5.2 C 4.8 km/h
Sensor: Nr:Datum:Temp:Abs-Feuchte:Windchill:Wind:
Aussen-T/F 1101 21-03-2020 19:40:00 5.2 C 4.68 g/m*3 3.82 C 6.4 km/h
1102 21-03-2020 19:45:00 5.1 C 4.72 g/m*3 2.84 C 9.7 km/h
1103 21-03-2020 19:50:00 5.1 C 4.45 g/m*3 2.84 C 9.7 km/h
1104 21-03-2020 19:55:00 5.1 C 4.51 g/m*3 5.1 C 4.8 km/h
1105 21-03-2020 20:00:00 4.9 C 4.39 g/m*3 4.9 C 3.2 km/h
1106 21-03-2020 20:05:00 4.9 C 4.52 g/m*3 4.9 C 4.8 km/h
1107 21-03-2020 20:10:00 4.8 C 4.63 g/m*3 4.8 C 3.2 km/h
1108 21-03-2020 20:15:00 4.6 C 4.57 g/m*3 4.6 C 0 km/h
1109 21-03-2020 20:20:00 4.4 C 4.64 g/m*3 4.4 C 0 km/h
1110 21-03-2020 20:25:00 4.2 C 4.45 g/m*3 2.17 C 8.1 km/h
1111 21-03-2020 20:30:00 4.2 C 4.38 g/m*3 4.2 C 3.2 km/h
1112 21-03-2020 20:35:00 4.3 C 4.41 g/m*3 1.55 C 11.3 km/h
1113 21-03-2020 20:40:00 4.4 C 4.24 g/m*3 2.01 C 9.7 km/h
1114 21-03-2020 20:45:00 4.4 C 4.31 g/m*3 4.4 C 4.8 km/h
1115 21-03-2020 20:50:00 4.4 C 4.44 g/m*3 4.4 C 3.2 km/h
1116 21-03-2020 20:55:00 4.3 C 4.41 g/m*3 4.3 C 4.8 km/h
1117 21-03-2020 21:00:00 4.2 C 4.38 g/m*3 1.77 C 9.7 km/h
1118 21-03-2020 21:05:00 4.2 C 4.38 g/m*3 4.2 C 4.8 km/h
1119 21-03-2020 21:10:00 4.1 C 4.29 g/m*3 1.31 C 11.3 km/h
1120 21-03-2020 21:15:00 4.1 C 4.29 g/m*3 2.55 C 6.4 km/h
1121 21-03-2020 21:20:00 4.2 C 4.32 g/m*3 1.43 C 11.3 km/h
1122 21-03-2020 21:25:00 4.2 C 4.25 g/m*3 1.12 C 12.9 km/h
1123 21-03-2020 21:30:00 4.2 C 4.38 g/m*3 1.77 C 9.7 km/h
1124 21-03-2020 21:35:00 4.1 C 4.35 g/m*3 2.55 C 6.4 km/h
1125 21-03-2020 21:40:00 3.9 C 4.36 g/m*3 3.9 C 3.2 km/h
Sensor: Nr:Datum:Temp:Abs-Feuchte:Windchill:Wind:
Aussen-T/F 1126 21-03-2020 21:45:00 3.8 C 4.33 g/m*3 0.63 C 12.9 km/h
1127 21-03-2020 21:50:00 3.7 C 4.3 g/m*3 1.18 C 9.7 km/h
1128 21-03-2020 21:55:00 3.6 C 4.39 g/m*3 3.6 C 3.2 km/h
1129 21-03-2020 22:00:00 3.4 C 4.34 g/m*3 3.4 C 1.6 km/h
1130 21-03-2020 22:05:00 3.3 C 4.25 g/m*3 1.11 C 8.1 km/h
1131 21-03-2020 22:10:00 3.2 C 4.28 g/m*3 3.2 C 3.2 km/h
1132 21-03-2020 22:15:00 3.2 C 4.28 g/m*3 0.58 C 9.7 km/h
1133 21-03-2020 22:20:00 3.3 C 4.19 g/m*3 0.02 C 12.9 km/h
1134 21-03-2020 22:25:00 3.4 C 4.28 g/m*3 3.4 C 4.8 km/h
1135 21-03-2020 22:30:00 3.4 C 4.21 g/m*3 -0.14 C 14.5 km/h
1136 21-03-2020 22:35:00 3.4 C 4.28 g/m*3 3.4 C 4.8 km/h
1137 21-03-2020 22:40:00 3.3 C 4.25 g/m*3 0.34 C 11.3 km/h
1138 21-03-2020 22:45:00 3.3 C 4.25 g/m*3 0.34 C 11.3 km/h
1139 21-03-2020 22:50:00 3.3 C 4.25 g/m*3 0.7 C 9.7 km/h
1140 21-03-2020 22:55:00 3.2 C 4.22 g/m*3 3.2 C 3.2 km/h
1141 21-03-2020 23:00:00 3.2 C 4.22 g/m*3 1.51 C 6.4 km/h
1142 21-03-2020 23:05:00 3.1 C 4.31 g/m*3 3.1 C 3.2 km/h
1143 21-03-2020 23:10:00 2.9 C 4.13 g/m*3 2.9 C 4.8 km/h
1144 21-03-2020 23:15:00 2.9 C 4.25 g/m*3 2.9 C 3.2 km/h
1145 21-03-2020 23:20:00 2.7 C 4.14 g/m*3 2.7 C 3.2 km/h
1146 21-03-2020 23:25:00 2.7 C 4.14 g/m*3 0.4 C 8.1 km/h
1147 21-03-2020 23:30:00 2.7 C 4.25 g/m*3 0.4 C 8.1 km/h
1148 21-03-2020 23:35:00 2.7 C 4.14 g/m*3 -0.38 C 11.3 km/h
1149 21-03-2020 23:40:00 2.8 C 4.11 g/m*3 1.05 C 6.4 km/h
1150 21-03-2020 23:45:00 2.7 C 4.14 g/m*3 2.7 C 1.6 km/h
Sensor: Nr:Datum:Temp:Abs-Feuchte:Windchill:Wind:
Aussen-T/F 1151 21-03-2020 23:50:00 2.7 C 4.14 g/m*3 -1 C 14.5 km/h
1152 21-03-2020 23:55:00 2.6 C 4.17 g/m*3 2.6 C 3.2 km/h
1153 22-03-2020 00:00:00 2.6 C 4.17 g/m*3 0.29 C 8.1 km/h
1154 22-03-2020 00:05:00 2.4 C 4.17 g/m*3 2.4 C 4.8 km/h
1155 22-03-2020 00:10:00 2.4 C 4.11 g/m*3 0.59 C 6.4 km/h
1156 22-03-2020 00:15:00 2.4 C 4.17 g/m*3 2.4 C 3.2 km/h
1157 22-03-2020 00:20:00 2.2 C 4.17 g/m*3 2.2 C 1.6 km/h
1158 22-03-2020 00:25:00 2.1 C 4.14 g/m*3 2.1 C 1.6 km/h
1159 22-03-2020 00:30:00 1.9 C 4.19 g/m*3 1.9 C 3.2 km/h
1160 22-03-2020 00:35:00 1.9 C 4.14 g/m*3 -0.97 C 9.7 km/h
1161 22-03-2020 00:40:00 2 C 4.11 g/m*3 2 C 3.2 km/h
1162 22-03-2020 00:45:00 2.1 C 4.08 g/m*3 0.24 C 6.4 km/h
1163 22-03-2020 00:50:00 2 C 4.17 g/m*3 2 C 3.2 km/h
1164 22-03-2020 00:55:00 2.1 C 4.08 g/m*3 -2.01 C 16.1 km/h
1165 22-03-2020 01:00:00 2.3 C 4.03 g/m*3 -1.76 C 16.1 km/h
1166 22-03-2020 01:05:00 2.4 C 4 g/m*3 -0.37 C 9.7 km/h
1167 22-03-2020 01:10:00 2.5 C 4.08 g/m*3 0.71 C 6.4 km/h
1168 22-03-2020 01:15:00 2.5 C 4.14 g/m*3 -0.26 C 9.7 km/h
1169 22-03-2020 01:20:00 2.4 C 4.05 g/m*3 2.4 C 4.8 km/h
1170 22-03-2020 01:25:00 2.3 C 4.03 g/m*3 0.47 C 6.4 km/h
1171 22-03-2020 01:30:00 2.3 C 4.03 g/m*3 0.47 C 6.4 km/h
1172 22-03-2020 01:35:00 2.2 C 4.06 g/m*3 0.36 C 6.4 km/h
1173 22-03-2020 01:40:00 2.2 C 4.06 g/m*3 2.2 C 3.2 km/h
1174 22-03-2020 01:45:00 2.2 C 4 g/m*3 -0.18 C 8.1 km/h
1175 22-03-2020 01:50:00 2.1 C 4.03 g/m*3 2.1 C 3.2 km/h
Sensor: Nr:Datum:Temp:Abs-Feuchte:Windchill:Wind:
Aussen-T/F 1176 22-03-2020 01:55:00 2.2 C 3.94 g/m*3 -0.61 C 9.7 km/h
1177 22-03-2020 02:00:00 2.2 C 4 g/m*3 2.2 C 4.8 km/h
1178 22-03-2020 02:05:00 2.2 C 4.11 g/m*3 2.2 C 0 km/h
1179 22-03-2020 02:10:00 1.9 C 4.03 g/m*3 1.9 C 3.2 km/h
1180 22-03-2020 02:15:00 1.7 C 4.08 g/m*3 -0.77 C 8.1 km/h
1181 22-03-2020 02:20:00 1.5 C 3.97 g/m*3 -1.01 C 8.1 km/h
1182 22-03-2020 02:25:00 1.7 C 4.03 g/m*3 -0.22 C 6.4 km/h
1183 22-03-2020 02:30:00 1.6 C 4.06 g/m*3 1.6 C 4.8 km/h
1184 22-03-2020 02:35:00 1.7 C 4.03 g/m*3 -1.21 C 9.7 km/h
1185 22-03-2020 02:40:00 1.7 C 4.03 g/m*3 1.7 C 3.2 km/h
1186 22-03-2020 02:45:00 1.7 C 3.92 g/m*3 -1.21 C 9.7 km/h
1187 22-03-2020 02:50:00 1.7 C 3.97 g/m*3 -1.59 C 11.3 km/h
1188 22-03-2020 02:55:00 1.7 C 3.92 g/m*3 -0.77 C 8.1 km/h
1189 22-03-2020 03:00:00 1.7 C 4.03 g/m*3 1.7 C 3.2 km/h
1190 22-03-2020 03:05:00 1.5 C 3.97 g/m*3 1.5 C 4.8 km/h
1191 22-03-2020 03:10:00 1.4 C 3.89 g/m*3 -1.57 C 9.7 km/h
1192 22-03-2020 03:15:00 1.6 C 4.06 g/m*3 1.6 C 3.2 km/h
1193 22-03-2020 03:20:00 1.4 C 4 g/m*3 1.4 C 0 km/h
1194 22-03-2020 03:25:00 1.1 C 3.97 g/m*3 -0.91 C 6.4 km/h
1195 22-03-2020 03:30:00 1.1 C 3.97 g/m*3 -0.91 C 6.4 km/h
1196 22-03-2020 03:35:00 1 C 4 g/m*3 1 C 4.8 km/h
1197 22-03-2020 03:40:00 0.9 C 3.97 g/m*3 0.9 C 1.6 km/h
1198 22-03-2020 03:45:00 0.7 C 3.92 g/m*3 0.7 C 1.6 km/h
1199 22-03-2020 03:50:00 0.7 C 3.97 g/m*3 0.7 C 3.2 km/h
1200 22-03-2020 03:55:00 0.6 C 3.94 g/m*3 -1.49 C 6.4 km/h
Sensor: Nr:Datum:Temp:Abs-Feuchte:Windchill:Wind:
Aussen-T/F 1201 22-03-2020 04:00:00 0.7 C 3.97 g/m*3 0.7 C 1.6 km/h
1202 22-03-2020 04:05:00 0.8 C 3.94 g/m*3 -2.67 C 11.3 km/h
1203 22-03-2020 04:10:00 0.9 C 3.87 g/m*3 -1.71 C 8.1 km/h
1204 22-03-2020 04:15:00 1.1 C 3.97 g/m*3 -0.91 C 6.4 km/h
1205 22-03-2020 04:20:00 1.1 C 3.97 g/m*3 1.1 C 1.6 km/h
1206 22-03-2020 04:25:00 0.9 C 3.87 g/m*3 -2.16 C 9.7 km/h
1207 22-03-2020 04:30:00 1.3 C 3.97 g/m*3 -2.41 C 12.9 km/h
1208 22-03-2020 04:35:00 1.3 C 3.97 g/m*3 -0.68 C 6.4 km/h
1209 22-03-2020 04:40:00 1.2 C 3.84 g/m*3 -1.36 C 8.1 km/h
1210 22-03-2020 04:45:00 1.2 C 3.89 g/m*3 -1.36 C 8.1 km/h
1211 22-03-2020 04:50:00 1.1 C 3.92 g/m*3 -1.48 C 8.1 km/h
1212 22-03-2020 04:55:00 0.9 C 3.87 g/m*3 0.9 C 3.2 km/h
1213 22-03-2020 05:00:00 0.9 C 3.87 g/m*3 0.9 C 4.8 km/h
1214 22-03-2020 05:05:00 0.8 C 3.84 g/m*3 -1.83 C 8.1 km/h
1215 22-03-2020 05:10:00 0.8 C 3.89 g/m*3 -2.28 C 9.7 km/h
1216 22-03-2020 05:15:00 0.8 C 3.89 g/m*3 0.8 C 3.2 km/h
1217 22-03-2020 05:20:00 0.8 C 3.89 g/m*3 -1.26 C 6.4 km/h
1218 22-03-2020 05:25:00 0.8 C 3.84 g/m*3 0.8 C 3.2 km/h
1219 22-03-2020 05:30:00 0.8 C 3.84 g/m*3 0.8 C 4.8 km/h
1220 22-03-2020 05:35:00 0.7 C 3.86 g/m*3 0.7 C 3.2 km/h
1221 22-03-2020 05:40:00 0.6 C 3.84 g/m*3 0.6 C 3.2 km/h
1222 22-03-2020 05:45:00 0.6 C 3.84 g/m*3 -2.52 C 9.7 km/h
1223 22-03-2020 05:50:00 0.4 C 3.84 g/m*3 0.4 C 1.6 km/h
1224 22-03-2020 05:55:00 0.3 C 3.81 g/m*3 0.3 C 3.2 km/h
1225 22-03-2020 06:00:00 0.2 C 3.83 g/m*3 0.2 C 1.6 km/h
Sensor: Nr:Datum:Temp:Abs-Feuchte:Windchill:Wind:
Aussen-T/F 1226 22-03-2020 06:05:00 0 C 3.78 g/m*3 0 C 4.8 km/h
1227 22-03-2020 06:10:00 0.1 C 3.81 g/m*3 0.1 C 3.2 km/h
1228 22-03-2020 06:15:00 0.1 C 3.81 g/m*3 0.1 C 3.2 km/h
1229 22-03-2020 06:20:00 0.2 C 3.78 g/m*3 -4.64 C 17.7 km/h
1230 22-03-2020 06:25:00 0.6 C 3.74 g/m*3 -4.14 C 17.7 km/h
1231 22-03-2020 06:30:00 0.8 C 3.84 g/m*3 0.8 C 4.8 km/h
1232 22-03-2020 06:35:00 0.7 C 3.81 g/m*3 0.7 C 1.6 km/h
1233 22-03-2020 06:40:00 0.6 C 3.79 g/m*3 0.6 C 3.2 km/h
1234 22-03-2020 06:45:00 0.7 C 3.76 g/m*3 -2.8 C 11.3 km/h
1235 22-03-2020 06:50:00 0.7 C 3.71 g/m*3 0.7 C 4.8 km/h
1236 22-03-2020 06:55:00 0.8 C 3.74 g/m*3 0.8 C 1.6 km/h
1237 22-03-2020 07:00:00 0.8 C 3.79 g/m*3 0.8 C 4.8 km/h
1238 22-03-2020 07:05:00 0.8 C 3.74 g/m*3 -1.83 C 8.1 km/h
1239 22-03-2020 07:10:00 0.8 C 3.74 g/m*3 -1.83 C 8.1 km/h
1240 22-03-2020 07:15:00 0.8 C 3.79 g/m*3 -1.83 C 8.1 km/h
1241 22-03-2020 07:20:00 0.8 C 3.79 g/m*3 0.8 C 3.2 km/h
1242 22-03-2020 07:25:00 0.8 C 3.74 g/m*3 0.8 C 4.8 km/h
1243 22-03-2020 07:30:00 0.8 C 3.69 g/m*3 -1.83 C 8.1 km/h
1244 22-03-2020 07:35:00 0.8 C 3.79 g/m*3 0.8 C 3.2 km/h
1245 22-03-2020 07:40:00 0.8 C 3.74 g/m*3 0.8 C 4.8 km/h
1246 22-03-2020 07:45:00 0.9 C 3.66 g/m*3 -2.16 C 9.7 km/h
1247 22-03-2020 07:50:00 1.1 C 3.76 g/m*3 -0.91 C 6.4 km/h
1248 22-03-2020 07:55:00 1.1 C 3.76 g/m*3 1.1 C 3.2 km/h
1249 22-03-2020 08:00:00 1.1 C 3.71 g/m*3 -2.97 C 14.5 km/h
1250 22-03-2020 08:05:00 1.2 C 3.74 g/m*3 -2.19 C 11.3 km/h
Sensor: Nr:Datum:Temp:Abs-Feuchte:Windchill:Wind:
Aussen-T/F 1251 22-03-2020 08:10:00 1.3 C 3.76 g/m*3 -1.24 C 8.1 km/h
1252 22-03-2020 08:15:00 1.3 C 3.76 g/m*3 -3.73 C 20.9 km/h
1253 22-03-2020 08:20:00 1.4 C 3.68 g/m*3 -2.6 C 14.5 km/h
1254 22-03-2020 08:25:00 1.5 C 3.76 g/m*3 -1.01 C 8.1 km/h
1255 22-03-2020 08:30:00 1.6 C 3.68 g/m*3 -1.33 C 9.7 km/h
1256 22-03-2020 08:35:00 1.6 C 3.68 g/m*3 -0.89 C 8.1 km/h
1257 22-03-2020 08:40:00 1.7 C 3.65 g/m*3 1.7 C 4.8 km/h
1258 22-03-2020 08:45:00 1.8 C 3.73 g/m*3 1.8 C 3.2 km/h
1259 22-03-2020 08:50:00 1.7 C 3.7 g/m*3 1.7 C 1.6 km/h
1260 22-03-2020 08:55:00 1.7 C 3.65 g/m*3 -0.22 C 6.4 km/h
1261 22-03-2020 09:00:00 1.8 C 3.67 g/m*3 1.8 C 4.8 km/h
1262 22-03-2020 09:05:00 1.8 C 3.73 g/m*3 -1.09 C 9.7 km/h
1263 22-03-2020 09:10:00 2.1 C 3.58 g/m*3 -0.73 C 9.7 km/h
1264 22-03-2020 09:15:00 2.3 C 3.69 g/m*3 -1.76 C 16.1 km/h
1265 22-03-2020 09:20:00 2.6 C 3.59 g/m*3 -1.39 C 16.1 km/h
1266 22-03-2020 09:25:00 2.7 C 3.55 g/m*3 -1 C 14.5 km/h
1267 22-03-2020 09:30:00 2.8 C 3.58 g/m*3 -0.26 C 11.3 km/h
1268 22-03-2020 09:35:00 2.8 C 3.7 g/m*3 -0.26 C 11.3 km/h
1269 22-03-2020 09:40:00 2.9 C 3.66 g/m*3 -0.14 C 11.3 km/h
1270 22-03-2020 09:45:00 3.2 C 3.56 g/m*3 -0.1 C 12.9 km/h
1271 22-03-2020 09:50:00 3.4 C 3.54 g/m*3 -0.4 C 16.1 km/h
1272 22-03-2020 09:55:00 3.6 C 3.59 g/m*3 1.06 C 9.7 km/h
1273 22-03-2020 10:00:00 3.8 C 3.51 g/m*3 1.29 C 9.7 km/h
1274 22-03-2020 10:05:00 3.9 C 3.54 g/m*3 1.41 C 9.7 km/h
1275 22-03-2020 10:10:00 4.1 C 3.58 g/m*3 1 C 12.9 km/h
Sensor: Nr:Datum:Temp:Abs-Feuchte:Windchill:Wind:
Aussen-T/F 1276 22-03-2020 10:15:00 4.3 C 3.57 g/m*3 1.55 C 11.3 km/h
1277 22-03-2020 10:20:00 4.4 C 3.26 g/m*3 -0.16 C 24.1 km/h
1278 22-03-2020 10:25:00 4.6 C 3.31 g/m*3 0.1 C 24.1 km/h
1279 22-03-2020 10:30:00 4.7 C 3.33 g/m*3 0.99 C 17.7 km/h
1280 22-03-2020 10:35:00 4.8 C 3.22 g/m*3 1.85 C 12.9 km/h
1281 22-03-2020 10:40:00 4.9 C 3.24 g/m*3 1.46 C 16.1 km/h
1282 22-03-2020 10:45:00 5.1 C 3.15 g/m*3 2.22 C 12.9 km/h
1283 22-03-2020 10:50:00 5.2 C 3.24 g/m*3 2.34 C 12.9 km/h
1284 22-03-2020 10:55:00 5.3 C 3.12 g/m*3 3.46 C 8.1 km/h
1285 22-03-2020 11:00:00 5.4 C 3.07 g/m*3 1.86 C 17.7 km/h
1286 22-03-2020 11:05:00 5.6 C 2.97 g/m*3 2.57 C 14.5 km/h
1287 22-03-2020 11:10:00 5.7 C 3.2 g/m*3 2.45 C 16.1 km/h
1288 22-03-2020 11:15:00 5.9 C 3.03 g/m*3 2.7 C 16.1 km/h
1289 22-03-2020 11:20:00 6.1 C 2.85 g/m*3 4.04 C 9.7 km/h
1290 22-03-2020 11:25:00 6.3 C 2.89 g/m*3 2.12 C 25.7 km/h
1291 22-03-2020 11:30:00 6.4 C 2.76 g/m*3 3.11 C 17.7 km/h
1292 22-03-2020 11:35:00 6.5 C 3 g/m*3 2.69 C 22.5 km/h
1293 22-03-2020 11:40:00 6.6 C 2.79 g/m*3 2.22 C 29 km/h
1294 22-03-2020 11:45:00 6.6 C 2.79 g/m*3 3.57 C 16.1 km/h
1295 22-03-2020 11:50:00 6.7 C 2.89 g/m*3 5.11 C 8.1 km/h
1296 22-03-2020 11:55:00 6.8 C 2.75 g/m*3 2.76 C 25.7 km/h
1297 22-03-2020 12:00:00 6.9 C 2.85 g/m*3 3.73 C 17.7 km/h
1298 22-03-2020 12:05:00 7.1 C 2.81 g/m*3 3.98 C 17.7 km/h
1299 22-03-2020 12:10:00 7.2 C 2.98 g/m*3 3.58 C 22.5 km/h
1300 22-03-2020 12:15:00 7.3 C 2.77 g/m*3 4.66 C 14.5 km/h
Sensor: Nr:Datum:Temp:Abs-Feuchte:Windchill:Wind:
Aussen-T/F 1301 22-03-2020 12:20:00 7.4 C 2.78 g/m*3 3.39 C 27.4 km/h
1302 22-03-2020 12:25:00 7.4 C 2.86 g/m*3 4.56 C 16.1 km/h
1303 22-03-2020 12:30:00 7.5 C 2.8 g/m*3 5.41 C 11.3 km/h
1304 22-03-2020 12:35:00 7.6 C 2.74 g/m*3 4.61 C 17.7 km/h
1305 22-03-2020 12:40:00 7.7 C 2.76 g/m*3 4.07 C 24.1 km/h
1306 22-03-2020 12:45:00 7.8 C 2.86 g/m*3 4.2 C 24.1 km/h
1307 22-03-2020 12:50:00 7.9 C 2.87 g/m*3 4.63 C 20.9 km/h
1308 22-03-2020 12:55:00 8.1 C 3 g/m*3 5.64 C 14.5 km/h
1309 22-03-2020 13:00:00 8.3 C 3.03 g/m*3 5.89 C 14.5 km/h
1310 22-03-2020 13:05:00 8.5 C 2.9 g/m*3 4.95 C 25.7 km/h
1311 22-03-2020 13:10:00 8.5 C 2.82 g/m*3 5.56 C 19.3 km/h
1312 22-03-2020 13:15:00 8.6 C 2.92 g/m*3 6.05 C 16.1 km/h
1313 22-03-2020 13:20:00 8.7 C 2.94 g/m*3 4.84 C 30.6 km/h
1314 22-03-2020 13:25:00 8.8 C 3.31 g/m*3 6.11 C 17.7 km/h
1315 22-03-2020 13:30:00 9 C 3 g/m*3 5.87 C 22.5 km/h
1316 22-03-2020 13:35:00 8.9 C 2.89 g/m*3 5.9 C 20.9 km/h
1317 22-03-2020 13:40:00 9.1 C 3.02 g/m*3 6.67 C 16.1 km/h
1318 22-03-2020 13:45:00 9.2 C 2.95 g/m*3 5.99 C 24.1 km/h
1319 22-03-2020 13:50:00 9.4 C 2.98 g/m*3 6.38 C 22.5 km/h
1320 22-03-2020 13:55:00 9.2 C 2.95 g/m*3 6.61 C 17.7 km/h
1321 22-03-2020 14:00:00 9.2 C 2.95 g/m*3 7.21 C 12.9 km/h
1322 22-03-2020 14:05:00 9.2 C 3.04 g/m*3 7.21 C 12.9 km/h
1323 22-03-2020 14:10:00 9.3 C 3.06 g/m*3 6.92 C 16.1 km/h
1324 22-03-2020 14:15:00 9.3 C 3.06 g/m*3 6.92 C 16.1 km/h
1325 22-03-2020 14:20:00 9.3 C 2.97 g/m*3 6.56 C 19.3 km/h
Sensor: Nr:Datum:Temp:Abs-Feuchte:Windchill:Wind:
Aussen-T/F 1326 22-03-2020 14:25:00 9.3 C 2.97 g/m*3 7.12 C 14.5 km/h
1327 22-03-2020 14:30:00 9.4 C 3.08 g/m*3 7.04 C 16.1 km/h
1328 22-03-2020 14:35:00 9.5 C 3.09 g/m*3 7.36 C 14.5 km/h
1329 22-03-2020 14:40:00 9.6 C 3.3 g/m*3 7.29 C 16.1 km/h
1330 22-03-2020 14:45:00 9.6 C 3.11 g/m*3 6.94 C 19.3 km/h
1331 22-03-2020 14:50:00 9.6 C 3.11 g/m*3 6.94 C 19.3 km/h
1332 22-03-2020 14:55:00 9.7 C 3.13 g/m*3 7.41 C 16.1 km/h
1333 22-03-2020 15:00:00 9.7 C 3.23 g/m*3 8.06 C 11.3 km/h
1334 22-03-2020 15:05:00 9.9 C 3.08 g/m*3 7.66 C 16.1 km/h
1335 22-03-2020 15:10:00 9.9 C 3.27 g/m*3 8.56 C 9.7 km/h
1336 22-03-2020 15:15:00 10 C 3.19 g/m*3 8.19 C 12.9 km/h
1337 22-03-2020 15:20:00 10.1 C 3.22 g/m*3 8.54 C 11.3 km/h
1338 22-03-2020 15:25:00 10.1 C 3.22 g/m*3 9.1 C 8.1 km/h
1339 22-03-2020 15:30:00 10.2 C 3.14 g/m*3 7.86 C 17.7 km/h
1340 22-03-2020 15:35:00 10.2 C 3.14 g/m*3 8.03 C 16.1 km/h
1341 22-03-2020 15:40:00 10.3 C 3.06 g/m*3 8.16 C 16.1 km/h
1342 22-03-2020 15:45:00 10.4 C 3.28 g/m*3 7.95 C 19.3 km/h
1343 22-03-2020 15:50:00 10.5 C 3.2 g/m*3 8.4 C 16.1 km/h
1344 22-03-2020 15:55:00 10.4 C 3.08 g/m*3 8.47 C 14.5 km/h
1345 22-03-2020 16:00:00 10.6 C 3.22 g/m*3 9.14 C 11.3 km/h
1346 22-03-2020 16:05:00 10.7 C 3.14 g/m*3 8.48 C 17.7 km/h
1347 22-03-2020 16:10:00 10.7 C 3.04 g/m*3 9.04 C 12.9 km/h
1348 22-03-2020 16:15:00 10.8 C 3.26 g/m*3 9.38 C 11.3 km/h
1349 22-03-2020 16:20:00 10.9 C 3.28 g/m*3 9.08 C 14.5 km/h
1350 22-03-2020 16:25:00 11 C 3.2 g/m*3 9.63 C 11.3 km/h
Sensor: Nr:Datum:Temp:Abs-Feuchte:Windchill:Wind:
Aussen-T/F 1351 22-03-2020 16:30:00 11.1 C 3.32 g/m*3 11.1 C 17.7 km/h
1352 22-03-2020 16:35:00 11.2 C 3.24 g/m*3 11.2 C 14.5 km/h
1353 22-03-2020 16:40:00 11.2 C 3.45 g/m*3 11.2 C 14.5 km/h
1354 22-03-2020 16:45:00 11.3 C 3.37 g/m*3 11.3 C 14.5 km/h
1355 22-03-2020 16:50:00 11.3 C 3.26 g/m*3 11.3 C 9.7 km/h
1356 22-03-2020 16:55:00 11.3 C 3.37 g/m*3 11.3 C 8.1 km/h
1357 22-03-2020 17:00:00 11.3 C 3.57 g/m*3 11.3 C 14.5 km/h
1358 22-03-2020 17:05:00 11 C 3.6 g/m*3 8.56 C 20.9 km/h
1359 22-03-2020 17:10:00 10.8 C 3.56 g/m*3 8.78 C 16.1 km/h
1360 22-03-2020 17:15:00 10.4 C 3.47 g/m*3 7.95 C 19.3 km/h
1361 22-03-2020 17:20:00 10.6 C 3.71 g/m*3 9.69 C 8.1 km/h
1362 22-03-2020 17:25:00 10.7 C 3.73 g/m*3 9.52 C 9.7 km/h
1363 22-03-2020 17:30:00 10.8 C 3.76 g/m*3 9.93 C 8.1 km/h
1364 22-03-2020 17:35:00 10.7 C 3.73 g/m*3 8.32 C 19.3 km/h
1365 22-03-2020 17:40:00 10.4 C 3.86 g/m*3 9.16 C 9.7 km/h
1366 22-03-2020 17:45:00 10.4 C 3.86 g/m*3 9.46 C 8.1 km/h
1367 22-03-2020 17:50:00 10.2 C 3.9 g/m*3 8.66 C 11.3 km/h
1368 22-03-2020 17:55:00 9.9 C 3.73 g/m*3 8.06 C 12.9 km/h
1369 22-03-2020 18:00:00 9.7 C 3.78 g/m*3 7.07 C 19.3 km/h
1370 22-03-2020 18:05:00 9.7 C 3.96 g/m*3 8.06 C 11.3 km/h
1371 22-03-2020 18:10:00 9.7 C 3.87 g/m*3 9.02 C 6.4 km/h
1372 22-03-2020 18:15:00 9.6 C 3.85 g/m*3 8.52 C 8.1 km/h
1373 22-03-2020 18:20:00 9.4 C 3.89 g/m*3 8.28 C 8.1 km/h
1374 22-03-2020 18:25:00 9.2 C 3.93 g/m*3 8.05 C 8.1 km/h
1375 22-03-2020 18:30:00 8.9 C 3.77 g/m*3 7.09 C 11.3 km/h
Sensor: Nr:Datum:Temp:Abs-Feuchte:Windchill:Wind:
Aussen-T/F 1376 22-03-2020 18:35:00 8.6 C 3.78 g/m*3 5.37 C 22.5 km/h
1377 22-03-2020 18:40:00 8.2 C 3.77 g/m*3 6.25 C 11.3 km/h
1378 22-03-2020 18:45:00 7.9 C 3.78 g/m*3 7.9 C 4.8 km/h
1379 22-03-2020 18:50:00 7.6 C 3.87 g/m*3 7.6 C 3.2 km/h
1380 22-03-2020 18:55:00 7.3 C 4.03 g/m*3 5.81 C 8.1 km/h
1381 22-03-2020 19:00:00 6.9 C 3.93 g/m*3 6.9 C 4.8 km/h
1382 22-03-2020 19:05:00 6.6 C 3.93 g/m*3 6.6 C 3.2 km/h
1383 22-03-2020 19:10:00 6.4 C 4.17 g/m*3 6.4 C 4.8 km/h
1384 22-03-2020 19:15:00 6.1 C 3.73 g/m*3 4.4 C 8.1 km/h
1385 22-03-2020 19:20:00 6.1 C 3.95 g/m*3 6.1 C 3.2 km/h
1386 22-03-2020 19:25:00 5.9 C 3.97 g/m*3 5.9 C 3.2 km/h
1387 22-03-2020 19:30:00 5.7 C 4.27 g/m*3 5.7 C 3.2 km/h
1388 22-03-2020 19:35:00 5.2 C 4.2 g/m*3 5.2 C 3.2 km/h
1389 22-03-2020 19:40:00 4.9 C 4.19 g/m*3 4.9 C 1.6 km/h
1390 22-03-2020 19:45:00 4.7 C 4.06 g/m*3 3.25 C 6.4 km/h
1391 22-03-2020 19:50:00 4.6 C 4.04 g/m*3 4.6 C 3.2 km/h
1392 22-03-2020 19:55:00 4.4 C 4.18 g/m*3 4.4 C 0 km/h
1393 22-03-2020 20:00:00 4.3 C 4.02 g/m*3 0.97 C 14.5 km/h
1394 22-03-2020 20:05:00 4.3 C 4.15 g/m*3 2.78 C 6.4 km/h
1395 22-03-2020 20:10:00 4.2 C 4.06 g/m*3 4.2 C 1.6 km/h
1396 22-03-2020 20:15:00 4.1 C 4.1 g/m*3 4.1 C 0 km/h
1397 22-03-2020 20:20:00 3.9 C 3.79 g/m*3 1.06 C 11.3 km/h
1398 22-03-2020 20:25:00 4 C 4.07 g/m*3 4 C 3.2 km/h
1399 22-03-2020 20:30:00 4 C 3.94 g/m*3 4 C 4.8 km/h
1400 22-03-2020 20:35:00 3.9 C 3.92 g/m*3 3.9 C 4.8 km/h
Sensor: Nr:Datum:Temp:Abs-Feuchte:Windchill:Wind:
Aussen-T/F 1401 22-03-2020 20:40:00 3.8 C 3.89 g/m*3 2.21 C 6.4 km/h
1402 22-03-2020 20:45:00 3.7 C 4.11 g/m*3 3.7 C 1.6 km/h
1403 22-03-2020 20:50:00 3.4 C 4.09 g/m*3 3.4 C 1.6 km/h
1404 22-03-2020 20:55:00 3.2 C 4.04 g/m*3 3.2 C 1.6 km/h
1405 22-03-2020 21:00:00 3.1 C 3.77 g/m*3 3.1 C 3.2 km/h
1406 22-03-2020 21:05:00 3.2 C 3.74 g/m*3 3.2 C 1.6 km/h
1407 22-03-2020 21:10:00 3.2 C 3.92 g/m*3 3.2 C 3.2 km/h
1408 22-03-2020 21:15:00 3.2 C 3.86 g/m*3 3.2 C 3.2 km/h
1409 22-03-2020 21:20:00 3.1 C 3.95 g/m*3 3.1 C 3.2 km/h
1410 22-03-2020 21:25:00 2.9 C 3.9 g/m*3 2.9 C 3.2 km/h
1411 22-03-2020 21:30:00 2.9 C 3.84 g/m*3 2.9 C 4.8 km/h
1412 22-03-2020 21:35:00 2.8 C 3.81 g/m*3 2.8 C 4.8 km/h
1413 22-03-2020 21:40:00 2.8 C 3.81 g/m*3 2.8 C 4.8 km/h
1414 22-03-2020 21:45:00 2.6 C 3.88 g/m*3 2.6 C 4.8 km/h
1415 22-03-2020 21:50:00 2.4 C 3.88 g/m*3 2.4 C 4.8 km/h
1416 22-03-2020 21:55:00 2.5 C 3.68 g/m*3 0.17 C 8.1 km/h
1417 22-03-2020 22:00:00 2.7 C 3.85 g/m*3 2.7 C 3.2 km/h
1418 22-03-2020 22:05:00 2.6 C 3.65 g/m*3 2.6 C 3.2 km/h
1419 22-03-2020 22:10:00 2.7 C 3.67 g/m*3 -0.38 C 11.3 km/h
1420 22-03-2020 22:15:00 3.1 C 3.65 g/m*3 0.46 C 9.7 km/h
1421 22-03-2020 22:20:00 3.1 C 3.77 g/m*3 3.1 C 4.8 km/h
1422 22-03-2020 22:25:00 2.8 C 3.81 g/m*3 2.8 C 3.2 km/h
1423 22-03-2020 22:30:00 2.6 C 3.88 g/m*3 2.6 C 4.8 km/h
1424 22-03-2020 22:35:00 2.3 C 3.69 g/m*3 2.3 C 3.2 km/h
1425 22-03-2020 22:40:00 2.2 C 3.77 g/m*3 0.36 C 6.4 km/h
Sensor: Nr:Datum:Temp:Abs-Feuchte:Windchill:Wind:
Aussen-T/F 1426 22-03-2020 22:45:00 2.2 C 3.77 g/m*3 2.2 C 3.2 km/h
1427 22-03-2020 22:50:00 2.1 C 3.75 g/m*3 2.1 C 1.6 km/h
1428 22-03-2020 22:55:00 1.9 C 3.81 g/m*3 1.9 C 1.6 km/h
1429 22-03-2020 23:00:00 1.8 C 3.73 g/m*3 1.8 C 4.8 km/h
1430 22-03-2020 23:05:00 1.7 C 3.81 g/m*3 1.7 C 3.2 km/h
1431 22-03-2020 23:10:00 1.7 C 3.7 g/m*3 -1.21 C 9.7 km/h
1432 22-03-2020 23:15:00 1.7 C 3.65 g/m*3 1.7 C 3.2 km/h
1433 22-03-2020 23:20:00 1.6 C 3.73 g/m*3 1.6 C 3.2 km/h
1434 22-03-2020 23:25:00 1.4 C 3.68 g/m*3 1.4 C 4.8 km/h
1435 22-03-2020 23:30:00 1.3 C 3.71 g/m*3 1.3 C 4.8 km/h
1436 22-03-2020 23:35:00 1.2 C 3.74 g/m*3 1.2 C 3.2 km/h
1437 22-03-2020 23:40:00 1.1 C 3.76 g/m*3 1.1 C 1.6 km/h
1438 22-03-2020 23:45:00 0.9 C 3.71 g/m*3 0.9 C 4.8 km/h
1439 22-03-2020 23:50:00 1.1 C 3.66 g/m*3 -1.48 C 8.1 km/h
1440 22-03-2020 23:55:00 1.1 C 3.71 g/m*3 1.1 C 3.2 km/h
1441 23-03-2020 00:00:00 1 C 3.69 g/m*3 1 C 1.6 km/h
1442 23-03-2020 00:05:00 0.9 C 3.66 g/m*3 -1.14 C 6.4 km/h
1443 23-03-2020 00:10:00 0.8 C 3.63 g/m*3 0.8 C 3.2 km/h
1444 23-03-2020 00:15:00 0.8 C 3.69 g/m*3 0.8 C 1.6 km/h
1445 23-03-2020 00:20:00 0.7 C 3.66 g/m*3 0.7 C 1.6 km/h
1446 23-03-2020 00:25:00 0.5 C 3.66 g/m*3 0.5 C 0 km/h
1447 23-03-2020 00:30:00 0.3 C 3.66 g/m*3 0.3 C 0 km/h
1448 23-03-2020 00:35:00 0.2 C 3.64 g/m*3 0.2 C 1.6 km/h
1449 23-03-2020 00:40:00 0.1 C 3.66 g/m*3 0.1 C 3.2 km/h
1450 23-03-2020 00:45:00 0 C 3.63 g/m*3 0 C 1.6 km/h
Sensor: Nr:Datum:Temp:Abs-Feuchte:Windchill:Wind:
Aussen-T/F 1451 23-03-2020 00:50:00 -0.1 C 3.66 g/m*3 -0.1 C 1.6 km/h
1452 23-03-2020 00:55:00 -0.1 C 3.66 g/m*3 -0.1 C 4.8 km/h
1453 23-03-2020 01:00:00 -0.2 C 3.63 g/m*3 -0.2 C 3.2 km/h
1454 23-03-2020 01:05:00 -0.2 C 3.58 g/m*3 -0.2 C 3.2 km/h
1455 23-03-2020 01:10:00 -0.2 C 3.58 g/m*3 -0.2 C 3.2 km/h
1456 23-03-2020 01:15:00 -0.2 C 3.58 g/m*3 -0.2 C 4.8 km/h
1457 23-03-2020 01:20:00 -0.3 C 3.61 g/m*3 -0.3 C 3.2 km/h
1458 23-03-2020 01:25:00 -0.3 C 3.56 g/m*3 -0.3 C 0 km/h
1459 23-03-2020 01:30:00 -0.3 C 3.61 g/m*3 -0.3 C 3.2 km/h
1460 23-03-2020 01:35:00 -0.3 C 3.61 g/m*3 -0.3 C 3.2 km/h
1461 23-03-2020 01:40:00 -0.4 C 3.58 g/m*3 -0.4 C 3.2 km/h
1462 23-03-2020 01:45:00 -0.4 C 3.58 g/m*3 -0.4 C 4.8 km/h
1463 23-03-2020 01:50:00 -0.5 C 3.51 g/m*3 -0.5 C 4.8 km/h
1464 23-03-2020 01:55:00 -0.5 C 3.56 g/m*3 -0.5 C 0 km/h
1465 23-03-2020 02:00:00 -0.6 C 3.53 g/m*3 -0.6 C 4.8 km/h
1466 23-03-2020 02:05:00 -0.6 C 3.53 g/m*3 -0.6 C 4.8 km/h
1467 23-03-2020 02:10:00 -0.6 C 3.53 g/m*3 -0.6 C 3.2 km/h
1468 23-03-2020 02:15:00 -0.7 C 3.51 g/m*3 -0.7 C 4.8 km/h
1469 23-03-2020 02:20:00 -0.7 C 3.46 g/m*3 -0.7 C 4.8 km/h
1470 23-03-2020 02:25:00 -0.7 C 3.46 g/m*3 -0.7 C 4.8 km/h
1471 23-03-2020 02:30:00 -0.7 C 3.46 g/m*3 -0.7 C 4.8 km/h
1472 23-03-2020 02:35:00 -0.7 C 3.42 g/m*3 -0.7 C 1.6 km/h
1473 23-03-2020 02:40:00 -0.7 C 3.51 g/m*3 -0.7 C 3.2 km/h
1474 23-03-2020 02:45:00 -0.7 C 3.51 g/m*3 -0.7 C 3.2 km/h
1475 23-03-2020 02:50:00 -0.8 C 3.44 g/m*3 -0.8 C 4.8 km/h
Sensor: Nr:Datum:Temp:Abs-Feuchte:Windchill:Wind:
Aussen-T/F 1476 23-03-2020 02:55:00 -0.8 C 3.44 g/m*3 -0.8 C 3.2 km/h
1477 23-03-2020 03:00:00 -0.9 C 3.37 g/m*3 -0.9 C 1.6 km/h
1478 23-03-2020 03:05:00 -0.9 C 3.41 g/m*3 -0.9 C 4.8 km/h
1479 23-03-2020 03:10:00 -0.9 C 3.41 g/m*3 -0.9 C 3.2 km/h
1480 23-03-2020 03:15:00 -0.9 C 3.46 g/m*3 -0.9 C 4.8 km/h
1481 23-03-2020 03:20:00 -1 C 3.44 g/m*3 -1 C 4.8 km/h
1482 23-03-2020 03:25:00 -1 C 3.44 g/m*3 -1 C 3.2 km/h
1483 23-03-2020 03:30:00 -1.1 C 3.37 g/m*3 -1.1 C 1.6 km/h
1484 23-03-2020 03:35:00 -1.1 C 3.37 g/m*3 -3.45 C 6.4 km/h
1485 23-03-2020 03:40:00 -1.1 C 3.37 g/m*3 -1.1 C 1.6 km/h
1486 23-03-2020 03:45:00 -1.1 C 3.41 g/m*3 -1.1 C 4.8 km/h
1487 23-03-2020 03:50:00 -1.2 C 3.39 g/m*3 -1.2 C 4.8 km/h
1488 23-03-2020 03:55:00 -1.3 C 3.36 g/m*3 -1.3 C 4.8 km/h
1489 23-03-2020 04:00:00 -1.3 C 3.32 g/m*3 -1.3 C 4.8 km/h
1490 23-03-2020 04:05:00 -1.3 C 3.36 g/m*3 -1.3 C 3.2 km/h
1491 23-03-2020 04:10:00 -1.3 C 3.36 g/m*3 -1.3 C 4.8 km/h
1492 23-03-2020 04:15:00 -1.4 C 3.34 g/m*3 -1.4 C 3.2 km/h
1493 23-03-2020 04:20:00 -1.4 C 3.34 g/m*3 -1.4 C 1.6 km/h
1494 23-03-2020 04:25:00 -1.5 C 3.32 g/m*3 -3.91 C 6.4 km/h
1495 23-03-2020 04:30:00 -1.5 C 3.32 g/m*3 -1.5 C 4.8 km/h
1496 23-03-2020 04:35:00 -1.6 C 3.34 g/m*3 -1.6 C 3.2 km/h
1497 23-03-2020 04:40:00 -1.7 C 3.27 g/m*3 -1.7 C 3.2 km/h
1498 23-03-2020 04:45:00 -1.7 C 3.31 g/m*3 -1.7 C 1.6 km/h
1499 23-03-2020 04:50:00 -1.7 C 3.36 g/m*3 -1.7 C 3.2 km/h
1500 23-03-2020 04:55:00 -1.8 C 3.33 g/m*3 -1.8 C 0 km/h
Sensor: Nr:Datum:Temp:Abs-Feuchte:Windchill:Wind:
Aussen-T/F 1501 23-03-2020 05:00:00 -1.8 C 3.29 g/m*3 -1.8 C 3.2 km/h
1502 23-03-2020 05:05:00 -1.8 C 3.33 g/m*3 -1.8 C 1.6 km/h
1503 23-03-2020 05:10:00 -1.9 C 3.31 g/m*3 -1.9 C 1.6 km/h
1504 23-03-2020 05:15:00 -1.9 C 3.31 g/m*3 -1.9 C 0 km/h
1505 23-03-2020 05:20:00 -2 C 3.29 g/m*3 -2 C 0 km/h
1506 23-03-2020 05:25:00 -2 C 3.29 g/m*3 -2 C 3.2 km/h
1507 23-03-2020 05:30:00 -2.1 C 3.26 g/m*3 -2.1 C 4.8 km/h
1508 23-03-2020 05:35:00 -2.1 C 3.26 g/m*3 -2.1 C 4.8 km/h
1509 23-03-2020 05:40:00 -2.1 C 3.26 g/m*3 -2.1 C 4.8 km/h
1510 23-03-2020 05:45:00 -2.1 C 3.26 g/m*3 -2.1 C 3.2 km/h
1511 23-03-2020 05:50:00 -2.1 C 3.31 g/m*3 -2.1 C 3.2 km/h
1512 23-03-2020 05:55:00 -2.1 C 3.31 g/m*3 -2.1 C 1.6 km/h
1513 23-03-2020 06:00:00 -2.2 C 3.28 g/m*3 -2.2 C 4.8 km/h
1514 23-03-2020 06:05:00 -2.2 C 3.28 g/m*3 -2.2 C 3.2 km/h
1515 23-03-2020 06:10:00 -2.3 C 3.26 g/m*3 -2.3 C 3.2 km/h
1516 23-03-2020 06:15:00 -2.3 C 3.26 g/m*3 -2.3 C 1.6 km/h
1517 23-03-2020 06:20:00 -2.3 C 3.26 g/m*3 -2.3 C 3.2 km/h
1518 23-03-2020 06:25:00 -2.3 C 3.26 g/m*3 -2.3 C 3.2 km/h
1519 23-03-2020 06:30:00 -2.4 C 3.24 g/m*3 -2.4 C 3.2 km/h
1520 23-03-2020 06:35:00 -2.4 C 3.24 g/m*3 -2.4 C 4.8 km/h
1521 23-03-2020 06:40:00 -2.4 C 3.24 g/m*3 -2.4 C 0 km/h
1522 23-03-2020 06:45:00 -2.4 C 3.24 g/m*3 -2.4 C 0 km/h
1523 23-03-2020 06:50:00 -2.4 C 3.24 g/m*3 -2.4 C 3.2 km/h
1524 23-03-2020 06:55:00 -2.4 C 3.28 g/m*3 -2.4 C 1.6 km/h
1525 23-03-2020 07:00:00 -2.3 C 3.3 g/m*3 -2.3 C 4.8 km/h
Sensor: Nr:Datum:Temp:Abs-Feuchte:Windchill:Wind:
Aussen-T/F 1526 23-03-2020 07:05:00 -2.3 C 3.3 g/m*3 -2.3 C 3.2 km/h
1527 23-03-2020 07:10:00 -2.3 C 3.3 g/m*3 -2.3 C 3.2 km/h
1528 23-03-2020 07:15:00 -2.3 C 3.3 g/m*3 -2.3 C 4.8 km/h
1529 23-03-2020 07:20:00 -2.2 C 3.33 g/m*3 -2.2 C 4.8 km/h
1530 23-03-2020 07:25:00 -2.2 C 3.28 g/m*3 -2.2 C 3.2 km/h
1531 23-03-2020 07:30:00 -2.1 C 3.31 g/m*3 -2.1 C 1.6 km/h
1532 23-03-2020 07:35:00 -2.1 C 3.31 g/m*3 -2.1 C 0 km/h
1533 23-03-2020 07:40:00 -2 C 3.33 g/m*3 -2 C 4.8 km/h
1534 23-03-2020 07:45:00 -1.9 C 3.31 g/m*3 -1.9 C 1.6 km/h
1535 23-03-2020 07:50:00 -1.7 C 3.23 g/m*3 -1.7 C 4.8 km/h
1536 23-03-2020 07:55:00 -1.3 C 3.28 g/m*3 -4.78 C 9.7 km/h
1537 23-03-2020 08:00:00 -1.2 C 3.34 g/m*3 -1.2 C 3.2 km/h
1538 23-03-2020 08:05:00 -1.1 C 3.37 g/m*3 -3.45 C 6.4 km/h
1539 23-03-2020 08:10:00 -1.1 C 3.23 g/m*3 -4.06 C 8.1 km/h
1540 23-03-2020 08:15:00 -0.9 C 3.23 g/m*3 -0.9 C 4.8 km/h
1541 23-03-2020 08:20:00 -0.7 C 3.09 g/m*3 -2.99 C 6.4 km/h
1542 23-03-2020 08:25:00 -0.4 C 3.2 g/m*3 -3.71 C 9.7 km/h
1543 23-03-2020 08:30:00 -0.2 C 3.15 g/m*3 -3.47 C 9.7 km/h
1544 23-03-2020 08:35:00 0 C 3 g/m*3 -2.18 C 6.4 km/h
1545 23-03-2020 08:40:00 0.3 C 3.02 g/m*3 -1.84 C 6.4 km/h
1546 23-03-2020 08:45:00 0.4 C 2.99 g/m*3 -2.3 C 8.1 km/h
1547 23-03-2020 08:50:00 0.6 C 2.98 g/m*3 0.6 C 4.8 km/h
1548 23-03-2020 08:55:00 0.7 C 2.9 g/m*3 -2.4 C 9.7 km/h
1549 23-03-2020 09:00:00 0.9 C 2.99 g/m*3 -2.9 C 12.9 km/h
1550 23-03-2020 09:05:00 1 C 2.91 g/m*3 1 C 3.2 km/h
Sensor: Nr:Datum:Temp:Abs-Feuchte:Windchill:Wind:
Aussen-T/F 1551 23-03-2020 09:10:00 1.2 C 2.95 g/m*3 1.2 C 3.2 km/h
1552 23-03-2020 09:15:00 1.2 C 2.95 g/m*3 -0.8 C 6.4 km/h
1553 23-03-2020 09:20:00 1.3 C 2.91 g/m*3 -2.07 C 11.3 km/h
1554 23-03-2020 09:25:00 1.4 C 3.04 g/m*3 -1.95 C 11.3 km/h
1555 23-03-2020 09:30:00 1.7 C 2.99 g/m*3 -1.93 C 12.9 km/h
1556 23-03-2020 09:35:00 1.8 C 2.96 g/m*3 -1.09 C 9.7 km/h
1557 23-03-2020 09:40:00 1.9 C 2.87 g/m*3 -2.51 C 17.7 km/h
1558 23-03-2020 09:45:00 2.2 C 2.82 g/m*3 -0.99 C 11.3 km/h
1559 23-03-2020 09:50:00 2.4 C 2.85 g/m*3 -1.07 C 12.9 km/h
1560 23-03-2020 09:55:00 2.6 C 2.95 g/m*3 2.6 C 4.8 km/h
1561 23-03-2020 10:00:00 2.7 C 2.97 g/m*3 -0.38 C 11.3 km/h
1562 23-03-2020 10:05:00 3 C 2.91 g/m*3 -0.02 C 11.3 km/h
1563 23-03-2020 10:10:00 3.1 C 2.93 g/m*3 1.4 C 6.4 km/h
1564 23-03-2020 10:15:00 3.3 C 2.79 g/m*3 0.7 C 9.7 km/h
1565 23-03-2020 10:20:00 3.4 C 2.75 g/m*3 0.82 C 9.7 km/h
1566 23-03-2020 10:25:00 3.7 C 2.99 g/m*3 2.09 C 6.4 km/h
1567 23-03-2020 10:30:00 3.9 C 2.72 g/m*3 0.22 C 16.1 km/h
1568 23-03-2020 10:35:00 4.1 C 2.69 g/m*3 1.31 C 11.3 km/h
1569 23-03-2020 10:40:00 4.3 C 2.66 g/m*3 1.89 C 9.7 km/h
1570 23-03-2020 10:45:00 4.6 C 2.58 g/m*3 1.61 C 12.9 km/h
1571 23-03-2020 10:50:00 4.8 C 2.55 g/m*3 1.85 C 12.9 km/h
1572 23-03-2020 10:55:00 5 C 2.72 g/m*3 3.11 C 8.1 km/h
1573 23-03-2020 11:00:00 5.2 C 2.75 g/m*3 2.96 C 9.7 km/h
1574 23-03-2020 11:05:00 5.4 C 2.58 g/m*3 2.32 C 14.5 km/h
1575 23-03-2020 11:10:00 5.6 C 2.55 g/m*3 2.57 C 14.5 km/h
Sensor: Nr:Datum:Temp:Abs-Feuchte:Windchill:Wind:
Aussen-T/F 1576 23-03-2020 11:15:00 5.7 C 2.49 g/m*3 2.24 C 17.7 km/h
1577 23-03-2020 11:20:00 5.8 C 2.51 g/m*3 2.58 C 16.1 km/h
1578 23-03-2020 11:25:00 5.9 C 2.45 g/m*3 2.93 C 14.5 km/h
1579 23-03-2020 11:30:00 6.1 C 2.41 g/m*3 3.43 C 12.9 km/h
1580 23-03-2020 11:35:00 6.3 C 2.37 g/m*3 3.68 C 12.9 km/h
1581 23-03-2020 11:40:00 6.4 C 2.46 g/m*3 3.32 C 16.1 km/h
1582 23-03-2020 11:45:00 6.4 C 2.46 g/m*3 4.08 C 11.3 km/h
1583 23-03-2020 11:50:00 6.6 C 2.49 g/m*3 4.99 C 8.1 km/h
1584 23-03-2020 11:55:00 6.8 C 2.45 g/m*3 4.29 C 12.9 km/h
1585 23-03-2020 12:00:00 6.9 C 2.46 g/m*3 3.94 C 16.1 km/h
1586 23-03-2020 12:05:00 6.9 C 2.23 g/m*3 3.04 C 24.1 km/h
1587 23-03-2020 12:10:00 7 C 2.25 g/m*3 3.86 C 17.7 km/h
1588 23-03-2020 12:15:00 7.2 C 2.2 g/m*3 3.92 C 19.3 km/h
1589 23-03-2020 12:20:00 7.3 C 2.37 g/m*3 4.66 C 14.5 km/h
1590 23-03-2020 12:25:00 7.5 C 2.24 g/m*3 5.14 C 12.9 km/h
1591 23-03-2020 12:30:00 7.7 C 2.43 g/m*3 5.94 C 9.7 km/h
1592 23-03-2020 12:35:00 7.8 C 2.29 g/m*3 5.27 C 14.5 km/h
1593 23-03-2020 12:40:00 7.9 C 2.14 g/m*3 6.18 C 9.7 km/h
1594 23-03-2020 12:45:00 8 C 2.15 g/m*3 6.01 C 11.3 km/h
1595 23-03-2020 12:50:00 8 C 2.15 g/m*3 5.11 C 17.7 km/h
1596 23-03-2020 12:55:00 8 C 2.23 g/m*3 5.11 C 17.7 km/h
1597 23-03-2020 13:00:00 8.1 C 2.25 g/m*3 5.64 C 14.5 km/h
1598 23-03-2020 13:05:00 8.2 C 2.34 g/m*3 4.86 C 22.5 km/h
1599 23-03-2020 13:10:00 8.1 C 2.16 g/m*3 4.44 C 25.7 km/h
1600 23-03-2020 13:15:00 8.3 C 2.28 g/m*3 5.14 C 20.9 km/h
Sensor: Nr:Datum:Temp:Abs-Feuchte:Windchill:Wind:
Aussen-T/F 1601 23-03-2020 13:20:00 8.3 C 2.28 g/m*3 5.14 C 20.9 km/h
1602 23-03-2020 13:25:00 8.4 C 2.12 g/m*3 6.49 C 11.3 km/h
1603 23-03-2020 13:30:00 8.6 C 2.23 g/m*3 7.01 C 9.7 km/h
1604 23-03-2020 13:35:00 8.7 C 2.25 g/m*3 5.49 C 22.5 km/h
1605 23-03-2020 13:40:00 8.8 C 2.18 g/m*3 5.48 C 24.1 km/h
1606 23-03-2020 13:45:00 8.8 C 2.09 g/m*3 6.72 C 12.9 km/h
1607 23-03-2020 13:50:00 8.8 C 2.18 g/m*3 6.11 C 17.7 km/h
1608 23-03-2020 13:55:00 8.9 C 2.01 g/m*3 6.42 C 16.1 km/h
1609 23-03-2020 14:00:00 8.7 C 1.99 g/m*3 5.81 C 19.3 km/h
1610 23-03-2020 14:05:00 8.7 C 1.99 g/m*3 6.85 C 11.3 km/h
1611 23-03-2020 14:10:00 8.7 C 2.16 g/m*3 6.6 C 12.9 km/h
1612 23-03-2020 14:15:00 8.8 C 2.09 g/m*3 6.72 C 12.9 km/h
1613 23-03-2020 14:20:00 8.8 C 2.26 g/m*3 6.5 C 14.5 km/h
1614 23-03-2020 14:25:00 9 C 2.12 g/m*3 5.87 C 22.5 km/h
1615 23-03-2020 14:30:00 9.1 C 2.13 g/m*3 6.48 C 17.7 km/h
1616 23-03-2020 14:35:00 9 C 2.12 g/m*3 6.36 C 17.7 km/h
1617 23-03-2020 14:40:00 9 C 2.29 g/m*3 6.75 C 14.5 km/h
1618 23-03-2020 14:45:00 9 C 2.2 g/m*3 7.21 C 11.3 km/h
1619 23-03-2020 14:50:00 9 C 2.2 g/m*3 6.75 C 14.5 km/h
1620 23-03-2020 14:55:00 9 C 2.12 g/m*3 6.36 C 17.7 km/h
1621 23-03-2020 15:00:00 9 C 2.2 g/m*3 7.21 C 11.3 km/h
1622 23-03-2020 15:05:00 9.1 C 2.22 g/m*3 6.87 C 14.5 km/h
1623 23-03-2020 15:10:00 9.2 C 2.23 g/m*3 6.79 C 16.1 km/h
1624 23-03-2020 15:15:00 9.3 C 2.34 g/m*3 7.33 C 12.9 km/h
1625 23-03-2020 15:20:00 9.3 C 2.16 g/m*3 7.58 C 11.3 km/h
Sensor: Nr:Datum:Temp:Abs-Feuchte:Windchill:Wind:
Aussen-T/F 1626 23-03-2020 15:25:00 9.4 C 2.35 g/m*3 7.7 C 11.3 km/h
1627 23-03-2020 15:30:00 9.5 C 2.18 g/m*3 7.36 C 14.5 km/h
1628 23-03-2020 15:35:00 9.6 C 2.2 g/m*3 7.48 C 14.5 km/h
1629 23-03-2020 15:40:00 9.7 C 2.3 g/m*3 7.82 C 12.9 km/h
1630 23-03-2020 15:45:00 9.7 C 2.3 g/m*3 7.61 C 14.5 km/h
1631 23-03-2020 15:50:00 9.6 C 2.11 g/m*3 6.94 C 19.3 km/h
1632 23-03-2020 15:55:00 9.7 C 2.3 g/m*3 8.06 C 11.3 km/h
1633 23-03-2020 16:00:00 9.8 C 2.23 g/m*3 7.94 C 12.9 km/h
1634 23-03-2020 16:05:00 9.8 C 2.13 g/m*3 8.18 C 11.3 km/h
1635 23-03-2020 16:10:00 10 C 2.35 g/m*3 8.19 C 12.9 km/h
1636 23-03-2020 16:15:00 10.1 C 2.46 g/m*3 8.31 C 12.9 km/h
1637 23-03-2020 16:20:00 10.3 C 2.2 g/m*3 8.78 C 11.3 km/h
1638 23-03-2020 16:25:00 10.4 C 2.31 g/m*3 9.46 C 8.1 km/h
1639 23-03-2020 16:30:00 10.4 C 2.22 g/m*3 8.67 C 12.9 km/h
1640 23-03-2020 16:35:00 10.4 C 2.22 g/m*3 8.9 C 11.3 km/h
1641 23-03-2020 16:40:00 10.4 C 2.41 g/m*3 8.9 C 11.3 km/h
1642 23-03-2020 16:45:00 10.5 C 2.33 g/m*3 8.8 C 12.9 km/h
1643 23-03-2020 16:50:00 10.4 C 2.31 g/m*3 8.67 C 12.9 km/h
1644 23-03-2020 16:55:00 10.3 C 2.49 g/m*3 8.78 C 11.3 km/h
1645 23-03-2020 17:00:00 10.4 C 2.31 g/m*3 8.67 C 12.9 km/h
1646 23-03-2020 17:05:00 10.4 C 2.51 g/m*3 9.83 C 6.4 km/h
1647 23-03-2020 17:10:00 10.3 C 2.49 g/m*3 8.78 C 11.3 km/h
1648 23-03-2020 17:15:00 10.5 C 2.52 g/m*3 8.8 C 12.9 km/h
1649 23-03-2020 17:20:00 10.4 C 2.51 g/m*3 9.16 C 9.7 km/h
1650 23-03-2020 17:25:00 10.4 C 2.51 g/m*3 9.16 C 9.7 km/h
Sensor: Nr:Datum:Temp:Abs-Feuchte:Windchill:Wind:
Aussen-T/F 1651 23-03-2020 17:30:00 10.3 C 2.59 g/m*3 10.3 C 4.8 km/h
1652 23-03-2020 17:35:00 10.2 C 2.38 g/m*3 8.66 C 11.3 km/h
1653 23-03-2020 17:40:00 10.2 C 2.57 g/m*3 8.92 C 9.7 km/h
1654 23-03-2020 17:45:00 10.1 C 2.46 g/m*3 8.8 C 9.7 km/h
1655 23-03-2020 17:50:00 10 C 2.44 g/m*3 8.99 C 8.1 km/h
1656 23-03-2020 17:55:00 9.9 C 2.43 g/m*3 9.25 C 6.4 km/h
1657 23-03-2020 18:00:00 9.9 C 2.52 g/m*3 9.9 C 3.2 km/h
1658 23-03-2020 18:05:00 9.8 C 2.32 g/m*3 9.8 C 4.8 km/h
1659 23-03-2020 18:10:00 9.8 C 2.41 g/m*3 9.8 C 4.8 km/h
1660 23-03-2020 18:15:00 9.6 C 2.47 g/m*3 9.6 C 4.8 km/h
1661 23-03-2020 18:20:00 9.4 C 2.53 g/m*3 8.28 C 8.1 km/h
1662 23-03-2020 18:25:00 9.1 C 2.48 g/m*3 8.33 C 6.4 km/h
1663 23-03-2020 18:30:00 8.8 C 2.44 g/m*3 8.8 C 4.8 km/h
1664 23-03-2020 18:35:00 8.4 C 2.97 g/m*3 8.4 C 1.6 km/h
1665 23-03-2020 18:40:00 7.9 C 3.29 g/m*3 7.9 C 4.8 km/h
1666 23-03-2020 18:45:00 7.2 C 3.3 g/m*3 7.2 C 4.8 km/h
1667 23-03-2020 18:50:00 6.6 C 3.4 g/m*3 6.6 C 4.8 km/h
1668 23-03-2020 18:55:00 5.9 C 3.39 g/m*3 5.9 C 4.8 km/h
1669 23-03-2020 19:00:00 5.3 C 3.33 g/m*3 5.3 C 4.8 km/h
1670 23-03-2020 19:05:00 4.9 C 3.44 g/m*3 4.9 C 4.8 km/h
1671 23-03-2020 19:10:00 4.6 C 3.37 g/m*3 4.6 C 4.8 km/h
1672 23-03-2020 19:15:00 4.2 C 3.35 g/m*3 2.67 C 6.4 km/h
1673 23-03-2020 19:20:00 3.9 C 3.41 g/m*3 3.9 C 4.8 km/h
1674 23-03-2020 19:25:00 3.7 C 3.43 g/m*3 2.09 C 6.4 km/h
1675 23-03-2020 19:30:00 3.5 C 3.44 g/m*3 3.5 C 4.8 km/h
Sensor: Nr:Datum:Temp:Abs-Feuchte:Windchill:Wind:
Aussen-T/F 1676 23-03-2020 19:35:00 3.3 C 3.46 g/m*3 1.63 C 6.4 km/h
1677 23-03-2020 19:40:00 3.2 C 3.43 g/m*3 1.51 C 6.4 km/h
1678 23-03-2020 19:45:00 3 C 3.45 g/m*3 3 C 4.8 km/h
1679 23-03-2020 19:50:00 2.9 C 3.48 g/m*3 2.9 C 4.8 km/h
1680 23-03-2020 19:55:00 2.8 C 3.52 g/m*3 2.8 C 4.8 km/h
1681 23-03-2020 20:00:00 2.6 C 3.53 g/m*3 2.6 C 4.8 km/h
1682 23-03-2020 20:05:00 2.5 C 3.45 g/m*3 2.5 C 4.8 km/h
1683 23-03-2020 20:10:00 2.3 C 3.52 g/m*3 2.3 C 4.8 km/h
1684 23-03-2020 20:15:00 2.2 C 3.49 g/m*3 2.2 C 4.8 km/h
1685 23-03-2020 20:20:00 2.2 C 3.49 g/m*3 0.36 C 6.4 km/h
1686 23-03-2020 20:25:00 2.1 C 3.52 g/m*3 2.1 C 4.8 km/h
1687 23-03-2020 20:30:00 2.1 C 3.58 g/m*3 2.1 C 4.8 km/h
1688 23-03-2020 20:35:00 2 C 3.45 g/m*3 0.13 C 6.4 km/h
1689 23-03-2020 20:40:00 2 C 3.45 g/m*3 2 C 4.8 km/h
1690 23-03-2020 20:45:00 2 C 3.45 g/m*3 0.13 C 6.4 km/h
1691 23-03-2020 20:50:00 2 C 3.45 g/m*3 0.13 C 6.4 km/h
1692 23-03-2020 20:55:00 1.9 C 3.42 g/m*3 0.01 C 6.4 km/h
1693 23-03-2020 21:00:00 1.9 C 3.53 g/m*3 1.9 C 4.8 km/h
1694 23-03-2020 21:05:00 1.8 C 3.51 g/m*3 1.8 C 4.8 km/h
1695 23-03-2020 21:10:00 1.7 C 3.54 g/m*3 1.7 C 3.2 km/h
1696 23-03-2020 21:15:00 1.6 C 3.57 g/m*3 -0.33 C 6.4 km/h
1697 23-03-2020 21:20:00 1.5 C 3.54 g/m*3 1.5 C 4.8 km/h
1698 23-03-2020 21:25:00 1.3 C 3.55 g/m*3 1.3 C 4.8 km/h
1699 23-03-2020 21:30:00 1.2 C 3.53 g/m*3 1.2 C 4.8 km/h
1700 23-03-2020 21:35:00 1.1 C 3.55 g/m*3 1.1 C 3.2 km/h
Sensor: Nr:Datum:Temp:Abs-Feuchte:Windchill:Wind:
Aussen-T/F 1701 23-03-2020 21:40:00 1.1 C 3.55 g/m*3 1.1 C 4.8 km/h
1702 23-03-2020 21:45:00 1 C 3.53 g/m*3 1 C 3.2 km/h
1703 23-03-2020 21:50:00 0.9 C 3.51 g/m*3 0.9 C 3.2 km/h
1704 23-03-2020 21:55:00 0.8 C 3.48 g/m*3 0.8 C 0 km/h
1705 23-03-2020 22:00:00 0.7 C 3.51 g/m*3 0.7 C 1.6 km/h
1706 23-03-2020 22:05:00 0.6 C 3.53 g/m*3 0.6 C 1.6 km/h
1707 23-03-2020 22:10:00 0.4 C 3.54 g/m*3 0.4 C 0 km/h
1708 23-03-2020 22:15:00 0.3 C 3.56 g/m*3 0.3 C 3.2 km/h
1709 23-03-2020 22:20:00 0.2 C 3.54 g/m*3 0.2 C 3.2 km/h
1710 23-03-2020 22:25:00 0.2 C 3.59 g/m*3 0.2 C 0 km/h
1711 23-03-2020 22:30:00 0.1 C 3.61 g/m*3 0.1 C 0 km/h
1712 23-03-2020 22:35:00 0 C 3.54 g/m*3 0 C 3.2 km/h
1713 23-03-2020 22:40:00 -0.1 C 3.56 g/m*3 -0.1 C 3.2 km/h
1714 23-03-2020 22:45:00 -0.1 C 3.56 g/m*3 -0.1 C 0 km/h
1715 23-03-2020 22:50:00 -0.1 C 3.56 g/m*3 -0.1 C 0 km/h
1716 23-03-2020 22:55:00 -0.2 C 3.54 g/m*3 -0.2 C 0 km/h
1717 23-03-2020 23:00:00 -0.3 C 3.56 g/m*3 -0.3 C 0 km/h
1718 23-03-2020 23:05:00 -0.4 C 3.53 g/m*3 -0.4 C 0 km/h
1719 23-03-2020 23:10:00 -0.4 C 3.58 g/m*3 -0.4 C 0 km/h
1720 23-03-2020 23:15:00 -0.4 C 3.58 g/m*3 -0.4 C 0 km/h
1721 23-03-2020 23:20:00 -0.4 C 3.53 g/m*3 -0.4 C 0 km/h
1722 23-03-2020 23:25:00 -0.4 C 3.58 g/m*3 -0.4 C 0 km/h
1723 23-03-2020 23:30:00 -0.5 C 3.56 g/m*3 -0.5 C 0 km/h
1724 23-03-2020 23:35:00 -0.6 C 3.58 g/m*3 -0.6 C 0 km/h
1725 23-03-2020 23:40:00 -0.6 C 3.58 g/m*3 -0.6 C 0 km/h
Sensor: Nr:Datum:Temp:Abs-Feuchte:Windchill:Wind:
Aussen-T/F 1726 23-03-2020 23:45:00 -0.7 C 3.55 g/m*3 -0.7 C 0 km/h
1727 23-03-2020 23:50:00 -0.7 C 3.55 g/m*3 -0.7 C 0 km/h
1728 23-03-2020 23:55:00 -0.7 C 3.55 g/m*3 -0.7 C 0 km/h
1729 24-03-2020 00:00:00 -0.7 C 3.55 g/m*3 -0.7 C 0 km/h
1730 24-03-2020 00:05:00 -0.8 C 3.48 g/m*3 -0.8 C 0 km/h
1731 24-03-2020 00:10:00 -0.8 C 3.53 g/m*3 -0.8 C 0 km/h
1732 24-03-2020 00:15:00 -0.9 C 3.51 g/m*3 -0.9 C 0 km/h
1733 24-03-2020 00:20:00 -0.9 C 3.51 g/m*3 -0.9 C 0 km/h
1734 24-03-2020 00:25:00 -1.1 C 3.41 g/m*3 -1.1 C 0 km/h
1735 24-03-2020 00:30:00 -1.1 C 3.5 g/m*3 -1.1 C 0 km/h
1736 24-03-2020 00:35:00 -1.1 C 3.55 g/m*3 -1.1 C 0 km/h
1737 24-03-2020 00:40:00 -1.1 C 3.55 g/m*3 -1.1 C 0 km/h
1738 24-03-2020 00:45:00 -1.1 C 3.55 g/m*3 -1.1 C 0 km/h
1739 24-03-2020 00:50:00 -1.2 C 3.52 g/m*3 -1.2 C 0 km/h
1740 24-03-2020 00:55:00 -1.2 C 3.48 g/m*3 -1.2 C 0 km/h
1741 24-03-2020 01:00:00 -1.2 C 3.48 g/m*3 -1.2 C 0 km/h
1742 24-03-2020 01:05:00 -1.3 C 3.45 g/m*3 -1.3 C 0 km/h
1743 24-03-2020 01:10:00 -1.3 C 3.45 g/m*3 -1.3 C 0 km/h
1744 24-03-2020 01:15:00 -1.4 C 3.43 g/m*3 -1.4 C 0 km/h
1745 24-03-2020 01:20:00 -1.4 C 3.43 g/m*3 -1.4 C 0 km/h
1746 24-03-2020 01:25:00 -1.4 C 3.43 g/m*3 -1.4 C 3.2 km/h
1747 24-03-2020 01:30:00 -1.4 C 3.43 g/m*3 -1.4 C 3.2 km/h
1748 24-03-2020 01:35:00 -1.4 C 3.47 g/m*3 -1.4 C 0 km/h
1749 24-03-2020 01:40:00 -1.5 C 3.45 g/m*3 -1.5 C 0 km/h
1750 24-03-2020 01:45:00 -1.6 C 3.42 g/m*3 -1.6 C 3.2 km/h
Sensor: Nr:Datum:Temp:Abs-Feuchte:Windchill:Wind:
Aussen-T/F 1751 24-03-2020 01:50:00 -1.6 C 3.42 g/m*3 -1.6 C 0 km/h
1752 24-03-2020 01:55:00 -1.6 C 3.42 g/m*3 -1.6 C 0 km/h
1753 24-03-2020 02:00:00 -1.6 C 3.42 g/m*3 -1.6 C 3.2 km/h
1754 24-03-2020 02:05:00 -1.6 C 3.42 g/m*3 -1.6 C 0 km/h
1755 24-03-2020 02:10:00 -1.6 C 3.42 g/m*3 -1.6 C 0 km/h
1756 24-03-2020 02:15:00 -1.7 C 3.44 g/m*3 -1.7 C 0 km/h
1757 24-03-2020 02:20:00 -1.7 C 3.49 g/m*3 -1.7 C 0 km/h
1758 24-03-2020 02:25:00 -1.8 C 3.42 g/m*3 -1.8 C 0 km/h
1759 24-03-2020 02:30:00 -1.8 C 3.42 g/m*3 -1.8 C 0 km/h
1760 24-03-2020 02:35:00 -1.9 C 3.4 g/m*3 -1.9 C 0 km/h
1761 24-03-2020 02:40:00 -1.9 C 3.4 g/m*3 -1.9 C 0 km/h
1762 24-03-2020 02:45:00 -1.9 C 3.35 g/m*3 -1.9 C 0 km/h
1763 24-03-2020 02:50:00 -1.9 C 3.4 g/m*3 -1.9 C 0 km/h
1764 24-03-2020 02:55:00 -2 C 3.33 g/m*3 -2 C 0 km/h
1765 24-03-2020 03:00:00 -2.1 C 3.35 g/m*3 -2.1 C 0 km/h
1766 24-03-2020 03:05:00 -2.1 C 3.39 g/m*3 -2.1 C 0 km/h
1767 24-03-2020 03:10:00 -2.2 C 3.37 g/m*3 -2.2 C 0 km/h
1768 24-03-2020 03:15:00 -2.2 C 3.41 g/m*3 -2.2 C 0 km/h
1769 24-03-2020 03:20:00 -2.3 C 3.38 g/m*3 -2.3 C 0 km/h
1770 24-03-2020 03:25:00 -2.4 C 3.36 g/m*3 -2.4 C 0 km/h
1771 24-03-2020 03:30:00 -2.5 C 3.3 g/m*3 -2.5 C 0 km/h
1772 24-03-2020 03:35:00 -2.5 C 3.3 g/m*3 -2.5 C 0 km/h
1773 24-03-2020 03:40:00 -2.5 C 3.3 g/m*3 -2.5 C 0 km/h
1774 24-03-2020 03:45:00 -2.6 C 3.27 g/m*3 -2.6 C 0 km/h
1775 24-03-2020 03:50:00 -2.6 C 3.27 g/m*3 -2.6 C 0 km/h
Sensor: Nr:Datum:Temp:Abs-Feuchte:Windchill:Wind:
Aussen-T/F 1776 24-03-2020 03:55:00 -2.6 C 3.27 g/m*3 -2.6 C 0 km/h
1777 24-03-2020 04:00:00 -2.7 C 3.25 g/m*3 -2.7 C 0 km/h
1778 24-03-2020 04:05:00 -2.8 C 3.23 g/m*3 -2.8 C 0 km/h
1779 24-03-2020 04:10:00 -2.8 C 3.19 g/m*3 -2.8 C 0 km/h
1780 24-03-2020 04:15:00 -2.8 C 3.19 g/m*3 -2.8 C 0 km/h
1781 24-03-2020 04:20:00 -2.8 C 3.15 g/m*3 -2.8 C 0 km/h
1782 24-03-2020 04:25:00 -2.8 C 3.15 g/m*3 -2.8 C 0 km/h
1783 24-03-2020 04:30:00 -2.8 C 3.23 g/m*3 -2.8 C 0 km/h
1784 24-03-2020 04:35:00 -2.8 C 3.23 g/m*3 -2.8 C 0 km/h
1785 24-03-2020 04:40:00 -2.8 C 3.19 g/m*3 -2.8 C 0 km/h
1786 24-03-2020 04:45:00 -2.8 C 3.19 g/m*3 -2.8 C 0 km/h
1787 24-03-2020 04:50:00 -2.8 C 3.19 g/m*3 -2.8 C 0 km/h
1788 24-03-2020 04:55:00 -2.9 C 3.16 g/m*3 -2.9 C 0 km/h
1789 24-03-2020 05:00:00 -2.9 C 3.2 g/m*3 -2.9 C 0 km/h
1790 24-03-2020 05:05:00 -3 C 3.18 g/m*3 -3 C 0 km/h
1791 24-03-2020 05:10:00 -3 C 3.18 g/m*3 -3 C 0 km/h
1792 24-03-2020 05:15:00 -2.9 C 3.24 g/m*3 -2.9 C 0 km/h
1793 24-03-2020 05:20:00 -2.9 C 3.2 g/m*3 -2.9 C 0 km/h
1794 24-03-2020 05:25:00 -2.9 C 3.16 g/m*3 -2.9 C 0 km/h
1795 24-03-2020 05:30:00 -3 C 3.14 g/m*3 -3 C 0 km/h
1796 24-03-2020 05:35:00 -3.1 C 3.12 g/m*3 -3.1 C 0 km/h
1797 24-03-2020 05:40:00 -3.1 C 3.12 g/m*3 -3.1 C 0 km/h
1798 24-03-2020 05:45:00 -3.2 C 3.18 g/m*3 -3.2 C 0 km/h
1799 24-03-2020 05:50:00 -3.2 C 3.18 g/m*3 -3.2 C 0 km/h
1800 24-03-2020 05:55:00 -3.3 C 3.11 g/m*3 -3.3 C 0 km/h
Sensor: Nr:Datum:Temp:Abs-Feuchte:Windchill:Wind:
Aussen-T/F 1801 24-03-2020 06:00:00 -3.3 C 3.15 g/m*3 -3.3 C 0 km/h
1802 24-03-2020 06:05:00 -3.4 C 3.09 g/m*3 -3.4 C 0 km/h
1803 24-03-2020 06:10:00 -3.4 C 3.09 g/m*3 -3.4 C 0 km/h
1804 24-03-2020 06:15:00 -3.4 C 3.13 g/m*3 -3.4 C 0 km/h
1805 24-03-2020 06:20:00 -3.4 C 3.13 g/m*3 -3.4 C 0 km/h
1806 24-03-2020 06:25:00 -3.4 C 3.13 g/m*3 -3.4 C 0 km/h
1807 24-03-2020 06:30:00 -3.5 C 3.11 g/m*3 -3.5 C 0 km/h
1808 24-03-2020 06:35:00 -3.5 C 3.11 g/m*3 -3.5 C 0 km/h
1809 24-03-2020 06:40:00 -3.5 C 3.11 g/m*3 -3.5 C 0 km/h
1810 24-03-2020 06:45:00 -3.4 C 3.13 g/m*3 -3.4 C 0 km/h
1811 24-03-2020 06:50:00 -3.4 C 3.13 g/m*3 -3.4 C 0 km/h
1812 24-03-2020 06:55:00 -3.4 C 3.13 g/m*3 -3.4 C 0 km/h
1813 24-03-2020 07:00:00 -3.3 C 3.15 g/m*3 -3.3 C 0 km/h
1814 24-03-2020 07:05:00 -3.3 C 3.15 g/m*3 -3.3 C 0 km/h
1815 24-03-2020 07:10:00 -3.3 C 3.19 g/m*3 -3.3 C 0 km/h
1816 24-03-2020 07:15:00 -3.3 C 3.19 g/m*3 -3.3 C 0 km/h
1817 24-03-2020 07:20:00 -3.2 C 3.18 g/m*3 -3.2 C 0 km/h
1818 24-03-2020 07:25:00 -3.2 C 3.18 g/m*3 -3.2 C 0 km/h
1819 24-03-2020 07:30:00 -3.1 C 3.2 g/m*3 -3.1 C 0 km/h
1820 24-03-2020 07:35:00 -3.1 C 3.2 g/m*3 -3.1 C 0 km/h
1821 24-03-2020 07:40:00 -3.1 C 3.2 g/m*3 -3.1 C 0 km/h
1822 24-03-2020 07:45:00 -2.9 C 3.24 g/m*3 -2.9 C 0 km/h
1823 24-03-2020 07:50:00 -2.9 C 3.24 g/m*3 -2.9 C 0 km/h
1824 24-03-2020 07:55:00 -2.8 C 3.27 g/m*3 -2.8 C 0 km/h
1825 24-03-2020 08:00:00 -2.8 C 3.23 g/m*3 -2.8 C 0 km/h
Sensor: Nr:Datum:Temp:Abs-Feuchte:Windchill:Wind:
Aussen-T/F 1826 24-03-2020 08:05:00 -2.7 C 3.25 g/m*3 -2.7 C 0 km/h
1827 24-03-2020 08:10:00 -2.6 C 3.27 g/m*3 -2.6 C 0 km/h
1828 24-03-2020 08:15:00 -2.5 C 3.3 g/m*3 -2.5 C 0 km/h
1829 24-03-2020 08:20:00 -2.4 C 3.32 g/m*3 -2.4 C 0 km/h
1830 24-03-2020 08:25:00 -2.3 C 3.3 g/m*3 -2.3 C 1.6 km/h
1831 24-03-2020 08:30:00 -2.2 C 3.33 g/m*3 -2.2 C 3.2 km/h
1832 24-03-2020 08:35:00 -2.1 C 3.35 g/m*3 -2.1 C 4.8 km/h
1833 24-03-2020 08:40:00 -2 C 3.37 g/m*3 -2 C 3.2 km/h
1834 24-03-2020 08:45:00 -1.8 C 3.33 g/m*3 -1.8 C 3.2 km/h
1835 24-03-2020 08:50:00 -1.7 C 3.4 g/m*3 -1.7 C 3.2 km/h
1836 24-03-2020 08:55:00 -1.6 C 3.42 g/m*3 -1.6 C 3.2 km/h
1837 24-03-2020 09:00:00 -1.4 C 3.34 g/m*3 -1.4 C 1.6 km/h
1838 24-03-2020 09:05:00 -1.1 C 3.41 g/m*3 -3.45 C 6.4 km/h
1839 24-03-2020 09:10:00 -0.8 C 3.35 g/m*3 -3.11 C 6.4 km/h
1840 24-03-2020 09:15:00 -0.6 C 3.44 g/m*3 -0.6 C 3.2 km/h
1841 24-03-2020 09:20:00 -0.4 C 3.44 g/m*3 -2.64 C 6.4 km/h
1842 24-03-2020 09:25:00 -0.2 C 3.49 g/m*3 -2.41 C 6.4 km/h
1843 24-03-2020 09:30:00 0.2 C 3.34 g/m*3 0.2 C 4.8 km/h
1844 24-03-2020 09:35:00 0.7 C 3.2 g/m*3 0.7 C 4.8 km/h
1845 24-03-2020 09:40:00 1.1 C 3.4 g/m*3 1.1 C 4.8 km/h
1846 24-03-2020 09:45:00 1.7 C 3.1 g/m*3 -0.77 C 8.1 km/h
1847 24-03-2020 09:50:00 2.2 C 3.38 g/m*3 2.2 C 1.6 km/h
1848 24-03-2020 09:55:00 2.4 C 3.25 g/m*3 2.4 C 3.2 km/h
1849 24-03-2020 10:00:00 2.8 C 2.99 g/m*3 1.05 C 6.4 km/h
1850 24-03-2020 10:05:00 3.3 C 2.91 g/m*3 0.7 C 9.7 km/h
Sensor: Nr:Datum:Temp:Abs-Feuchte:Windchill:Wind:
Aussen-T/F 1851 24-03-2020 10:10:00 3.6 C 2.91 g/m*3 1.46 C 8.1 km/h
1852 24-03-2020 10:15:00 3.8 C 2.7 g/m*3 -0.36 C 19.3 km/h
1853 24-03-2020 10:20:00 4.1 C 2.75 g/m*3 0.72 C 14.5 km/h
1854 24-03-2020 10:25:00 4.3 C 2.66 g/m*3 1.24 C 12.9 km/h
1855 24-03-2020 10:30:00 4.5 C 2.63 g/m*3 2.13 C 9.7 km/h
1856 24-03-2020 10:35:00 4.8 C 2.68 g/m*3 2.49 C 9.7 km/h
1857 24-03-2020 10:40:00 4.8 C 2.75 g/m*3 4.8 C 4.8 km/h
1858 24-03-2020 10:45:00 5.1 C 2.53 g/m*3 2.51 C 11.3 km/h
1859 24-03-2020 10:50:00 5.3 C 2.56 g/m*3 3.94 C 6.4 km/h
1860 24-03-2020 10:55:00 5.6 C 2.47 g/m*3 4.29 C 6.4 km/h
1861 24-03-2020 11:00:00 5.7 C 2.49 g/m*3 2.69 C 14.5 km/h
1862 24-03-2020 11:05:00 5.8 C 2.51 g/m*3 3.68 C 9.7 km/h
1863 24-03-2020 11:10:00 6.1 C 2.63 g/m*3 4.04 C 9.7 km/h
1864 24-03-2020 11:15:00 6.3 C 2.52 g/m*3 3.96 C 11.3 km/h
1865 24-03-2020 11:20:00 6.6 C 2.64 g/m*3 4.32 C 11.3 km/h
1866 24-03-2020 11:25:00 6.7 C 2.58 g/m*3 4.44 C 11.3 km/h
1867 24-03-2020 11:30:00 6.8 C 2.52 g/m*3 4.29 C 12.9 km/h
1868 24-03-2020 11:35:00 6.9 C 2.69 g/m*3 4.68 C 11.3 km/h
1869 24-03-2020 11:40:00 7.1 C 2.5 g/m*3 4.92 C 11.3 km/h
1870 24-03-2020 11:45:00 7.1 C 2.5 g/m*3 4.92 C 11.3 km/h
1871 24-03-2020 11:50:00 7.2 C 2.59 g/m*3 4.77 C 12.9 km/h
1872 24-03-2020 11:55:00 7.3 C 2.53 g/m*3 5.81 C 8.1 km/h
1873 24-03-2020 12:00:00 7.6 C 2.58 g/m*3 4.81 C 16.1 km/h
1874 24-03-2020 12:05:00 7.7 C 2.51 g/m*3 5.65 C 11.3 km/h
1875 24-03-2020 12:10:00 7.8 C 2.53 g/m*3 6.06 C 9.7 km/h
Sensor: Nr:Datum:Temp:Abs-Feuchte:Windchill:Wind:
Aussen-T/F 1876 24-03-2020 12:15:00 8.1 C 2.5 g/m*3 5.43 C 16.1 km/h
1877 24-03-2020 12:20:00 8.2 C 2.43 g/m*3 5.55 C 16.1 km/h
1878 24-03-2020 12:25:00 8.2 C 2.51 g/m*3 5.99 C 12.9 km/h
1879 24-03-2020 12:30:00 8.3 C 2.53 g/m*3 6.66 C 9.7 km/h
1880 24-03-2020 12:35:00 8.6 C 2.49 g/m*3 6.05 C 16.1 km/h
1881 24-03-2020 12:40:00 8.7 C 2.59 g/m*3 7.13 C 9.7 km/h
1882 24-03-2020 12:45:00 8.8 C 2.52 g/m*3 6.5 C 14.5 km/h
1883 24-03-2020 12:50:00 8.9 C 2.54 g/m*3 6.62 C 14.5 km/h
1884 24-03-2020 12:55:00 8.9 C 2.63 g/m*3 7.37 C 9.7 km/h
1885 24-03-2020 13:00:00 8.9 C 2.72 g/m*3 7.09 C 11.3 km/h
1886 24-03-2020 13:05:00 9.1 C 2.84 g/m*3 7.61 C 9.7 km/h
1887 24-03-2020 13:10:00 9.1 C 2.57 g/m*3 7.09 C 12.9 km/h
1888 24-03-2020 13:15:00 9 C 2.47 g/m*3 6.36 C 17.7 km/h
1889 24-03-2020 13:20:00 9 C 2.56 g/m*3 7.21 C 11.3 km/h
1890 24-03-2020 13:25:00 9.1 C 2.57 g/m*3 7.09 C 12.9 km/h
1891 24-03-2020 13:30:00 9.2 C 2.59 g/m*3 7.21 C 12.9 km/h
1892 24-03-2020 13:35:00 9.2 C 2.59 g/m*3 7.46 C 11.3 km/h
1893 24-03-2020 13:40:00 9.4 C 2.53 g/m*3 7.7 C 11.3 km/h
1894 24-03-2020 13:45:00 9.4 C 2.53 g/m*3 7.24 C 14.5 km/h
1895 24-03-2020 13:50:00 9.3 C 2.43 g/m*3 7.12 C 14.5 km/h
1896 24-03-2020 13:55:00 9.4 C 2.53 g/m*3 7.04 C 16.1 km/h
1897 24-03-2020 14:00:00 9.5 C 2.55 g/m*3 8.09 C 9.7 km/h
1898 24-03-2020 14:05:00 9.6 C 2.47 g/m*3 8.21 C 9.7 km/h
1899 24-03-2020 14:10:00 9.6 C 2.47 g/m*3 8.21 C 9.7 km/h
1900 24-03-2020 14:15:00 9.5 C 2.46 g/m*3 7.58 C 12.9 km/h
Sensor: Nr:Datum:Temp:Abs-Feuchte:Windchill:Wind:
Aussen-T/F 1901 24-03-2020 14:20:00 9.4 C 2.53 g/m*3 6.69 C 19.3 km/h
1902 24-03-2020 14:25:00 9.5 C 2.37 g/m*3 7.58 C 12.9 km/h
1903 24-03-2020 14:30:00 9.4 C 2.44 g/m*3 7.24 C 14.5 km/h
1904 24-03-2020 14:35:00 9.4 C 2.44 g/m*3 6.86 C 17.7 km/h
1905 24-03-2020 14:40:00 9.3 C 2.43 g/m*3 6.73 C 17.7 km/h
1906 24-03-2020 14:45:00 9.3 C 2.43 g/m*3 7.12 C 14.5 km/h
1907 24-03-2020 14:50:00 9.4 C 2.35 g/m*3 7.04 C 16.1 km/h
1908 24-03-2020 14:55:00 9.4 C 2.35 g/m*3 7.04 C 16.1 km/h
1909 24-03-2020 15:00:00 9.4 C 2.44 g/m*3 6.11 C 25.7 km/h
1910 24-03-2020 15:05:00 9.6 C 2.47 g/m*3 7.94 C 11.3 km/h
1911 24-03-2020 15:10:00 9.7 C 2.4 g/m*3 7.41 C 16.1 km/h
1912 24-03-2020 15:15:00 9.7 C 2.49 g/m*3 8.06 C 11.3 km/h
1913 24-03-2020 15:20:00 9.9 C 2.43 g/m*3 8.3 C 11.3 km/h
1914 24-03-2020 15:25:00 9.9 C 2.43 g/m*3 8.06 C 12.9 km/h
1915 24-03-2020 15:30:00 9.9 C 2.43 g/m*3 7.32 C 19.3 km/h
1916 24-03-2020 15:35:00 10 C 2.44 g/m*3 7.44 C 19.3 km/h
1917 24-03-2020 15:40:00 10.2 C 2.38 g/m*3 8.66 C 11.3 km/h
1918 24-03-2020 15:45:00 10.3 C 2.39 g/m*3 8.55 C 12.9 km/h
1919 24-03-2020 15:50:00 10.3 C 2.49 g/m*3 8.55 C 12.9 km/h
1920 24-03-2020 15:55:00 10.3 C 2.49 g/m*3 8.55 C 12.9 km/h
1921 24-03-2020 16:00:00 10.3 C 2.49 g/m*3 8.34 C 14.5 km/h
1922 24-03-2020 16:05:00 10.5 C 2.52 g/m*3 8.8 C 12.9 km/h
1923 24-03-2020 16:10:00 10.6 C 2.44 g/m*3 9.4 C 9.7 km/h
1924 24-03-2020 16:15:00 10.7 C 2.46 g/m*3 10.18 C 6.4 km/h
1925 24-03-2020 16:20:00 10.8 C 2.37 g/m*3 8.96 C 14.5 km/h
Sensor: Nr:Datum:Temp:Abs-Feuchte:Windchill:Wind:
Aussen-T/F 1926 24-03-2020 16:25:00 10.8 C 2.47 g/m*3 9.38 C 11.3 km/h
1927 24-03-2020 16:30:00 10.8 C 2.27 g/m*3 8.96 C 14.5 km/h
1928 24-03-2020 16:35:00 10.8 C 2.27 g/m*3 9.38 C 11.3 km/h
1929 24-03-2020 16:40:00 10.9 C 2.49 g/m*3 9.76 C 9.7 km/h
1930 24-03-2020 16:45:00 11.2 C 2.43 g/m*3 11.2 C 8.1 km/h
1931 24-03-2020 16:50:00 11.2 C 2.33 g/m*3 11.2 C 17.7 km/h
1932 24-03-2020 16:55:00 11.2 C 2.33 g/m*3 11.2 C 14.5 km/h
1933 24-03-2020 17:00:00 11.1 C 2.42 g/m*3 11.1 C 11.3 km/h
1934 24-03-2020 17:05:00 11.1 C 2.52 g/m*3 11.1 C 17.7 km/h
1935 24-03-2020 17:10:00 11.3 C 2.35 g/m*3 11.3 C 8.1 km/h
1936 24-03-2020 17:15:00 11.4 C 2.36 g/m*3 11.4 C 12.9 km/h
1937 24-03-2020 17:20:00 11.4 C 2.26 g/m*3 11.4 C 9.7 km/h
1938 24-03-2020 17:25:00 11.3 C 2.45 g/m*3 11.3 C 6.4 km/h
1939 24-03-2020 17:30:00 11.3 C 2.24 g/m*3 11.3 C 9.7 km/h
1940 24-03-2020 17:35:00 11.1 C 2.22 g/m*3 11.1 C 9.7 km/h
1941 24-03-2020 17:40:00 11 C 2.3 g/m*3 9.88 C 9.7 km/h
1942 24-03-2020 17:45:00 10.9 C 2.29 g/m*3 9.76 C 9.7 km/h
1943 24-03-2020 17:50:00 10.8 C 2.37 g/m*3 9.93 C 8.1 km/h
1944 24-03-2020 17:55:00 10.7 C 2.26 g/m*3 9.81 C 8.1 km/h
1945 24-03-2020 18:00:00 10.7 C 2.36 g/m*3 10.7 C 4.8 km/h
1946 24-03-2020 18:05:00 10.7 C 2.26 g/m*3 10.18 C 6.4 km/h
1947 24-03-2020 18:10:00 10.4 C 2.31 g/m*3 9.16 C 9.7 km/h
1948 24-03-2020 18:15:00 10.4 C 2.31 g/m*3 9.46 C 8.1 km/h
1949 24-03-2020 18:20:00 10.3 C 2.2 g/m*3 9.72 C 6.4 km/h
1950 24-03-2020 18:25:00 10.1 C 2.93 g/m*3 10.1 C 1.6 km/h
Sensor: Nr:Datum:Temp:Abs-Feuchte:Windchill:Wind:
Aussen-T/F 1951 24-03-2020 18:30:00 9.8 C 2.88 g/m*3 9.8 C 3.2 km/h
1952 24-03-2020 18:35:00 9.5 C 2.37 g/m*3 9.5 C 3.2 km/h
1953 24-03-2020 18:40:00 9 C 3.26 g/m*3 9 C 1.6 km/h
1954 24-03-2020 18:45:00 8.3 C 3.2 g/m*3 8.3 C 4.8 km/h
1955 24-03-2020 18:50:00 7.6 C 3.38 g/m*3 7.6 C 4.8 km/h
1956 24-03-2020 18:55:00 6.8 C 3.37 g/m*3 6.8 C 4.8 km/h
1957 24-03-2020 19:00:00 6.2 C 3.31 g/m*3 4.98 C 6.4 km/h
1958 24-03-2020 19:05:00 5.7 C 3.34 g/m*3 5.7 C 4.8 km/h
1959 24-03-2020 19:10:00 5.3 C 3.33 g/m*3 5.3 C 4.8 km/h
1960 24-03-2020 19:15:00 4.9 C 3.31 g/m*3 3.48 C 6.4 km/h
1961 24-03-2020 19:20:00 4.7 C 3.33 g/m*3 4.7 C 4.8 km/h
1962 24-03-2020 19:25:00 4.4 C 3.33 g/m*3 2.9 C 6.4 km/h
1963 24-03-2020 19:30:00 4.2 C 3.35 g/m*3 4.2 C 4.8 km/h
1964 24-03-2020 19:35:00 3.9 C 3.35 g/m*3 2.32 C 6.4 km/h
1965 24-03-2020 19:40:00 3.8 C 3.39 g/m*3 2.21 C 6.4 km/h
1966 24-03-2020 19:45:00 3.6 C 3.34 g/m*3 1.98 C 6.4 km/h
1967 24-03-2020 19:50:00 3.5 C 3.32 g/m*3 3.5 C 4.8 km/h
1968 24-03-2020 19:55:00 3.4 C 3.36 g/m*3 3.4 C 4.8 km/h
1969 24-03-2020 20:00:00 3.3 C 3.34 g/m*3 1.63 C 6.4 km/h
1970 24-03-2020 20:05:00 3.2 C 3.37 g/m*3 3.2 C 4.8 km/h
1971 24-03-2020 20:10:00 3.1 C 3.29 g/m*3 1.4 C 6.4 km/h
1972 24-03-2020 20:15:00 3 C 3.33 g/m*3 1.28 C 6.4 km/h
1973 24-03-2020 20:20:00 2.9 C 3.31 g/m*3 1.17 C 6.4 km/h
1974 24-03-2020 20:25:00 2.8 C 3.34 g/m*3 1.05 C 6.4 km/h
1975 24-03-2020 20:30:00 2.8 C 3.34 g/m*3 1.05 C 6.4 km/h
Sensor: Nr:Datum:Temp:Abs-Feuchte:Windchill:Wind:
Aussen-T/F 1976 24-03-2020 20:35:00 2.7 C 3.38 g/m*3 0.94 C 6.4 km/h
1977 24-03-2020 20:40:00 2.6 C 3.36 g/m*3 2.6 C 4.8 km/h
1978 24-03-2020 20:45:00 2.5 C 3.39 g/m*3 0.71 C 6.4 km/h
1979 24-03-2020 20:50:00 2.4 C 3.37 g/m*3 2.4 C 4.8 km/h
1980 24-03-2020 20:55:00 2.3 C 3.35 g/m*3 0.47 C 6.4 km/h
1981 24-03-2020 21:00:00 2.2 C 3.27 g/m*3 0.36 C 6.4 km/h
1982 24-03-2020 21:05:00 2.2 C 3.27 g/m*3 0.36 C 6.4 km/h
1983 24-03-2020 21:10:00 2.2 C 3.32 g/m*3 0.36 C 6.4 km/h
1984 24-03-2020 21:15:00 2.1 C 3.3 g/m*3 0.24 C 6.4 km/h
1985 24-03-2020 21:20:00 2.1 C 3.3 g/m*3 0.24 C 6.4 km/h
1986 24-03-2020 21:25:00 2 C 3.28 g/m*3 0.13 C 6.4 km/h
1987 24-03-2020 21:30:00 1.9 C 3.31 g/m*3 0.01 C 6.4 km/h
1988 24-03-2020 21:35:00 1.9 C 3.31 g/m*3 1.9 C 4.8 km/h
1989 24-03-2020 21:40:00 1.8 C 3.29 g/m*3 -0.1 C 6.4 km/h
1990 24-03-2020 21:45:00 1.8 C 3.29 g/m*3 -0.1 C 6.4 km/h
1991 24-03-2020 21:50:00 1.7 C 3.27 g/m*3 -0.22 C 6.4 km/h
1992 24-03-2020 21:55:00 1.7 C 3.27 g/m*3 -0.22 C 6.4 km/h
1993 24-03-2020 22:00:00 1.6 C 3.24 g/m*3 1.6 C 4.8 km/h
1994 24-03-2020 22:05:00 1.6 C 3.3 g/m*3 -0.33 C 6.4 km/h
1995 24-03-2020 22:10:00 1.5 C 3.33 g/m*3 1.5 C 4.8 km/h
1996 24-03-2020 22:15:00 1.4 C 3.31 g/m*3 1.4 C 4.8 km/h
1997 24-03-2020 22:20:00 1.3 C 3.34 g/m*3 1.3 C 4.8 km/h
1998 24-03-2020 22:25:00 1.2 C 3.37 g/m*3 1.2 C 4.8 km/h
1999 24-03-2020 22:30:00 1.1 C 3.34 g/m*3 1.1 C 1.6 km/h
2000 24-03-2020 22:35:00 0.9 C 3.4 g/m*3 0.9 C 1.6 km/h
Sensor: Nr:Datum:Temp:Abs-Feuchte:Windchill:Wind:
Aussen-T/F 2001 24-03-2020 22:40:00 0.8 C 3.43 g/m*3 0.8 C 3.2 km/h
2002 24-03-2020 22:45:00 0.7 C 3.46 g/m*3 0.7 C 3.2 km/h
2003 24-03-2020 22:50:00 0.6 C 3.38 g/m*3 0.6 C 1.6 km/h
2004 24-03-2020 22:55:00 0.4 C 3.39 g/m*3 0.4 C 1.6 km/h
2005 24-03-2020 23:00:00 0.4 C 3.49 g/m*3 0.4 C 0 km/h
2006 24-03-2020 23:05:00 0.4 C 3.39 g/m*3 0.4 C 1.6 km/h
2007 24-03-2020 23:10:00 0.3 C 3.31 g/m*3 0.3 C 0 km/h
2008 24-03-2020 23:15:00 0.2 C 3.24 g/m*3 0.2 C 0 km/h
2009 24-03-2020 23:20:00 0.1 C 3.22 g/m*3 0.1 C 0 km/h
2010 24-03-2020 23:25:00 0 C 3.15 g/m*3 0 C 0 km/h
2011 24-03-2020 23:30:00 -0.1 C 3.13 g/m*3 -0.1 C 3.2 km/h
2012 24-03-2020 23:35:00 -0.2 C 3.2 g/m*3 -0.2 C 3.2 km/h
2013 24-03-2020 23:40:00 -0.2 C 3.15 g/m*3 -0.2 C 0 km/h
2014 24-03-2020 23:45:00 -0.2 C 3.25 g/m*3 -0.2 C 0 km/h
2015 24-03-2020 23:50:00 -0.3 C 3.23 g/m*3 -0.3 C 0 km/h
2016 24-03-2020 23:55:00 -0.3 C 3.23 g/m*3 -0.3 C 0 km/h

Legende:
   Min
   Max


Maximal/Minimal-Werte vom 18.03.2020 - 24.03.2020

Sensor Min Max Avg
Temp
(Aussen-T/F)
-3.5 °C
24-03-2020  06:30:00
18.1 °C
19-03-2020  13:30:00
6.99 °C
Abs-Feuchte
(Aussen-T/F)
1.99 g/m*3
23-03-2020  14:00:00
9.57 g/m*3
18-03-2020  12:35:00
5.57 g/m*3
Windchill
(Aussen-T/F)
-4.78 C
23-03-2020  07:55:00
18.1 C
19-03-2020  13:30:00
6.25 C

Die Daten stammen von einer Davis Vantage Pro 2 Wetter-Station und werden unter Linux mit der Software wview2wettercgi und aufbereitet. Alle Angaben erfolgen ohne Gewähr für ihre Vollständigkeit oder Richtigkeit.
Kontakt: Rainer Krienke krienke@uni-koblenz.de . Meine Webseiten an der Uni Koblenz oder privat.
Version: $Revision: 0.78 $